PWSweather.com
Personal Weather Stations
Station Observations
ALLANTONFL
Allanton, Panama City, FL 32404

AllantonPanama City, FL 32404

Lat: 30.036, Lon: -85.48284060000003

Elevation: 11

Station Type: Acurite 5in1

High Low Average
Temperature 138.9°F59.4°C -40.0°F-40.0°C 62.8°F17.1°C
Dew Point 135.3°F57.4°C -71.8°F-57.7°C 46.1°F7.8°C
Winds 22.2 mph 35.7 kmh Calm Calm 11.0 mph SW17.7 kmh SW
Wind Gusts 23.8 mph38.3 kmh 2.7 mph4.3 kmh 14.0 mph22.5 kmh
Humidity 93% 11% 61%
Pressure 29.97 in1014.9 mb 29.79 in1008.8 mb -
Precipitation 0.82 in20.8 mm - -
Hour Temp Dew Point Humidity Winds Wind Gusts Pressure Precip Precip Rate Daily Precip Total
12:00 AM 25.0°F-3.9°C 22.7°F-5.2°C 91% 4.7 mph ESE7.6 kmh ESE 6.3 mph10.1 kmh 29.92 in1013.2 mb 0.00 in0.0 mm 0.00 in0.0 mm 0.10 in2.5 mm
12:01 AM 25.0°F-3.9°C 22.7°F-5.2°C 91% 6.3 mph SE10.1 kmh SE 6.3 mph10.1 kmh 29.92 in1013.2 mb 0.00 in0.0 mm 0.00 in0.0 mm 0.10 in2.5 mm
12:02 AM 25.0°F-3.9°C 22.7°F-5.2°C 91% 6.3 mph SE10.1 kmh SE 6.3 mph10.1 kmh 29.92 in1013.2 mb 0.00 in0.0 mm 0.00 in0.0 mm 0.10 in2.5 mm
12:03 AM 25.0°F-3.9°C 22.7°F-5.2°C 91% 3.2 mph S5.1 kmh S 6.3 mph10.1 kmh 29.92 in1013.2 mb 0.00 in0.0 mm 0.00 in0.0 mm 0.10 in2.5 mm
12:04 AM 25.0°F-3.9°C 22.7°F-5.2°C 91% 4.2 mph ESE6.8 kmh ESE 6.3 mph10.1 kmh 29.92 in1013.2 mb 0.00 in0.0 mm 0.00 in0.0 mm 0.10 in2.5 mm
12:05 AM 25.0°F-3.9°C 22.7°F-5.2°C 91% 2.2 mph ESE3.5 kmh ESE 6.3 mph10.1 kmh 29.93 in1013.5 mb 0.00 in0.0 mm 0.00 in0.0 mm 0.10 in2.5 mm
12:06 AM 25.0°F-3.9°C 22.7°F-5.2°C 91% 2.7 mph S4.3 kmh S 6.3 mph10.1 kmh 29.93 in1013.5 mb 0.00 in0.0 mm 0.00 in0.0 mm 0.10 in2.5 mm
12:07 AM 25.0°F-3.9°C 22.7°F-5.2°C 91% 3.7 mph ESE6.0 kmh ESE 6.3 mph10.1 kmh 29.93 in1013.5 mb 0.00 in0.0 mm 0.00 in0.0 mm 0.10 in2.5 mm
12:08 AM 25.0°F-3.9°C 22.7°F-5.2°C 91% 4.7 mph SSE7.6 kmh SSE 7.3 mph11.7 kmh 29.93 in1013.5 mb 0.00 in0.0 mm 0.00 in0.0 mm 0.10 in2.5 mm
12:09 AM 25.0°F-3.9°C 22.7°F-5.2°C 91% 4.7 mph S7.6 kmh S 7.3 mph11.7 kmh 29.93 in1013.5 mb 0.00 in0.0 mm 0.00 in0.0 mm 0.10 in2.5 mm
12:10 AM 25.0°F-3.9°C 22.7°F-5.2°C 91% 3.7 mph SSE6.0 kmh SSE 7.3 mph11.7 kmh 29.93 in1013.5 mb 0.00 in0.0 mm 0.00 in0.0 mm 0.10 in2.5 mm
12:11 AM 25.0°F-3.9°C 22.7°F-5.2°C 91% 3.2 mph SSE5.1 kmh SSE 7.3 mph11.7 kmh 29.93 in1013.5 mb 0.00 in0.0 mm 0.00 in0.0 mm 0.10 in2.5 mm
12:12 AM 25.0°F-3.9°C 22.7°F-5.2°C 91% 4.7 mph SSE7.6 kmh SSE 7.3 mph11.7 kmh 29.93 in1013.5 mb 0.00 in0.0 mm 0.00 in0.0 mm 0.10 in2.5 mm
12:13 AM 25.0°F-3.9°C 22.7°F-5.2°C 91% 2.2 mph ESE3.5 kmh ESE 7.3 mph11.7 kmh 29.93 in1013.5 mb 0.00 in0.0 mm 0.00 in0.0 mm 0.10 in2.5 mm
12:14 AM 25.0°F-3.9°C 22.7°F-5.2°C 91% 4.2 mph S6.8 kmh S 7.3 mph11.7 kmh 29.93 in1013.5 mb 0.00 in0.0 mm 0.00 in0.0 mm 0.10 in2.5 mm
12:15 AM 25.0°F-3.9°C 22.7°F-5.2°C 91% 3.7 mph SSE6.0 kmh SSE 7.3 mph11.7 kmh 29.93 in1013.5 mb 0.00 in0.0 mm 0.00 in0.0 mm 0.10 in2.5 mm
12:16 AM 25.0°F-3.9°C 22.7°F-5.2°C 91% 2.7 mph SSE4.3 kmh SSE 7.3 mph11.7 kmh 29.93 in1013.5 mb 0.00 in0.0 mm 0.00 in0.0 mm 0.10 in2.5 mm
12:17 AM 25.0°F-3.9°C 22.7°F-5.2°C 91% 3.7 mph SSE6.0 kmh SSE 7.3 mph11.7 kmh 29.93 in1013.5 mb 0.00 in0.0 mm 0.00 in0.0 mm 0.10 in2.5 mm
12:18 AM 151.3°F66.3°C 147.5°F64.2°C 91% 3.7 mph S6.0 kmh S 6.3 mph10.1 kmh 29.93 in1013.5 mb 0.00 in0.0 mm 0.00 in0.0 mm 0.10 in2.5 mm
12:19 AM 151.3°F66.3°C 147.5°F64.2°C 91% 4.2 mph S6.8 kmh S 6.3 mph10.1 kmh 29.93 in1013.5 mb 0.00 in0.0 mm 0.00 in0.0 mm 0.10 in2.5 mm
12:20 AM 151.3°F66.3°C 147.5°F64.2°C 91% 3.2 mph S5.1 kmh S 6.3 mph10.1 kmh 29.93 in1013.5 mb 0.00 in0.0 mm 0.00 in0.0 mm 0.10 in2.5 mm
12:21 AM 151.3°F66.3°C 147.5°F64.2°C 91% 4.7 mph SSE7.6 kmh SSE 6.3 mph10.1 kmh 29.93 in1013.5 mb 0.00 in0.0 mm 0.00 in0.0 mm 0.10 in2.5 mm
12:22 AM 151.3°F66.3°C 147.5°F64.2°C 91% 4.2 mph S6.8 kmh S 6.3 mph10.1 kmh 29.93 in1013.5 mb 0.00 in0.0 mm 0.00 in0.0 mm 0.10 in2.5 mm
12:23 AM 151.3°F66.3°C 147.5°F64.2°C 91% 4.2 mph SE6.8 kmh SE 6.3 mph10.1 kmh 29.93 in1013.5 mb 0.00 in0.0 mm 0.00 in0.0 mm 0.10 in2.5 mm
12:24 AM 151.3°F66.3°C 147.5°F64.2°C 91% 4.7 mph SSE7.6 kmh SSE 6.3 mph10.1 kmh 29.93 in1013.5 mb 0.00 in0.0 mm 0.00 in0.0 mm 0.10 in2.5 mm
12:25 AM 151.3°F66.3°C 147.5°F64.2°C 91% 3.7 mph SSE6.0 kmh SSE 6.3 mph10.1 kmh 29.93 in1013.5 mb 0.00 in0.0 mm 0.00 in0.0 mm 0.10 in2.5 mm
12:26 AM 151.3°F66.3°C 147.5°F64.2°C 91% 6.3 mph SE10.1 kmh SE 6.3 mph10.1 kmh 29.93 in1013.5 mb 0.00 in0.0 mm 0.00 in0.0 mm 0.10 in2.5 mm
12:27 AM 151.3°F66.3°C 147.5°F64.2°C 91% 5.8 mph ESE9.3 kmh ESE 6.3 mph10.1 kmh 29.93 in1013.5 mb 0.00 in0.0 mm 0.00 in0.0 mm 0.10 in2.5 mm
12:28 AM 151.3°F66.3°C 147.5°F64.2°C 91% 2.7 mph S4.3 kmh S 6.3 mph10.1 kmh 29.93 in1013.5 mb 0.00 in0.0 mm 0.00 in0.0 mm 0.10 in2.5 mm
12:29 AM 151.3°F66.3°C 147.5°F64.2°C 91% 3.7 mph SSE6.0 kmh SSE 6.3 mph10.1 kmh 29.92 in1013.2 mb 0.00 in0.0 mm 0.00 in0.0 mm 0.10 in2.5 mm
12:30 AM 151.3°F66.3°C 147.5°F64.2°C 91% 6.8 mph SE10.9 kmh SE 6.8 mph10.9 kmh 29.92 in1013.2 mb 0.00 in0.0 mm 0.00 in0.0 mm 0.10 in2.5 mm
12:31 AM 151.3°F66.3°C 147.5°F64.2°C 91% 5.8 mph SE9.3 kmh SE 6.8 mph10.9 kmh 29.92 in1013.2 mb 0.00 in0.0 mm 0.00 in0.0 mm 0.10 in2.5 mm
12:32 AM 151.3°F66.3°C 147.5°F64.2°C 91% 3.2 mph S5.1 kmh S 6.8 mph10.9 kmh 29.92 in1013.2 mb 0.00 in0.0 mm 0.00 in0.0 mm 0.10 in2.5 mm
12:33 AM 151.3°F66.3°C 147.5°F64.2°C 91% 4.7 mph SSE7.6 kmh SSE 6.8 mph10.9 kmh 29.92 in1013.2 mb 0.00 in0.0 mm 0.00 in0.0 mm 0.10 in2.5 mm
12:34 AM 151.3°F66.3°C 147.5°F64.2°C 91% 4.7 mph ESE7.6 kmh ESE 6.8 mph10.9 kmh 29.92 in1013.2 mb 0.00 in0.0 mm 0.00 in0.0 mm 0.10 in2.5 mm
12:35 AM 151.3°F66.3°C 147.5°F64.2°C 91% 1.7 mph SSE2.7 kmh SSE 6.8 mph10.9 kmh 29.92 in1013.2 mb 0.00 in0.0 mm 0.00 in0.0 mm 0.10 in2.5 mm
12:36 AM 151.3°F66.3°C 147.5°F64.2°C 91% 3.2 mph SSE5.1 kmh SSE 6.8 mph10.9 kmh 29.92 in1013.2 mb 0.00 in0.0 mm 0.00 in0.0 mm 0.10 in2.5 mm
12:37 AM 151.3°F66.3°C 147.5°F64.2°C 91% 4.2 mph SSE6.8 kmh SSE 6.8 mph10.9 kmh 29.92 in1013.2 mb 0.00 in0.0 mm 0.00 in0.0 mm 0.10 in2.5 mm
12:38 AM 151.3°F66.3°C 147.5°F64.2°C 91% 6.3 mph SSE10.1 kmh SSE 6.8 mph10.9 kmh 29.92 in1013.2 mb 0.00 in0.0 mm 0.00 in0.0 mm 0.10 in2.5 mm
12:39 AM 151.3°F66.3°C 147.5°F64.2°C 91% 6.3 mph ESE10.1 kmh ESE 6.8 mph10.9 kmh 29.92 in1013.2 mb 0.00 in0.0 mm 0.00 in0.0 mm 0.10 in2.5 mm
12:40 AM 151.3°F66.3°C 147.5°F64.2°C 91% 3.2 mph SSE5.1 kmh SSE 6.8 mph10.9 kmh 29.92 in1013.2 mb 0.00 in0.0 mm 0.00 in0.0 mm 0.10 in2.5 mm
12:41 AM 151.3°F66.3°C 147.5°F64.2°C 91% 2.7 mph SE4.3 kmh SE 6.8 mph10.9 kmh 29.92 in1013.2 mb 0.00 in0.0 mm 0.00 in0.0 mm 0.10 in2.5 mm
12:42 AM 151.3°F66.3°C 147.5°F64.2°C 91% 4.7 mph S7.6 kmh S 6.3 mph10.1 kmh 29.92 in1013.2 mb 0.00 in0.0 mm 0.00 in0.0 mm 0.10 in2.5 mm
12:43 AM 151.3°F66.3°C 147.5°F64.2°C 91% 3.2 mph SSE5.1 kmh SSE 6.3 mph10.1 kmh 29.92 in1013.2 mb 0.00 in0.0 mm 0.00 in0.0 mm 0.10 in2.5 mm
12:44 AM 151.3°F66.3°C 147.5°F64.2°C 91% 4.7 mph SW7.6 kmh SW 6.3 mph10.1 kmh 29.92 in1013.2 mb 0.00 in0.0 mm 0.00 in0.0 mm 0.10 in2.5 mm
12:45 AM 151.3°F66.3°C 147.5°F64.2°C 91% 6.3 mph S10.1 kmh S 6.8 mph10.9 kmh 29.92 in1013.2 mb 0.00 in0.0 mm 0.00 in0.0 mm 0.10 in2.5 mm
12:46 AM 151.3°F66.3°C 147.5°F64.2°C 91% 2.7 mph ESE4.3 kmh ESE 6.8 mph10.9 kmh 29.92 in1013.2 mb 0.00 in0.0 mm 0.00 in0.0 mm 0.10 in2.5 mm
12:47 AM 151.3°F66.3°C 147.5°F64.2°C 91% 3.7 mph SSE6.0 kmh SSE 8.3 mph13.4 kmh 29.92 in1013.2 mb 0.00 in0.0 mm 0.00 in0.0 mm 0.10 in2.5 mm
12:48 AM 151.3°F66.3°C 147.5°F64.2°C 91% 4.7 mph S7.6 kmh S 8.3 mph13.4 kmh 29.92 in1013.2 mb 0.00 in0.0 mm 0.00 in0.0 mm 0.10 in2.5 mm
12:49 AM 151.3°F66.3°C 147.5°F64.2°C 91% 2.7 mph SSE4.3 kmh SSE 8.3 mph13.4 kmh 29.92 in1013.2 mb 0.00 in0.0 mm 0.00 in0.0 mm 0.10 in2.5 mm
12:50 AM 151.3°F66.3°C 147.5°F64.2°C 91% 3.2 mph SSE5.1 kmh SSE 8.3 mph13.4 kmh 29.92 in1013.2 mb 0.00 in0.0 mm 0.00 in0.0 mm 0.10 in2.5 mm
12:51 AM 61.3°F16.3°C 58.7°F14.8°C 91% 7.8 mph S12.6 kmh S 8.3 mph13.4 kmh 29.92 in1013.2 mb 0.00 in0.0 mm 0.00 in0.0 mm 0.10 in2.5 mm
12:52 AM 61.3°F16.3°C 58.7°F14.8°C 91% 4.2 mph ESE6.8 kmh ESE 8.3 mph13.4 kmh 29.91 in1012.9 mb 0.00 in0.0 mm 0.00 in0.0 mm 0.10 in2.5 mm
12:53 AM 61.3°F16.3°C 58.7°F14.8°C 91% 4.2 mph SSE6.8 kmh SSE 8.3 mph13.4 kmh 29.91 in1012.9 mb 0.00 in0.0 mm 0.00 in0.0 mm 0.10 in2.5 mm
12:54 AM 61.3°F16.3°C 58.7°F14.8°C 91% 2.7 mph SE4.3 kmh SE 8.3 mph13.4 kmh 29.91 in1012.9 mb 0.00 in0.0 mm 0.00 in0.0 mm 0.10 in2.5 mm
12:55 AM 61.3°F16.3°C 14.8°F-9.6°C 16% 1.7 mph SE2.7 kmh SE 8.3 mph13.4 kmh 29.91 in1012.9 mb 0.00 in0.0 mm 0.00 in0.0 mm 0.10 in2.5 mm
12:56 AM 61.3°F16.3°C 14.8°F-9.6°C 16% 4.7 mph SSE7.6 kmh SSE 8.3 mph13.4 kmh 29.91 in1012.9 mb 0.00 in0.0 mm 0.00 in0.0 mm 0.10 in2.5 mm
12:57 AM 61.3°F16.3°C 14.8°F-9.6°C 16% 3.7 mph SE6.0 kmh SE 7.8 mph12.6 kmh 29.91 in1012.9 mb 0.00 in0.0 mm 0.00 in0.0 mm 0.10 in2.5 mm
12:58 AM 61.3°F16.3°C 14.8°F-9.6°C 16% 4.2 mph SSE6.8 kmh SSE 7.8 mph12.6 kmh 29.91 in1012.9 mb 0.00 in0.0 mm 0.00 in0.0 mm 0.10 in2.5 mm
12:59 AM 61.3°F16.3°C 14.8°F-9.6°C 16% 3.2 mph S5.1 kmh S 7.8 mph12.6 kmh 29.91 in1012.9 mb 0.00 in0.0 mm 0.00 in0.0 mm 0.10 in2.5 mm
01:00 AM 61.3°F16.3°C 14.8°F-9.6°C 16% 4.2 mph ESE6.8 kmh ESE 7.8 mph12.6 kmh 29.91 in1012.9 mb 0.00 in0.0 mm 0.00 in0.0 mm 0.00 in0.0 mm
01:01 AM 61.3°F16.3°C 14.8°F-9.6°C 16% 3.2 mph SSE5.1 kmh SSE 7.8 mph12.6 kmh 29.91 in1012.9 mb 0.00 in0.0 mm 0.00 in0.0 mm 0.00 in0.0 mm
01:02 AM 61.3°F16.3°C 14.8°F-9.6°C 16% 3.7 mph SSE6.0 kmh SSE 5.8 mph9.3 kmh 29.91 in1012.9 mb 0.00 in0.0 mm 0.00 in0.0 mm 0.00 in0.0 mm
01:03 AM 61.3°F16.3°C 14.8°F-9.6°C 16% 3.7 mph S6.0 kmh S 5.8 mph9.3 kmh 29.91 in1012.9 mb 0.00 in0.0 mm 0.00 in0.0 mm 0.00 in0.0 mm
01:04 AM 61.3°F16.3°C 14.8°F-9.6°C 16% 3.7 mph SSE6.0 kmh SSE 5.8 mph9.3 kmh 29.91 in1012.9 mb 0.00 in0.0 mm 0.00 in0.0 mm 0.00 in0.0 mm
01:05 AM 61.3°F16.3°C 14.8°F-9.6°C 16% 2.7 mph SE4.3 kmh SE 5.8 mph9.3 kmh 29.91 in1012.9 mb 0.00 in0.0 mm 0.00 in0.0 mm 0.00 in0.0 mm
01:06 AM 61.3°F16.3°C 14.8°F-9.6°C 16% 3.7 mph SSE6.0 kmh SSE 5.8 mph9.3 kmh 29.91 in1012.9 mb 0.00 in0.0 mm 0.00 in0.0 mm 0.00 in0.0 mm
01:07 AM 61.3°F16.3°C 14.8°F-9.6°C 16% 6.8 mph SSE10.9 kmh SSE 6.8 mph10.9 kmh 29.91 in1012.9 mb 0.00 in0.0 mm 0.00 in0.0 mm 0.00 in0.0 mm
01:08 AM 61.3°F16.3°C 14.8°F-9.6°C 16% 6.3 mph ESE10.1 kmh ESE 6.8 mph10.9 kmh 29.91 in1012.9 mb 0.00 in0.0 mm 0.00 in0.0 mm 0.00 in0.0 mm
01:09 AM -20.7°F-29.3°C -52.7°F-47.1°C 16% 3.2 mph ESE5.1 kmh ESE 6.8 mph10.9 kmh 29.91 in1012.9 mb 0.00 in0.0 mm 0.00 in0.0 mm 0.00 in0.0 mm
01:10 AM -20.7°F-29.3°C -52.7°F-47.1°C 16% 6.3 mph ESE10.1 kmh ESE 6.8 mph10.9 kmh 29.91 in1012.9 mb 0.00 in0.0 mm 0.00 in0.0 mm 0.00 in0.0 mm
01:11 AM -20.7°F-29.3°C -52.7°F-47.1°C 16% 3.2 mph SE5.1 kmh SE 6.8 mph10.9 kmh 29.91 in1012.9 mb 0.00 in0.0 mm 0.00 in0.0 mm 0.00 in0.0 mm
01:12 AM -20.7°F-29.3°C -52.7°F-47.1°C 16% 6.3 mph SE10.1 kmh SE 6.8 mph10.9 kmh 29.91 in1012.9 mb 0.00 in0.0 mm 0.00 in0.0 mm 0.00 in0.0 mm
01:13 AM -20.7°F-29.3°C -52.7°F-47.1°C 16% 6.8 mph SSE10.9 kmh SSE 6.8 mph10.9 kmh 29.91 in1012.9 mb 0.00 in0.0 mm 0.00 in0.0 mm 0.00 in0.0 mm
01:14 AM -20.7°F-29.3°C -52.7°F-47.1°C 16% 4.2 mph ESE6.8 kmh ESE 6.8 mph10.9 kmh 29.91 in1012.9 mb 0.00 in0.0 mm 0.00 in0.0 mm 0.00 in0.0 mm
01:15 AM -20.7°F-29.3°C -52.7°F-47.1°C 16% 5.3 mph ESE8.5 kmh ESE 7.8 mph12.6 kmh 29.91 in1012.9 mb 0.00 in0.0 mm 0.00 in0.0 mm 0.00 in0.0 mm
01:16 AM -20.7°F-29.3°C -52.7°F-47.1°C 16% 3.2 mph S5.1 kmh S 7.8 mph12.6 kmh 29.91 in1012.9 mb 0.00 in0.0 mm 0.00 in0.0 mm 0.00 in0.0 mm
01:17 AM -20.7°F-29.3°C -52.7°F-47.1°C 16% 6.3 mph SSE10.1 kmh SSE 7.8 mph12.6 kmh 29.91 in1012.9 mb 0.00 in0.0 mm 0.00 in0.0 mm 0.00 in0.0 mm
01:18 AM -20.7°F-29.3°C -52.7°F-47.1°C 16% 4.2 mph ESE6.8 kmh ESE 7.8 mph12.6 kmh 29.91 in1012.9 mb 0.00 in0.0 mm 0.00 in0.0 mm 0.00 in0.0 mm
01:19 AM -20.7°F-29.3°C -52.7°F-47.1°C 16% 3.7 mph ESE6.0 kmh ESE 7.8 mph12.6 kmh 29.91 in1012.9 mb 0.00 in0.0 mm 0.00 in0.0 mm 0.00 in0.0 mm
01:20 AM 10.9°F-11.7°C -26.3°F-32.4°C 16% 6.8 mph SE10.9 kmh SE 7.8 mph12.6 kmh 29.91 in1012.9 mb 0.00 in0.0 mm 0.00 in0.0 mm 0.00 in0.0 mm
01:21 AM 10.9°F-11.7°C -26.3°F-32.4°C 16% 6.8 mph ESE10.9 kmh ESE 7.8 mph12.6 kmh 29.91 in1012.9 mb 0.00 in0.0 mm 0.00 in0.0 mm 0.00 in0.0 mm
01:22 AM 10.9°F-11.7°C -26.3°F-32.4°C 16% 7.3 mph ESE11.7 kmh ESE 7.8 mph12.6 kmh 29.91 in1012.9 mb 0.00 in0.0 mm 0.00 in0.0 mm 0.00 in0.0 mm
01:23 AM 10.9°F-11.7°C -30.1°F-34.5°C 13% 4.7 mph S7.6 kmh S 8.9 mph14.3 kmh 29.91 in1012.9 mb 0.00 in0.0 mm 0.00 in0.0 mm 0.00 in0.0 mm
01:24 AM 10.9°F-11.7°C -31.6°F-35.3°C 12% 6.3 mph SE10.1 kmh SE 8.9 mph14.3 kmh 29.91 in1012.9 mb 0.00 in0.0 mm 0.00 in0.0 mm 0.00 in0.0 mm
01:25 AM 10.9°F-11.7°C -31.6°F-35.3°C 12% 6.3 mph S10.1 kmh S 8.9 mph14.3 kmh 29.91 in1012.9 mb 0.00 in0.0 mm 0.00 in0.0 mm 0.00 in0.0 mm
01:26 AM 10.9°F-11.7°C -33.1°F-36.2°C 11% 7.3 mph SSE11.7 kmh SSE 8.9 mph14.3 kmh 29.91 in1012.9 mb 0.00 in0.0 mm 0.00 in0.0 mm 0.00 in0.0 mm
01:27 AM 10.9°F-11.7°C -33.1°F-36.2°C 11% 6.8 mph SSE10.9 kmh SSE 8.9 mph14.3 kmh 29.91 in1012.9 mb 0.00 in0.0 mm 0.00 in0.0 mm 0.00 in0.0 mm
01:28 AM 10.9°F-11.7°C -33.1°F-36.2°C 11% 4.7 mph SE7.6 kmh SE 8.9 mph14.3 kmh 29.91 in1012.9 mb 0.00 in0.0 mm 0.00 in0.0 mm 0.00 in0.0 mm
01:29 AM 10.9°F-11.7°C -33.1°F-36.2°C 11% 6.3 mph SSE10.1 kmh SSE 8.9 mph14.3 kmh 29.90 in1012.5 mb 0.00 in0.0 mm 0.00 in0.0 mm 0.00 in0.0 mm
01:30 AM 10.9°F-11.7°C -33.1°F-36.2°C 11% 4.7 mph SSE7.6 kmh SSE 8.9 mph14.3 kmh 29.90 in1012.5 mb 0.00 in0.0 mm 0.00 in0.0 mm 0.00 in0.0 mm
01:31 AM 10.9°F-11.7°C -33.1°F-36.2°C 11% 3.2 mph ESE5.1 kmh ESE 8.9 mph14.3 kmh 29.90 in1012.5 mb 0.00 in0.0 mm 0.00 in0.0 mm 0.00 in0.0 mm
01:32 AM 10.9°F-11.7°C -33.1°F-36.2°C 11% 6.8 mph ESE10.9 kmh ESE 8.9 mph14.3 kmh 29.90 in1012.5 mb 0.00 in0.0 mm 0.00 in0.0 mm 0.00 in0.0 mm
01:33 AM 10.9°F-11.7°C -33.1°F-36.2°C 11% 5.3 mph SSE8.5 kmh SSE 8.3 mph13.4 kmh 29.90 in1012.5 mb 0.00 in0.0 mm 0.00 in0.0 mm 0.00 in0.0 mm
01:34 AM 10.9°F-11.7°C -33.1°F-36.2°C 11% 8.9 mph ESE14.3 kmh ESE 8.9 mph14.3 kmh 29.90 in1012.5 mb 0.00 in0.0 mm 0.00 in0.0 mm 0.00 in0.0 mm
01:35 AM 10.9°F-11.7°C -33.1°F-36.2°C 11% 3.7 mph SSE6.0 kmh SSE 8.9 mph14.3 kmh 29.90 in1012.5 mb 0.00 in0.0 mm 0.00 in0.0 mm 0.00 in0.0 mm
01:36 AM 10.9°F-11.7°C -33.1°F-36.2°C 11% 4.2 mph SSW6.8 kmh SSW 8.9 mph14.3 kmh 29.90 in1012.5 mb 0.00 in0.0 mm 0.00 in0.0 mm 0.00 in0.0 mm
01:37 AM 10.9°F-11.7°C -33.1°F-36.2°C 11% 4.2 mph ESE6.8 kmh ESE 8.9 mph14.3 kmh 29.90 in1012.5 mb 0.00 in0.0 mm 0.00 in0.0 mm 0.00 in0.0 mm
01:38 AM 22.6°F-5.2°C -23.9°F-31.1°C 11% 4.2 mph SSE6.8 kmh SSE 8.9 mph14.3 kmh 29.90 in1012.5 mb 0.00 in0.0 mm 0.00 in0.0 mm 0.00 in0.0 mm
01:39 AM 22.6°F-5.2°C -23.9°F-31.1°C 11% 4.7 mph S7.6 kmh S 8.9 mph14.3 kmh 29.90 in1012.5 mb 0.00 in0.0 mm 0.00 in0.0 mm 0.00 in0.0 mm
01:40 AM 22.6°F-5.2°C -23.9°F-31.1°C 11% 4.7 mph SSE7.6 kmh SSE 8.9 mph14.3 kmh 29.90 in1012.5 mb 0.00 in0.0 mm 0.00 in0.0 mm 0.00 in0.0 mm
01:41 AM 22.6°F-5.2°C -23.9°F-31.1°C 11% 4.7 mph SSE7.6 kmh SSE 8.9 mph14.3 kmh 29.90 in1012.5 mb 0.00 in0.0 mm 0.00 in0.0 mm 0.00 in0.0 mm
01:42 AM 22.6°F-5.2°C -23.9°F-31.1°C 11% 2.7 mph SSE4.3 kmh SSE 8.9 mph14.3 kmh 29.90 in1012.5 mb 0.00 in0.0 mm 0.00 in0.0 mm 0.00 in0.0 mm
01:43 AM 22.6°F-5.2°C -23.9°F-31.1°C 11% 5.3 mph SSE8.5 kmh SSE 8.9 mph14.3 kmh 29.90 in1012.5 mb 0.00 in0.0 mm 0.00 in0.0 mm 0.00 in0.0 mm
01:44 AM 22.6°F-5.2°C -23.9°F-31.1°C 11% 4.7 mph S7.6 kmh S 8.9 mph14.3 kmh 29.90 in1012.5 mb 0.00 in0.0 mm 0.00 in0.0 mm 0.00 in0.0 mm
01:45 AM 22.6°F-5.2°C -23.9°F-31.1°C 11% 5.3 mph SSE8.5 kmh SSE 7.3 mph11.7 kmh 29.90 in1012.5 mb 0.00 in0.0 mm 0.00 in0.0 mm 0.00 in0.0 mm
01:46 AM 22.6°F-5.2°C -23.9°F-31.1°C 11% 3.2 mph ESE5.1 kmh ESE 7.3 mph11.7 kmh 29.90 in1012.5 mb 0.00 in0.0 mm 0.00 in0.0 mm 0.00 in0.0 mm
01:47 AM 22.6°F-5.2°C -23.9°F-31.1°C 11% 5.3 mph SSE8.5 kmh SSE 7.3 mph11.7 kmh 29.90 in1012.5 mb 0.00 in0.0 mm 0.00 in0.0 mm 0.00 in0.0 mm
01:48 AM -6.3°F-21.3°C -46.9°F-43.8°C 11% 3.7 mph SSE6.0 kmh SSE 7.3 mph11.7 kmh 29.90 in1012.5 mb 0.00 in0.0 mm 0.00 in0.0 mm 0.00 in0.0 mm
01:49 AM -6.3°F-21.3°C -46.9°F-43.8°C 11% 4.7 mph S7.6 kmh S 7.3 mph11.7 kmh 29.90 in1012.5 mb 0.00 in0.0 mm 0.00 in0.0 mm 0.00 in0.0 mm
01:50 AM -6.3°F-21.3°C -46.9°F-43.8°C 11% 2.7 mph ESE4.3 kmh ESE 7.3 mph11.7 kmh 29.90 in1012.5 mb 0.00 in0.0 mm 0.00 in0.0 mm 0.00 in0.0 mm
01:51 AM -11.9°F-24.4°C -51.4°F-46.3°C 11% 7.3 mph SSE11.7 kmh SSE 7.8 mph12.6 kmh 29.90 in1012.5 mb 0.00 in0.0 mm 0.00 in0.0 mm 0.00 in0.0 mm
01:52 AM -11.9°F-24.4°C -51.4°F-46.3°C 11% 4.2 mph S6.8 kmh S 7.8 mph12.6 kmh 29.91 in1012.9 mb 0.00 in0.0 mm 0.00 in0.0 mm 0.00 in0.0 mm
01:53 AM -17.0°F-27.2°C -55.5°F-48.6°C 11% 5.8 mph ESE9.3 kmh ESE 7.8 mph12.6 kmh 29.91 in1012.9 mb 0.00 in0.0 mm 0.00 in0.0 mm 0.00 in0.0 mm
01:54 AM -17.0°F-27.2°C -55.5°F-48.6°C 11% 5.8 mph SSE9.3 kmh SSE 7.8 mph12.6 kmh 29.91 in1012.9 mb 0.00 in0.0 mm 0.00 in0.0 mm 0.00 in0.0 mm
01:55 AM -17.0°F-27.2°C -55.5°F-48.6°C 11% 3.7 mph SSE6.0 kmh SSE 7.8 mph12.6 kmh 29.91 in1012.9 mb 0.00 in0.0 mm 0.00 in0.0 mm 0.00 in0.0 mm
01:56 AM -34.2°F-36.8°C -69.5°F-56.4°C 11% 2.2 mph SSW3.5 kmh SSW 7.8 mph12.6 kmh 29.91 in1012.9 mb 0.00 in0.0 mm 0.00 in0.0 mm 0.00 in0.0 mm
01:57 AM -37.1°F-38.4°C -71.8°F-57.7°C 11% 5.8 mph ESE9.3 kmh ESE 7.8 mph12.6 kmh 29.91 in1012.9 mb 0.00 in0.0 mm 0.00 in0.0 mm 0.00 in0.0 mm
01:58 AM -37.1°F-38.4°C -71.8°F-57.7°C 11% 4.7 mph S7.6 kmh S 7.8 mph12.6 kmh 29.91 in1012.9 mb 0.00 in0.0 mm 0.00 in0.0 mm 0.00 in0.0 mm
01:59 AM -37.1°F-38.4°C -71.8°F-57.7°C 11% 5.3 mph SSE8.5 kmh SSE 7.8 mph12.6 kmh 29.91 in1012.9 mb 0.00 in0.0 mm 0.00 in0.0 mm 0.00 in0.0 mm
02:00 AM -37.1°F-38.4°C -71.8°F-57.7°C 11% 4.2 mph S6.8 kmh S 7.8 mph12.6 kmh 29.91 in1012.9 mb 0.00 in0.0 mm 0.00 in0.0 mm 0.00 in0.0 mm
02:01 AM -37.1°F-38.4°C -71.8°F-57.7°C 11% 2.2 mph ESE3.5 kmh ESE 7.3 mph11.7 kmh 29.91 in1012.9 mb 0.00 in0.0 mm 0.00 in0.0 mm 0.00 in0.0 mm
02:02 AM -37.1°F-38.4°C -71.8°F-57.7°C 11% 3.7 mph S6.0 kmh S 6.8 mph10.9 kmh 29.91 in1012.9 mb 0.00 in0.0 mm 0.00 in0.0 mm 0.00 in0.0 mm
02:03 AM -37.1°F-38.4°C -71.8°F-57.7°C 11% 4.2 mph SSE6.8 kmh SSE 6.8 mph10.9 kmh 29.91 in1012.9 mb 0.00 in0.0 mm 0.00 in0.0 mm 0.00 in0.0 mm
02:04 AM -37.1°F-38.4°C -71.8°F-57.7°C 11% 2.7 mph SSW4.3 kmh SSW 6.8 mph10.9 kmh 29.90 in1012.5 mb 0.00 in0.0 mm 0.00 in0.0 mm 0.00 in0.0 mm
02:05 AM -6.5°F-21.4°C -47.1°F-43.9°C 11% 4.2 mph SSE6.8 kmh SSE 6.8 mph10.9 kmh 29.90 in1012.5 mb 0.00 in0.0 mm 0.00 in0.0 mm 0.00 in0.0 mm
02:06 AM -6.5°F-21.4°C -47.1°F-43.9°C 11% 3.2 mph SW5.1 kmh SW 5.8 mph9.3 kmh 29.90 in1012.5 mb 0.00 in0.0 mm 0.00 in0.0 mm 0.00 in0.0 mm
02:07 AM -6.5°F-21.4°C -47.1°F-43.9°C 11% 4.7 mph SSE7.6 kmh SSE 6.3 mph10.1 kmh 29.90 in1012.5 mb 0.00 in0.0 mm 0.00 in0.0 mm 0.00 in0.0 mm
02:08 AM -6.5°F-21.4°C -47.1°F-43.9°C 11% 3.7 mph SSE6.0 kmh SSE 6.3 mph10.1 kmh 29.90 in1012.5 mb 0.00 in0.0 mm 0.00 in0.0 mm 0.00 in0.0 mm
02:09 AM -6.5°F-21.4°C -47.1°F-43.9°C 11% 3.2 mph SE5.1 kmh SE 6.3 mph10.1 kmh 29.90 in1012.5 mb 0.00 in0.0 mm 0.00 in0.0 mm 0.00 in0.0 mm
02:10 AM -6.5°F-21.4°C -47.1°F-43.9°C 11% 1.7 mph SSE2.7 kmh SSE 6.3 mph10.1 kmh 29.90 in1012.5 mb 0.00 in0.0 mm 0.00 in0.0 mm 0.00 in0.0 mm
02:11 AM -6.5°F-21.4°C -47.1°F-43.9°C 11% 4.2 mph S6.8 kmh S 6.3 mph10.1 kmh 29.90 in1012.5 mb 0.00 in0.0 mm 0.00 in0.0 mm 0.00 in0.0 mm
02:12 AM -6.5°F-21.4°C -47.1°F-43.9°C 11% 3.7 mph SE6.0 kmh SE 6.3 mph10.1 kmh 29.90 in1012.5 mb 0.00 in0.0 mm 0.00 in0.0 mm 0.00 in0.0 mm
02:13 AM -6.5°F-21.4°C -47.1°F-43.9°C 11% 6.3 mph S10.1 kmh S 6.3 mph10.1 kmh 29.90 in1012.5 mb 0.00 in0.0 mm 0.00 in0.0 mm 0.00 in0.0 mm
02:14 AM -6.5°F-21.4°C -47.1°F-43.9°C 11% 5.3 mph S8.5 kmh S 6.3 mph10.1 kmh 29.90 in1012.5 mb 0.00 in0.0 mm 0.00 in0.0 mm 0.00 in0.0 mm
02:15 AM -6.5°F-21.4°C -47.1°F-43.9°C 11% 4.7 mph SSE7.6 kmh SSE 6.3 mph10.1 kmh 29.90 in1012.5 mb 0.00 in0.0 mm 0.00 in0.0 mm 0.00 in0.0 mm
02:16 AM -6.5°F-21.4°C -47.1°F-43.9°C 11% 6.3 mph S10.1 kmh S 6.3 mph10.1 kmh 29.90 in1012.5 mb 0.00 in0.0 mm 0.00 in0.0 mm 0.00 in0.0 mm
02:17 AM -6.5°F-21.4°C -47.1°F-43.9°C 11% 3.2 mph ESE5.1 kmh ESE 6.3 mph10.1 kmh 29.90 in1012.5 mb 0.00 in0.0 mm 0.00 in0.0 mm 0.00 in0.0 mm
02:18 AM -6.5°F-21.4°C -47.1°F-43.9°C 11% 5.8 mph ESE9.3 kmh ESE 6.3 mph10.1 kmh 29.90 in1012.5 mb 0.00 in0.0 mm 0.00 in0.0 mm 0.00 in0.0 mm
02:19 AM -6.5°F-21.4°C -47.1°F-43.9°C 11% 2.7 mph S4.3 kmh S 8.3 mph13.4 kmh 29.90 in1012.5 mb 0.00 in0.0 mm 0.00 in0.0 mm 0.00 in0.0 mm
02:20 AM -6.5°F-21.4°C -47.1°F-43.9°C 11% 5.8 mph SE9.3 kmh SE 8.3 mph13.4 kmh 29.90 in1012.5 mb 0.00 in0.0 mm 0.00 in0.0 mm 0.00 in0.0 mm
02:21 AM -6.5°F-21.4°C -47.1°F-43.9°C 11% 7.3 mph S11.7 kmh S 8.3 mph13.4 kmh 29.90 in1012.5 mb 0.00 in0.0 mm 0.00 in0.0 mm 0.00 in0.0 mm
02:22 AM -6.5°F-21.4°C -47.1°F-43.9°C 11% 6.3 mph SSE10.1 kmh SSE 8.3 mph13.4 kmh 29.90 in1012.5 mb 0.00 in0.0 mm 0.00 in0.0 mm 0.00 in0.0 mm
02:23 AM -6.5°F-21.4°C -47.1°F-43.9°C 11% 4.2 mph SE6.8 kmh SE 9.9 mph15.9 kmh 29.90 in1012.5 mb 0.00 in0.0 mm 0.00 in0.0 mm 0.00 in0.0 mm
02:24 AM -6.5°F-21.4°C -47.1°F-43.9°C 11% 7.8 mph SSW12.6 kmh SSW 9.9 mph15.9 kmh 29.90 in1012.5 mb 0.00 in0.0 mm 0.00 in0.0 mm 0.00 in0.0 mm
02:25 AM -6.5°F-21.4°C -47.1°F-43.9°C 11% 4.7 mph SSW7.6 kmh SSW 9.9 mph15.9 kmh 29.90 in1012.5 mb 0.00 in0.0 mm 0.00 in0.0 mm 0.00 in0.0 mm
02:26 AM -6.5°F-21.4°C -47.1°F-43.9°C 11% 3.2 mph SE5.1 kmh SE 9.9 mph15.9 kmh 29.90 in1012.5 mb 0.00 in0.0 mm 0.00 in0.0 mm 0.00 in0.0 mm
02:27 AM -6.5°F-21.4°C -47.1°F-43.9°C 11% 5.8 mph S9.3 kmh S 9.9 mph15.9 kmh 29.90 in1012.5 mb 0.00 in0.0 mm 0.00 in0.0 mm 0.00 in0.0 mm
02:28 AM -6.5°F-21.4°C -47.1°F-43.9°C 11% 5.3 mph SSE8.5 kmh SSE 9.9 mph15.9 kmh 29.89 in1012.2 mb 0.00 in0.0 mm 0.00 in0.0 mm 0.00 in0.0 mm
02:29 AM -6.5°F-21.4°C -47.1°F-43.9°C 11% 7.3 mph ESE11.7 kmh ESE 9.9 mph15.9 kmh 29.89 in1012.2 mb 0.00 in0.0 mm 0.00 in0.0 mm 0.00 in0.0 mm
02:30 AM -6.5°F-21.4°C -47.1°F-43.9°C 11% 6.8 mph S10.9 kmh S 9.9 mph15.9 kmh 29.89 in1012.2 mb 0.00 in0.0 mm 0.00 in0.0 mm 0.00 in0.0 mm
02:31 AM -6.5°F-21.4°C -47.1°F-43.9°C 11% 4.7 mph S7.6 kmh S 9.9 mph15.9 kmh 29.89 in1012.2 mb 0.00 in0.0 mm 0.00 in0.0 mm 0.00 in0.0 mm
02:32 AM -6.5°F-21.4°C -47.1°F-43.9°C 11% 3.7 mph SSE6.0 kmh SSE 9.9 mph15.9 kmh 29.89 in1012.2 mb 0.00 in0.0 mm 0.00 in0.0 mm 0.00 in0.0 mm
02:33 AM -6.5°F-21.4°C -47.1°F-43.9°C 11% 2.2 mph ESE3.5 kmh ESE 8.3 mph13.4 kmh 29.89 in1012.2 mb 0.00 in0.0 mm 0.00 in0.0 mm 0.00 in0.0 mm
02:34 AM -6.5°F-21.4°C -47.1°F-43.9°C 11% 6.3 mph SSE10.1 kmh SSE 8.3 mph13.4 kmh 29.89 in1012.2 mb 0.00 in0.0 mm 0.00 in0.0 mm 0.00 in0.0 mm
02:35 AM -6.5°F-21.4°C -47.1°F-43.9°C 11% 3.7 mph S6.0 kmh S 8.3 mph13.4 kmh 29.89 in1012.2 mb 0.00 in0.0 mm 0.00 in0.0 mm 0.00 in0.0 mm
02:36 AM -6.5°F-21.4°C -47.1°F-43.9°C 11% 5.8 mph SSE9.3 kmh SSE 8.3 mph13.4 kmh 29.89 in1012.2 mb 0.00 in0.0 mm 0.00 in0.0 mm 0.00 in0.0 mm
02:37 AM -6.5°F-21.4°C -47.1°F-43.9°C 11% 4.7 mph SE7.6 kmh SE 8.3 mph13.4 kmh 29.89 in1012.2 mb 0.00 in0.0 mm 0.00 in0.0 mm 0.00 in0.0 mm
02:38 AM -6.5°F-21.4°C -47.1°F-43.9°C 11% 7.3 mph S11.7 kmh S 8.9 mph14.3 kmh 29.89 in1012.2 mb 0.00 in0.0 mm 0.00 in0.0 mm 0.00 in0.0 mm
02:39 AM -6.5°F-21.4°C -47.1°F-43.9°C 11% 4.7 mph SSE7.6 kmh SSE 8.9 mph14.3 kmh 29.89 in1012.2 mb 0.00 in0.0 mm 0.00 in0.0 mm 0.00 in0.0 mm
02:40 AM -6.5°F-21.4°C -47.1°F-43.9°C 11% 4.7 mph S7.6 kmh S 8.9 mph14.3 kmh 29.89 in1012.2 mb 0.00 in0.0 mm 0.00 in0.0 mm 0.00 in0.0 mm
02:41 AM -6.5°F-21.4°C -47.1°F-43.9°C 11% 3.7 mph ESE6.0 kmh ESE 8.9 mph14.3 kmh 29.89 in1012.2 mb 0.00 in0.0 mm 0.00 in0.0 mm 0.00 in0.0 mm
02:42 AM -6.5°F-21.4°C -47.1°F-43.9°C 11% 8.9 mph S14.3 kmh S 8.9 mph14.3 kmh 29.89 in1012.2 mb 0.00 in0.0 mm 0.00 in0.0 mm 0.00 in0.0 mm
02:43 AM -6.5°F-21.4°C -47.1°F-43.9°C 11% 4.2 mph SSE6.8 kmh SSE 8.9 mph14.3 kmh 29.89 in1012.2 mb 0.00 in0.0 mm 0.00 in0.0 mm 0.00 in0.0 mm
02:44 AM -6.5°F-21.4°C -47.1°F-43.9°C 11% 6.3 mph SSE10.1 kmh SSE 8.9 mph14.3 kmh 29.89 in1012.2 mb 0.00 in0.0 mm 0.00 in0.0 mm 0.00 in0.0 mm
02:45 AM -6.5°F-21.4°C -47.1°F-43.9°C 11% 6.3 mph SE10.1 kmh SE 8.9 mph14.3 kmh 29.89 in1012.2 mb 0.00 in0.0 mm 0.00 in0.0 mm 0.00 in0.0 mm
02:46 AM -6.5°F-21.4°C -47.1°F-43.9°C 11% 5.8 mph S9.3 kmh S 8.9 mph14.3 kmh 29.89 in1012.2 mb 0.00 in0.0 mm 0.00 in0.0 mm 0.00 in0.0 mm
02:47 AM -6.5°F-21.4°C -47.1°F-43.9°C 11% 3.2 mph SSE5.1 kmh SSE 8.9 mph14.3 kmh 29.89 in1012.2 mb 0.00 in0.0 mm 0.00 in0.0 mm 0.00 in0.0 mm
02:48 AM -6.5°F-21.4°C -47.1°F-43.9°C 11% 3.7 mph S6.0 kmh S 8.9 mph14.3 kmh 29.89 in1012.2 mb 0.00 in0.0 mm 0.00 in0.0 mm 0.00 in0.0 mm
02:49 AM -6.5°F-21.4°C -47.1°F-43.9°C 11% 5.3 mph SSE8.5 kmh SSE 8.9 mph14.3 kmh 29.89 in1012.2 mb 0.00 in0.0 mm 0.00 in0.0 mm 0.00 in0.0 mm
02:50 AM -6.5°F-21.4°C -47.1°F-43.9°C 11% 7.3 mph SSE11.7 kmh SSE 8.9 mph14.3 kmh 29.89 in1012.2 mb 0.00 in0.0 mm 0.00 in0.0 mm 0.00 in0.0 mm
02:51 AM -6.5°F-21.4°C -47.1°F-43.9°C 11% 2.2 mph S3.5 kmh S 8.9 mph14.3 kmh 29.89 in1012.2 mb 0.00 in0.0 mm 0.00 in0.0 mm 0.00 in0.0 mm
02:52 AM -6.5°F-21.4°C -47.1°F-43.9°C 11% 5.8 mph SSW9.3 kmh SSW 7.8 mph12.6 kmh 29.89 in1012.2 mb 0.00 in0.0 mm 0.00 in0.0 mm 0.00 in0.0 mm
02:53 AM -6.5°F-21.4°C -47.1°F-43.9°C 11% 4.2 mph SSW6.8 kmh SSW 8.3 mph13.4 kmh 29.89 in1012.2 mb 0.00 in0.0 mm 0.00 in0.0 mm 0.00 in0.0 mm
02:54 AM -6.5°F-21.4°C -47.1°F-43.9°C 11% 8.3 mph E13.4 kmh E 8.3 mph13.4 kmh 29.89 in1012.2 mb 0.00 in0.0 mm 0.00 in0.0 mm 0.00 in0.0 mm
02:55 AM -6.5°F-21.4°C -47.1°F-43.9°C 11% 2.7 mph SSE4.3 kmh SSE 8.3 mph13.4 kmh 29.89 in1012.2 mb 0.00 in0.0 mm 0.00 in0.0 mm 0.00 in0.0 mm
02:56 AM -6.5°F-21.4°C -47.1°F-43.9°C 11% 5.8 mph S9.3 kmh S 8.3 mph13.4 kmh 29.89 in1012.2 mb 0.00 in0.0 mm 0.00 in0.0 mm 0.00 in0.0 mm
02:57 AM -6.5°F-21.4°C -47.1°F-43.9°C 11% 6.3 mph ESE10.1 kmh ESE 8.3 mph13.4 kmh 29.89 in1012.2 mb 0.00 in0.0 mm 0.00 in0.0 mm 0.00 in0.0 mm
02:58 AM -6.5°F-21.4°C -47.1°F-43.9°C 11% 5.3 mph SE8.5 kmh SE 8.3 mph13.4 kmh 29.89 in1012.2 mb 0.00 in0.0 mm 0.00 in0.0 mm 0.00 in0.0 mm
02:59 AM -6.5°F-21.4°C -47.1°F-43.9°C 11% 3.7 mph S6.0 kmh S 8.3 mph13.4 kmh 29.89 in1012.2 mb 0.00 in0.0 mm 0.00 in0.0 mm 0.00 in0.0 mm
03:00 AM -6.5°F-21.4°C -47.1°F-43.9°C 11% 4.2 mph ESE6.8 kmh ESE 8.3 mph13.4 kmh 29.89 in1012.2 mb 0.00 in0.0 mm 0.00 in0.0 mm 0.00 in0.0 mm
03:01 AM -6.5°F-21.4°C -47.1°F-43.9°C 11% 5.3 mph SE8.5 kmh SE 8.3 mph13.4 kmh 29.89 in1012.2 mb 0.00 in0.0 mm 0.00 in0.0 mm 0.00 in0.0 mm
03:02 AM -6.5°F-21.4°C -47.1°F-43.9°C 11% 4.7 mph SSE7.6 kmh SSE 8.3 mph13.4 kmh 29.89 in1012.2 mb 0.00 in0.0 mm 0.00 in0.0 mm 0.00 in0.0 mm
03:03 AM -6.5°F-21.4°C -47.1°F-43.9°C 11% 2.7 mph ESE4.3 kmh ESE 8.3 mph13.4 kmh 29.89 in1012.2 mb 0.00 in0.0 mm 0.00 in0.0 mm 0.00 in0.0 mm
03:04 AM -6.5°F-21.4°C -47.1°F-43.9°C 11% 5.3 mph SSE8.5 kmh SSE 8.3 mph13.4 kmh 29.88 in1011.9 mb 0.00 in0.0 mm 0.00 in0.0 mm 0.00 in0.0 mm
03:05 AM -6.5°F-21.4°C -47.1°F-43.9°C 11% 5.8 mph S9.3 kmh S 8.3 mph13.4 kmh 29.88 in1011.9 mb 0.00 in0.0 mm 0.00 in0.0 mm 0.00 in0.0 mm
03:06 AM -6.5°F-21.4°C -47.1°F-43.9°C 11% 5.3 mph S8.5 kmh S 8.3 mph13.4 kmh 29.88 in1011.9 mb 0.00 in0.0 mm 0.00 in0.0 mm 0.00 in0.0 mm
03:07 AM -6.5°F-21.4°C -47.1°F-43.9°C 11% 5.3 mph SSE8.5 kmh SSE 6.8 mph10.9 kmh 29.88 in1011.9 mb 0.00 in0.0 mm 0.00 in0.0 mm 0.00 in0.0 mm
03:08 AM -6.5°F-21.4°C -47.1°F-43.9°C 11% 3.2 mph SSE5.1 kmh SSE 6.8 mph10.9 kmh 29.88 in1011.9 mb 0.00 in0.0 mm 0.00 in0.0 mm 0.00 in0.0 mm
03:09 AM -6.5°F-21.4°C -47.1°F-43.9°C 11% 7.8 mph S12.6 kmh S 7.8 mph12.6 kmh 29.88 in1011.9 mb 0.00 in0.0 mm 0.00 in0.0 mm 0.00 in0.0 mm
03:10 AM -6.5°F-21.4°C -47.1°F-43.9°C 11% 5.8 mph SSW9.3 kmh SSW 7.8 mph12.6 kmh 29.88 in1011.9 mb 0.00 in0.0 mm 0.00 in0.0 mm 0.00 in0.0 mm
03:11 AM -6.5°F-21.4°C -47.1°F-43.9°C 11% 6.8 mph S10.9 kmh S 7.8 mph12.6 kmh 29.88 in1011.9 mb 0.00 in0.0 mm 0.00 in0.0 mm 0.00 in0.0 mm
03:12 AM -6.5°F-21.4°C -47.1°F-43.9°C 11% 4.7 mph S7.6 kmh S 7.8 mph12.6 kmh 29.88 in1011.9 mb 0.00 in0.0 mm 0.00 in0.0 mm 0.00 in0.0 mm
03:13 AM -6.5°F-21.4°C -47.1°F-43.9°C 11% 6.3 mph ESE10.1 kmh ESE 7.8 mph12.6 kmh 29.88 in1011.9 mb 0.00 in0.0 mm 0.00 in0.0 mm 0.00 in0.0 mm
03:14 AM -6.5°F-21.4°C -47.1°F-43.9°C 11% 4.2 mph S6.8 kmh S 7.8 mph12.6 kmh 29.88 in1011.9 mb 0.00 in0.0 mm 0.00 in0.0 mm 0.00 in0.0 mm
03:15 AM -6.5°F-21.4°C -47.1°F-43.9°C 11% 4.7 mph SSE7.6 kmh SSE 7.8 mph12.6 kmh 29.88 in1011.9 mb 0.00 in0.0 mm 0.00 in0.0 mm 0.00 in0.0 mm
03:16 AM -6.5°F-21.4°C -47.1°F-43.9°C 11% 7.3 mph S11.7 kmh S 7.8 mph12.6 kmh 29.88 in1011.9 mb 0.00 in0.0 mm 0.00 in0.0 mm 0.00 in0.0 mm
03:17 AM -6.5°F-21.4°C -47.1°F-43.9°C 11% 6.8 mph ESE10.9 kmh ESE 7.8 mph12.6 kmh 29.88 in1011.9 mb 0.00 in0.0 mm 0.00 in0.0 mm 0.00 in0.0 mm
03:18 AM -6.5°F-21.4°C -47.1°F-43.9°C 11% 3.2 mph SSE5.1 kmh SSE 7.8 mph12.6 kmh 29.88 in1011.9 mb 0.00 in0.0 mm 0.00 in0.0 mm 0.00 in0.0 mm
03:19 AM -6.5°F-21.4°C -47.1°F-43.9°C 11% 4.7 mph SE7.6 kmh SE 7.3 mph11.7 kmh 29.88 in1011.9 mb 0.00 in0.0 mm 0.00 in0.0 mm 0.00 in0.0 mm
03:20 AM -6.5°F-21.4°C -47.1°F-43.9°C 11% 5.3 mph S8.5 kmh S 9.9 mph15.9 kmh 29.88 in1011.9 mb 0.00 in0.0 mm 0.00 in0.0 mm 0.00 in0.0 mm
03:21 AM -6.5°F-21.4°C -47.1°F-43.9°C 11% 4.2 mph S6.8 kmh S 9.9 mph15.9 kmh 29.88 in1011.9 mb 0.00 in0.0 mm 0.00 in0.0 mm 0.00 in0.0 mm
03:22 AM -6.5°F-21.4°C -47.1°F-43.9°C 11% 5.3 mph S8.5 kmh S 9.9 mph15.9 kmh 29.88 in1011.9 mb 0.00 in0.0 mm 0.00 in0.0 mm 0.00 in0.0 mm
03:23 AM -6.5°F-21.4°C -47.1°F-43.9°C 11% 6.8 mph SSE10.9 kmh SSE 9.9 mph15.9 kmh 29.88 in1011.9 mb 0.00 in0.0 mm 0.00 in0.0 mm 0.00 in0.0 mm
03:24 AM -6.5°F-21.4°C -47.1°F-43.9°C 11% 4.7 mph E7.6 kmh E 9.9 mph15.9 kmh 29.88 in1011.9 mb 0.00 in0.0 mm 0.00 in0.0 mm 0.00 in0.0 mm
03:25 AM -6.5°F-21.4°C -47.1°F-43.9°C 11% 7.3 mph S11.7 kmh S 9.9 mph15.9 kmh 29.88 in1011.9 mb 0.00 in0.0 mm 0.00 in0.0 mm 0.00 in0.0 mm
03:26 AM -6.5°F-21.4°C -47.1°F-43.9°C 11% 4.7 mph ESE7.6 kmh ESE 9.9 mph15.9 kmh 29.88 in1011.9 mb 0.00 in0.0 mm 0.00 in0.0 mm 0.00 in0.0 mm
03:27 AM -6.5°F-21.4°C -47.1°F-43.9°C 11% 3.7 mph ESE6.0 kmh ESE 9.9 mph15.9 kmh 29.88 in1011.9 mb 0.00 in0.0 mm 0.00 in0.0 mm 0.00 in0.0 mm
03:28 AM -6.5°F-21.4°C -47.1°F-43.9°C 11% 2.2 mph S3.5 kmh S 9.9 mph15.9 kmh 29.87 in1011.5 mb 0.00 in0.0 mm 0.00 in0.0 mm 0.00 in0.0 mm
03:29 AM -6.5°F-21.4°C -47.1°F-43.9°C 11% 3.7 mph ESE6.0 kmh ESE 9.9 mph15.9 kmh 29.87 in1011.5 mb 0.00 in0.0 mm 0.00 in0.0 mm 0.00 in0.0 mm
03:30 AM -6.5°F-21.4°C -47.1°F-43.9°C 11% 6.3 mph SSE10.1 kmh SSE 7.8 mph12.6 kmh 29.87 in1011.5 mb 0.00 in0.0 mm 0.00 in0.0 mm 0.00 in0.0 mm
03:31 AM -6.5°F-21.4°C -47.1°F-43.9°C 11% 5.3 mph S8.5 kmh S 7.8 mph12.6 kmh 29.87 in1011.5 mb 0.00 in0.0 mm 0.00 in0.0 mm 0.00 in0.0 mm
03:32 AM -6.5°F-21.4°C -47.1°F-43.9°C 11% 5.8 mph ESE9.3 kmh ESE 7.8 mph12.6 kmh 29.87 in1011.5 mb 0.00 in0.0 mm 0.00 in0.0 mm 0.00 in0.0 mm
03:33 AM -6.5°F-21.4°C -47.1°F-43.9°C 11% 6.8 mph ESE10.9 kmh ESE 7.8 mph12.6 kmh 29.87 in1011.5 mb 0.00 in0.0 mm 0.00 in0.0 mm 0.00 in0.0 mm
03:34 AM -6.5°F-21.4°C -47.1°F-43.9°C 11% 4.7 mph SSE7.6 kmh SSE 7.8 mph12.6 kmh 29.87 in1011.5 mb 0.00 in0.0 mm 0.00 in0.0 mm 0.00 in0.0 mm
03:35 AM -6.5°F-21.4°C -47.1°F-43.9°C 11% 5.8 mph SSE9.3 kmh SSE 7.3 mph11.7 kmh 29.87 in1011.5 mb 0.00 in0.0 mm 0.00 in0.0 mm 0.00 in0.0 mm
03:36 AM -6.5°F-21.4°C -47.1°F-43.9°C 11% 5.3 mph SSE8.5 kmh SSE 7.3 mph11.7 kmh 29.87 in1011.5 mb 0.00 in0.0 mm 0.00 in0.0 mm 0.00 in0.0 mm
03:37 AM -6.5°F-21.4°C -47.1°F-43.9°C 11% 4.2 mph ESE6.8 kmh ESE 7.3 mph11.7 kmh 29.87 in1011.5 mb 0.00 in0.0 mm 0.00 in0.0 mm 0.00 in0.0 mm
03:38 AM -6.5°F-21.4°C -47.1°F-43.9°C 11% 7.8 mph SSE12.6 kmh SSE 7.8 mph12.6 kmh 29.87 in1011.5 mb 0.00 in0.0 mm 0.00 in0.0 mm 0.00 in0.0 mm
03:39 AM -6.5°F-21.4°C -47.1°F-43.9°C 11% 6.8 mph ESE10.9 kmh ESE 7.8 mph12.6 kmh 29.87 in1011.5 mb 0.00 in0.0 mm 0.00 in0.0 mm 0.00 in0.0 mm
03:40 AM -6.5°F-21.4°C -47.1°F-43.9°C 11% 6.8 mph S10.9 kmh S 7.8 mph12.6 kmh 29.87 in1011.5 mb 0.00 in0.0 mm 0.00 in0.0 mm 0.00 in0.0 mm
03:41 AM -6.5°F-21.4°C -47.1°F-43.9°C 11% 4.2 mph SSE6.8 kmh SSE 7.8 mph12.6 kmh 29.87 in1011.5 mb 0.00 in0.0 mm 0.00 in0.0 mm 0.00 in0.0 mm
03:42 AM -6.5°F-21.4°C -47.1°F-43.9°C 11% 7.8 mph ESE12.6 kmh ESE 7.8 mph12.6 kmh 29.87 in1011.5 mb 0.00 in0.0 mm 0.00 in0.0 mm 0.00 in0.0 mm
03:43 AM -6.5°F-21.4°C -47.1°F-43.9°C 11% 3.7 mph S6.0 kmh S 7.8 mph12.6 kmh 29.87 in1011.5 mb 0.00 in0.0 mm 0.00 in0.0 mm 0.00 in0.0 mm
03:44 AM -6.5°F-21.4°C -47.1°F-43.9°C 11% 7.3 mph S11.7 kmh S 7.8 mph12.6 kmh 29.87 in1011.5 mb 0.00 in0.0 mm 0.00 in0.0 mm 0.00 in0.0 mm
03:45 AM -6.5°F-21.4°C -47.1°F-43.9°C 11% 6.3 mph SSW10.1 kmh SSW 7.8 mph12.6 kmh 29.87 in1011.5 mb 0.00 in0.0 mm 0.00 in0.0 mm 0.00 in0.0 mm
03:46 AM -6.5°F-21.4°C -47.1°F-43.9°C 11% 6.3 mph S10.1 kmh S 7.8 mph12.6 kmh 29.87 in1011.5 mb 0.00 in0.0 mm 0.00 in0.0 mm 0.00 in0.0 mm
03:47 AM -6.5°F-21.4°C -47.1°F-43.9°C 11% 3.7 mph SE6.0 kmh SE 7.8 mph12.6 kmh 29.87 in1011.5 mb 0.00 in0.0 mm 0.00 in0.0 mm 0.00 in0.0 mm
03:48 AM -6.5°F-21.4°C -47.1°F-43.9°C 11% 6.3 mph SE10.1 kmh SE 7.8 mph12.6 kmh 29.87 in1011.5 mb 0.00 in0.0 mm 0.00 in0.0 mm 0.00 in0.0 mm
03:49 AM -6.5°F-21.4°C -47.1°F-43.9°C 11% 3.2 mph ESE5.1 kmh ESE 7.8 mph12.6 kmh 29.87 in1011.5 mb 0.00 in0.0 mm 0.00 in0.0 mm 0.00 in0.0 mm
03:50 AM -6.5°F-21.4°C -47.1°F-43.9°C 11% 3.2 mph ESE5.1 kmh ESE 7.8 mph12.6 kmh 29.87 in1011.5 mb 0.00 in0.0 mm 0.00 in0.0 mm 0.00 in0.0 mm
03:51 AM -6.5°F-21.4°C -47.1°F-43.9°C 11% 1.1 mph S1.8 kmh S 7.8 mph12.6 kmh 29.87 in1011.5 mb 0.00 in0.0 mm 0.00 in0.0 mm 0.00 in0.0 mm
03:52 AM -6.5°F-21.4°C -47.1°F-43.9°C 11% 6.8 mph ESE10.9 kmh ESE 7.8 mph12.6 kmh 29.87 in1011.5 mb 0.00 in0.0 mm 0.00 in0.0 mm 0.00 in0.0 mm
03:53 AM -6.5°F-21.4°C -47.1°F-43.9°C 11% 4.2 mph SSW6.8 kmh SSW 7.8 mph12.6 kmh 29.86 in1011.2 mb 0.00 in0.0 mm 0.00 in0.0 mm 0.00 in0.0 mm
03:54 AM -6.5°F-21.4°C -47.1°F-43.9°C 11% 6.3 mph ESE10.1 kmh ESE 7.8 mph12.6 kmh 29.86 in1011.2 mb 0.00 in0.0 mm 0.00 in0.0 mm 0.00 in0.0 mm
03:55 AM -6.5°F-21.4°C -47.1°F-43.9°C 11% 6.8 mph S10.9 kmh S 7.8 mph12.6 kmh 29.86 in1011.2 mb 0.00 in0.0 mm 0.00 in0.0 mm 0.00 in0.0 mm
03:56 AM -6.5°F-21.4°C -47.1°F-43.9°C 11% 6.3 mph SW10.1 kmh SW 7.8 mph12.6 kmh 29.86 in1011.2 mb 0.00 in0.0 mm 0.00 in0.0 mm 0.00 in0.0 mm
03:57 AM 138.9°F59.4°C 65.3°F18.5°C 11% 8.3 mph SSE13.4 kmh SSE 8.3 mph13.4 kmh 29.86 in1011.2 mb 0.00 in0.0 mm 0.00 in0.0 mm 0.00 in0.0 mm
03:58 AM 138.9°F59.4°C 65.3°F18.5°C 11% 4.7 mph S7.6 kmh S 8.3 mph13.4 kmh 29.86 in1011.2 mb 0.00 in0.0 mm 0.00 in0.0 mm 0.00 in0.0 mm
03:59 AM 138.9°F59.4°C 65.3°F18.5°C 11% 4.7 mph SE7.6 kmh SE 8.9 mph14.3 kmh 29.86 in1011.2 mb 0.00 in0.0 mm 0.00 in0.0 mm 0.00 in0.0 mm
04:00 AM 138.9°F59.4°C 65.3°F18.5°C 11% 7.3 mph SSE11.7 kmh SSE 8.9 mph14.3 kmh 29.86 in1011.2 mb 0.00 in0.0 mm 0.00 in0.0 mm 0.00 in0.0 mm
04:01 AM 138.9°F59.4°C 65.3°F18.5°C 11% 5.8 mph SSW9.3 kmh SSW 8.9 mph14.3 kmh 29.86 in1011.2 mb 0.00 in0.0 mm 0.00 in0.0 mm 0.00 in0.0 mm
04:02 AM 138.9°F59.4°C 65.3°F18.5°C 11% 7.8 mph SE12.6 kmh SE 8.9 mph14.3 kmh 29.86 in1011.2 mb 0.00 in0.0 mm 0.00 in0.0 mm 0.00 in0.0 mm
04:03 AM 138.9°F59.4°C 65.3°F18.5°C 11% 4.2 mph S6.8 kmh S 8.9 mph14.3 kmh 29.86 in1011.2 mb 0.00 in0.0 mm 0.00 in0.0 mm 0.00 in0.0 mm
04:04 AM 138.9°F59.4°C 65.3°F18.5°C 11% 5.8 mph SSE9.3 kmh SSE 8.9 mph14.3 kmh 29.85 in1010.8 mb 0.00 in0.0 mm 0.00 in0.0 mm 0.00 in0.0 mm
04:05 AM 138.9°F59.4°C 65.3°F18.5°C 11% 4.7 mph WSW7.6 kmh WSW 8.9 mph14.3 kmh 29.85 in1010.8 mb 0.00 in0.0 mm 0.00 in0.0 mm 0.00 in0.0 mm
04:06 AM 138.9°F59.4°C 65.3°F18.5°C 11% 6.3 mph SSE10.1 kmh SSE 8.9 mph14.3 kmh 29.85 in1010.8 mb 0.00 in0.0 mm 0.00 in0.0 mm 0.00 in0.0 mm
04:07 AM 138.9°F59.4°C 65.3°F18.5°C 11% 5.8 mph SW9.3 kmh SW 8.9 mph14.3 kmh 29.85 in1010.8 mb 0.00 in0.0 mm 0.00 in0.0 mm 0.00 in0.0 mm
04:08 AM 138.9°F59.4°C 65.3°F18.5°C 11% 6.8 mph SSE10.9 kmh SSE 8.9 mph14.3 kmh 29.85 in1010.8 mb 0.00 in0.0 mm 0.00 in0.0 mm 0.00 in0.0 mm
04:09 AM 138.9°F59.4°C 65.3°F18.5°C 11% 3.7 mph SE6.0 kmh SE 8.9 mph14.3 kmh 29.85 in1010.8 mb 0.00 in0.0 mm 0.00 in0.0 mm 0.00 in0.0 mm
04:10 AM 138.9°F59.4°C 65.3°F18.5°C 11% 7.3 mph SE11.7 kmh SE 8.9 mph14.3 kmh 29.85 in1010.8 mb 0.00 in0.0 mm 0.00 in0.0 mm 0.00 in0.0 mm
04:11 AM 138.9°F59.4°C 65.3°F18.5°C 11% 4.2 mph SSW6.8 kmh SSW 9.9 mph15.9 kmh 29.85 in1010.8 mb 0.00 in0.0 mm 0.00 in0.0 mm 0.00 in0.0 mm
04:12 AM 138.9°F59.4°C 135.3°F57.4°C 91% 5.8 mph SSE9.3 kmh SSE 9.9 mph15.9 kmh 29.85 in1010.8 mb 0.00 in0.0 mm 0.00 in0.0 mm 0.00 in0.0 mm
04:13 AM 138.9°F59.4°C 135.3°F57.4°C 91% 7.8 mph SE12.6 kmh SE 9.9 mph15.9 kmh 29.85 in1010.8 mb 0.00 in0.0 mm 0.00 in0.0 mm 0.00 in0.0 mm
04:14 AM 138.9°F59.4°C 135.3°F57.4°C 91% 4.7 mph S7.6 kmh S 9.9 mph15.9 kmh 29.85 in1010.8 mb 0.00 in0.0 mm 0.00 in0.0 mm 0.00 in0.0 mm
04:15 AM 138.9°F59.4°C 135.3°F57.4°C 91% 7.3 mph SSW11.7 kmh SSW 9.9 mph15.9 kmh 29.85 in1010.8 mb 0.00 in0.0 mm 0.00 in0.0 mm 0.00 in0.0 mm
04:16 AM 138.9°F59.4°C 135.3°F57.4°C 91% 4.2 mph ESE6.8 kmh ESE 9.9 mph15.9 kmh 29.84 in1010.5 mb 0.00 in0.0 mm 0.00 in0.0 mm 0.00 in0.0 mm
04:17 AM 138.9°F59.4°C 135.3°F57.4°C 91% 5.8 mph S9.3 kmh S 9.9 mph15.9 kmh 29.84 in1010.5 mb 0.00 in0.0 mm 0.00 in0.0 mm 0.00 in0.0 mm
04:18 AM 138.9°F59.4°C 135.3°F57.4°C 91% 6.3 mph SSE10.1 kmh SSE 9.9 mph15.9 kmh 29.84 in1010.5 mb 0.00 in0.0 mm 0.00 in0.0 mm 0.00 in0.0 mm
04:19 AM 138.9°F59.4°C 135.3°F57.4°C 91% 6.8 mph SSE10.9 kmh SSE 9.9 mph15.9 kmh 29.84 in1010.5 mb 0.00 in0.0 mm 0.00 in0.0 mm 0.00 in0.0 mm
04:20 AM 138.9°F59.4°C 135.3°F57.4°C 91% 4.2 mph S6.8 kmh S 9.9 mph15.9 kmh 29.84 in1010.5 mb 0.00 in0.0 mm 0.00 in0.0 mm 0.00 in0.0 mm
04:21 AM 138.9°F59.4°C 135.3°F57.4°C 91% 7.8 mph SSW12.6 kmh SSW 8.3 mph13.4 kmh 29.84 in1010.5 mb 0.00 in0.0 mm 0.00 in0.0 mm 0.00 in0.0 mm
04:22 AM 138.9°F59.4°C 135.3°F57.4°C 91% 8.9 mph SSW14.3 kmh SSW 8.9 mph14.3 kmh 29.84 in1010.5 mb 0.00 in0.0 mm 0.00 in0.0 mm 0.00 in0.0 mm
04:23 AM 138.9°F59.4°C 135.3°F57.4°C 91% 7.3 mph S11.7 kmh S 8.9 mph14.3 kmh 29.84 in1010.5 mb 0.00 in0.0 mm 0.00 in0.0 mm 0.00 in0.0 mm
04:24 AM 138.9°F59.4°C 135.3°F57.4°C 91% 4.7 mph S7.6 kmh S 8.9 mph14.3 kmh 29.84 in1010.5 mb 0.00 in0.0 mm 0.00 in0.0 mm 0.00 in0.0 mm
04:25 AM 138.9°F59.4°C 135.3°F57.4°C 91% 6.8 mph SSE10.9 kmh SSE 8.9 mph14.3 kmh 29.84 in1010.5 mb 0.00 in0.0 mm 0.00 in0.0 mm 0.00 in0.0 mm
04:26 AM 138.9°F59.4°C 135.3°F57.4°C 91% 12.0 mph S19.3 kmh S 11.9 mph19.2 kmh 29.84 in1010.5 mb 0.00 in0.0 mm 0.00 in0.0 mm 0.00 in0.0 mm
04:27 AM 138.9°F59.4°C 135.3°F57.4°C 91% 3.2 mph S5.1 kmh S 11.9 mph19.2 kmh 29.84 in1010.5 mb 0.00 in0.0 mm 0.00 in0.0 mm 0.00 in0.0 mm
04:28 AM 138.9°F59.4°C 135.3°F57.4°C 91% 3.2 mph S5.1 kmh S 11.9 mph19.2 kmh 29.84 in1010.5 mb 0.00 in0.0 mm 0.00 in0.0 mm 0.00 in0.0 mm
04:29 AM 138.9°F59.4°C 135.3°F57.4°C 91% 6.8 mph SE10.9 kmh SE 11.9 mph19.2 kmh 29.84 in1010.5 mb 0.00 in0.0 mm 0.00 in0.0 mm 0.00 in0.0 mm
04:30 AM 138.9°F59.4°C 135.3°F57.4°C 91% 7.3 mph S11.7 kmh S 11.9 mph19.2 kmh 29.84 in1010.5 mb 0.00 in0.0 mm 0.00 in0.0 mm 0.00 in0.0 mm
04:31 AM 138.9°F59.4°C 135.3°F57.4°C 91% 5.8 mph SSE9.3 kmh SSE 11.9 mph19.2 kmh 29.84 in1010.5 mb 0.00 in0.0 mm 0.00 in0.0 mm 0.00 in0.0 mm
04:32 AM 138.9°F59.4°C 135.3°F57.4°C 91% 5.3 mph SSE8.5 kmh SSE 11.9 mph19.2 kmh 29.84 in1010.5 mb 0.00 in0.0 mm 0.00 in0.0 mm 0.00 in0.0 mm
04:33 AM 138.9°F59.4°C 135.3°F57.4°C 91% 5.3 mph S8.5 kmh S 11.9 mph19.2 kmh 29.84 in1010.5 mb 0.00 in0.0 mm 0.00 in0.0 mm 0.00 in0.0 mm
04:34 AM 138.9°F59.4°C 135.3°F57.4°C 91% 5.3 mph SSE8.5 kmh SSE 11.9 mph19.2 kmh 29.84 in1010.5 mb 0.00 in0.0 mm 0.00 in0.0 mm 0.00 in0.0 mm
04:35 AM 138.9°F59.4°C 135.3°F57.4°C 91% 5.3 mph SE8.5 kmh SE 11.9 mph19.2 kmh 29.84 in1010.5 mb 0.00 in0.0 mm 0.00 in0.0 mm 0.00 in0.0 mm
04:36 AM 138.9°F59.4°C 135.3°F57.4°C 91% 4.2 mph SSE6.8 kmh SSE 9.4 mph15.1 kmh 29.84 in1010.5 mb 0.00 in0.0 mm 0.00 in0.0 mm 0.00 in0.0 mm
04:37 AM 138.9°F59.4°C 135.3°F57.4°C 91% 3.7 mph SSE6.0 kmh SSE 9.4 mph15.1 kmh 29.84 in1010.5 mb 0.00 in0.0 mm 0.00 in0.0 mm 0.00 in0.0 mm
04:38 AM 138.9°F59.4°C 135.3°F57.4°C 91% 4.2 mph ESE6.8 kmh ESE 9.4 mph15.1 kmh 29.84 in1010.5 mb 0.00 in0.0 mm 0.00 in0.0 mm 0.00 in0.0 mm
04:39 AM 138.9°F59.4°C 135.3°F57.4°C 91% 3.2 mph SSW5.1 kmh SSW 9.4 mph15.1 kmh 29.84 in1010.5 mb 0.00 in0.0 mm 0.00 in0.0 mm 0.00 in0.0 mm
04:40 AM 138.9°F59.4°C 135.3°F57.4°C 91% 8.3 mph SSE13.4 kmh SSE 9.4 mph15.1 kmh 29.84 in1010.5 mb 0.00 in0.0 mm 0.00 in0.0 mm 0.00 in0.0 mm
04:41 AM 138.9°F59.4°C 135.3°F57.4°C 91% 5.3 mph SSE8.5 kmh SSE 9.4 mph15.1 kmh 29.84 in1010.5 mb 0.00 in0.0 mm 0.00 in0.0 mm 0.00 in0.0 mm
04:42 AM 138.9°F59.4°C 135.3°F57.4°C 91% 8.3 mph SSE13.4 kmh SSE 9.4 mph15.1 kmh 29.84 in1010.5 mb 0.00 in0.0 mm 0.00 in0.0 mm 0.00 in0.0 mm
04:43 AM 138.9°F59.4°C 135.3°F57.4°C 91% 9.9 mph ESE15.9 kmh ESE 9.9 mph15.9 kmh 29.84 in1010.5 mb 0.00 in0.0 mm 0.00 in0.0 mm 0.00 in0.0 mm
04:44 AM 71.4°F21.9°C 68.6°F20.3°C 91% 4.7 mph SSE7.6 kmh SSE 9.9 mph15.9 kmh 29.84 in1010.5 mb 0.00 in0.0 mm 0.00 in0.0 mm 0.00 in0.0 mm
04:45 AM 71.4°F21.9°C 68.6°F20.3°C 91% 6.8 mph SW10.9 kmh SW 9.9 mph15.9 kmh 29.84 in1010.5 mb 0.00 in0.0 mm 0.00 in0.0 mm 0.00 in0.0 mm
04:46 AM 71.4°F21.9°C 68.6°F20.3°C 91% 3.7 mph S6.0 kmh S 9.9 mph15.9 kmh 29.84 in1010.5 mb 0.00 in0.0 mm 0.00 in0.0 mm 0.00 in0.0 mm
04:47 AM 71.4°F21.9°C 68.6°F20.3°C 91% 4.2 mph S6.8 kmh S 9.9 mph15.9 kmh 29.84 in1010.5 mb 0.00 in0.0 mm 0.00 in0.0 mm 0.00 in0.0 mm
04:48 AM 71.4°F21.9°C 68.6°F20.3°C 91% 5.3 mph SSW8.5 kmh SSW 9.9 mph15.9 kmh 29.84 in1010.5 mb 0.00 in0.0 mm 0.00 in0.0 mm 0.00 in0.0 mm
04:49 AM 71.4°F21.9°C 68.6°F20.3°C 91% 3.2 mph S5.1 kmh S 9.9 mph15.9 kmh 29.84 in1010.5 mb 0.00 in0.0 mm 0.00 in0.0 mm 0.00 in0.0 mm
04:50 AM 71.4°F21.9°C 68.6°F20.3°C 91% 4.2 mph SSE6.8 kmh SSE 9.9 mph15.9 kmh 29.84 in1010.5 mb 0.00 in0.0 mm 0.00 in0.0 mm 0.00 in0.0 mm
04:51 AM 71.4°F21.9°C 68.6°F20.3°C 91% 6.3 mph SSE10.1 kmh SSE 9.9 mph15.9 kmh 29.84 in1010.5 mb 0.00 in0.0 mm 0.00 in0.0 mm 0.00 in0.0 mm
04:52 AM 71.4°F21.9°C 68.6°F20.3°C 91% 6.8 mph ESE10.9 kmh ESE 9.9 mph15.9 kmh 29.83 in1010.2 mb 0.00 in0.0 mm 0.00 in0.0 mm 0.00 in0.0 mm
04:53 AM 78.4°F25.8°C 75.6°F24.2°C 91% 10.9 mph SSE17.5 kmh SSE 10.9 mph17.5 kmh 29.83 in1010.2 mb 0.00 in0.0 mm 0.00 in0.0 mm 0.00 in0.0 mm
04:54 AM 73.2°F22.9°C 70.4°F21.3°C 91% 8.9 mph SSE14.3 kmh SSE 10.9 mph17.5 kmh 29.83 in1010.2 mb 0.00 in0.0 mm 0.00 in0.0 mm 0.00 in0.0 mm
04:55 AM 73.2°F22.9°C 70.4°F21.3°C 91% 6.3 mph SSW10.1 kmh SSW 10.9 mph17.5 kmh 29.83 in1010.2 mb 0.00 in0.0 mm 0.00 in0.0 mm 0.00 in0.0 mm
04:56 AM 71.8°F22.1°C 69.0°F20.6°C 91% 4.7 mph SSW7.6 kmh SSW 10.9 mph17.5 kmh 29.83 in1010.2 mb 0.00 in0.0 mm 0.00 in0.0 mm 0.00 in0.0 mm
04:57 AM 71.6°F22.0°C 68.8°F20.4°C 91% 4.2 mph S6.8 kmh S 10.9 mph17.5 kmh 29.83 in1010.2 mb 0.00 in0.0 mm 0.00 in0.0 mm 0.00 in0.0 mm
04:58 AM 71.6°F22.0°C 68.8°F20.4°C 91% 9.4 mph ESE15.1 kmh ESE 10.9 mph17.5 kmh 29.83 in1010.2 mb 0.00 in0.0 mm 0.00 in0.0 mm 0.00 in0.0 mm
04:59 AM 78.3°F25.7°C 75.4°F24.1°C 91% 4.7 mph SE7.6 kmh SE 10.9 mph17.5 kmh 29.83 in1010.2 mb 0.00 in0.0 mm 0.00 in0.0 mm 0.00 in0.0 mm
05:00 AM 86.9°F30.5°C 83.9°F28.8°C 91% 4.2 mph SSE6.8 kmh SSE 10.9 mph17.5 kmh 29.83 in1010.2 mb 0.00 in0.0 mm 0.00 in0.0 mm 0.00 in0.0 mm
05:01 AM 86.9°F30.5°C 83.9°F28.8°C 91% 4.2 mph SSE6.8 kmh SSE 10.9 mph17.5 kmh 29.83 in1010.2 mb 0.00 in0.0 mm 0.00 in0.0 mm 0.00 in0.0 mm
05:02 AM 72.3°F22.4°C 69.5°F20.8°C 91% 5.8 mph ESE9.3 kmh ESE 10.9 mph17.5 kmh 29.83 in1010.2 mb 0.00 in0.0 mm 0.00 in0.0 mm 0.00 in0.0 mm
05:03 AM 71.8°F22.1°C 69.0°F20.6°C 91% 5.3 mph SW8.5 kmh SW 10.9 mph17.5 kmh 29.83 in1010.2 mb 0.00 in0.0 mm 0.00 in0.0 mm 0.00 in0.0 mm
05:04 AM 71.4°F21.9°C 68.6°F20.3°C 91% 4.2 mph S6.8 kmh S 10.9 mph17.5 kmh 29.83 in1010.2 mb 0.00 in0.0 mm 0.00 in0.0 mm 0.00 in0.0 mm
05:05 AM 71.4°F21.9°C 68.6°F20.3°C 91% 3.7 mph SSE6.0 kmh SSE 10.9 mph17.5 kmh 29.82 in1009.8 mb 0.00 in0.0 mm 0.00 in0.0 mm 0.00 in0.0 mm
05:06 AM 71.4°F21.9°C 68.6°F20.3°C 91% 7.3 mph SSE11.7 kmh SSE 10.9 mph17.5 kmh 29.82 in1009.8 mb 0.00 in0.0 mm 0.00 in0.0 mm 0.00 in0.0 mm
05:07 AM 71.4°F21.9°C 68.6°F20.3°C 91% 8.3 mph S13.4 kmh S 10.9 mph17.5 kmh 29.82 in1009.8 mb 0.00 in0.0 mm 0.00 in0.0 mm 0.00 in0.0 mm
05:08 AM 71.4°F21.9°C 68.6°F20.3°C 91% 6.8 mph S10.9 kmh S 10.9 mph17.5 kmh 29.82 in1009.8 mb 0.00 in0.0 mm 0.00 in0.0 mm 0.00 in0.0 mm
05:09 AM 71.4°F21.9°C 68.6°F20.3°C 91% 3.7 mph SSE6.0 kmh SSE 9.4 mph15.1 kmh 29.82 in1009.8 mb 0.00 in0.0 mm 0.00 in0.0 mm 0.00 in0.0 mm
05:10 AM 71.4°F21.9°C 68.6°F20.3°C 91% 7.3 mph ESE11.7 kmh ESE 9.4 mph15.1 kmh 29.82 in1009.8 mb 0.00 in0.0 mm 0.00 in0.0 mm 0.00 in0.0 mm
05:11 AM 71.4°F21.9°C 68.6°F20.3°C 91% 6.8 mph SSE10.9 kmh SSE 9.4 mph15.1 kmh 29.82 in1009.8 mb 0.00 in0.0 mm 0.00 in0.0 mm 0.00 in0.0 mm
05:12 AM 71.4°F21.9°C 68.6°F20.3°C 91% 7.3 mph SSE11.7 kmh SSE 9.4 mph15.1 kmh 29.82 in1009.8 mb 0.00 in0.0 mm 0.00 in0.0 mm 0.00 in0.0 mm
05:13 AM 71.4°F21.9°C 68.6°F20.3°C 91% 8.3 mph SSW13.4 kmh SSW 9.4 mph15.1 kmh 29.82 in1009.8 mb 0.00 in0.0 mm 0.00 in0.0 mm 0.00 in0.0 mm
05:14 AM 71.4°F21.9°C 68.6°F20.3°C 91% 9.9 mph SE15.9 kmh SE 9.9 mph15.9 kmh 29.82 in1009.8 mb 0.00 in0.0 mm 0.00 in0.0 mm 0.00 in0.0 mm
05:15 AM 71.4°F21.9°C 68.6°F20.3°C 91% 4.7 mph S7.6 kmh S 9.9 mph15.9 kmh 29.82 in1009.8 mb 0.00 in0.0 mm 0.00 in0.0 mm 0.00 in0.0 mm
05:16 AM 71.4°F21.9°C 68.6°F20.3°C 91% 3.7 mph ESE6.0 kmh ESE 9.9 mph15.9 kmh 29.82 in1009.8 mb 0.00 in0.0 mm 0.00 in0.0 mm 0.00 in0.0 mm
05:17 AM 71.4°F21.9°C 68.6°F20.3°C 91% 6.8 mph SE10.9 kmh SE 9.9 mph15.9 kmh 29.81 in1009.5 mb 0.00 in0.0 mm 0.00 in0.0 mm 0.00 in0.0 mm
05:18 AM 71.4°F21.9°C 68.6°F20.3°C 91% 6.3 mph S10.1 kmh S 9.9 mph15.9 kmh 29.81 in1009.5 mb 0.00 in0.0 mm 0.00 in0.0 mm 0.00 in0.0 mm
05:19 AM 71.4°F21.9°C 68.6°F20.3°C 91% 4.2 mph SSE6.8 kmh SSE 9.9 mph15.9 kmh 29.81 in1009.5 mb 0.00 in0.0 mm 0.00 in0.0 mm 0.00 in0.0 mm
05:20 AM 71.4°F21.9°C 68.6°F20.3°C 91% 4.7 mph SSE7.6 kmh SSE 9.9 mph15.9 kmh 29.81 in1009.5 mb 0.00 in0.0 mm 0.00 in0.0 mm 0.00 in0.0 mm
05:21 AM 71.4°F21.9°C 68.6°F20.3°C 91% 4.2 mph S6.8 kmh S 9.9 mph15.9 kmh 29.81 in1009.5 mb 0.00 in0.0 mm 0.00 in0.0 mm 0.00 in0.0 mm
05:22 AM 71.4°F21.9°C 68.6°F20.3°C 91% 6.3 mph SE10.1 kmh SE 9.9 mph15.9 kmh 29.81 in1009.5 mb 0.00 in0.0 mm 0.00 in0.0 mm 0.00 in0.0 mm
05:23 AM 71.4°F21.9°C 68.6°F20.3°C 91% 5.3 mph S8.5 kmh S 9.9 mph15.9 kmh 29.81 in1009.5 mb 0.00 in0.0 mm 0.00 in0.0 mm 0.00 in0.0 mm
05:24 AM 71.4°F21.9°C 68.6°F20.3°C 91% 4.7 mph SSE7.6 kmh SSE 9.4 mph15.1 kmh 29.81 in1009.5 mb 0.00 in0.0 mm 0.00 in0.0 mm 0.00 in0.0 mm
05:25 AM 71.4°F21.9°C 68.6°F20.3°C 91% 6.8 mph W10.9 kmh W 9.4 mph15.1 kmh 29.81 in1009.5 mb 0.00 in0.0 mm 0.00 in0.0 mm 0.00 in0.0 mm
05:26 AM 71.4°F21.9°C 68.6°F20.3°C 91% 5.8 mph SW9.3 kmh SW 9.4 mph15.1 kmh 29.81 in1009.5 mb 0.00 in0.0 mm 0.00 in0.0 mm 0.00 in0.0 mm
05:27 AM 71.4°F21.9°C 68.6°F20.3°C 91% 6.8 mph SSE10.9 kmh SSE 9.4 mph15.1 kmh 29.81 in1009.5 mb 0.00 in0.0 mm 0.00 in0.0 mm 0.00 in0.0 mm
05:28 AM 71.4°F21.9°C 68.6°F20.3°C 91% 5.8 mph SSE9.3 kmh SSE 9.4 mph15.1 kmh 29.80 in1009.1 mb 0.00 in0.0 mm 0.00 in0.0 mm 0.00 in0.0 mm
05:29 AM 71.4°F21.9°C 68.6°F20.3°C 91% 4.7 mph SSW7.6 kmh SSW 9.4 mph15.1 kmh 29.80 in1009.1 mb 0.00 in0.0 mm 0.00 in0.0 mm 0.00 in0.0 mm
05:30 AM 71.4°F21.9°C 68.6°F20.3°C 91% 4.7 mph SE7.6 kmh SE 9.4 mph15.1 kmh 29.80 in1009.1 mb 0.00 in0.0 mm 0.00 in0.0 mm 0.00 in0.0 mm
05:31 AM 71.4°F21.9°C 68.6°F20.3°C 91% 4.7 mph SSE7.6 kmh SSE 9.4 mph15.1 kmh 29.80 in1009.1 mb 0.00 in0.0 mm 0.00 in0.0 mm 0.00 in0.0 mm
05:32 AM 74.8°F23.8°C 72.0°F22.2°C 91% 2.7 mph ESE4.3 kmh ESE 9.4 mph15.1 kmh 29.80 in1009.1 mb 0.00 in0.0 mm 0.00 in0.0 mm 0.00 in0.0 mm
05:33 AM 73.0°F22.8°C 70.3°F21.3°C 91% 5.8 mph S9.3 kmh S 9.4 mph15.1 kmh 29.80 in1009.1 mb 0.00 in0.0 mm 0.00 in0.0 mm 0.00 in0.0 mm
05:34 AM 71.8°F22.1°C 69.0°F20.6°C 91% 7.8 mph S12.6 kmh S 7.8 mph12.6 kmh 29.80 in1009.1 mb 0.00 in0.0 mm 0.00 in0.0 mm 0.00 in0.0 mm
05:35 AM 71.6°F22.0°C 68.8°F20.4°C 91% 7.8 mph SSW12.6 kmh SSW 7.8 mph12.6 kmh 29.80 in1009.1 mb 0.00 in0.0 mm 0.00 in0.0 mm 0.00 in0.0 mm
05:36 AM 71.6°F22.0°C 68.8°F20.4°C 91% 6.8 mph SSE10.9 kmh SSE 7.8 mph12.6 kmh 29.80 in1009.1 mb 0.00 in0.0 mm 0.00 in0.0 mm 0.00 in0.0 mm
05:37 AM 71.6°F22.0°C 68.8°F20.4°C 91% 5.3 mph SE8.5 kmh SE 7.8 mph12.6 kmh 29.80 in1009.1 mb 0.00 in0.0 mm 0.00 in0.0 mm 0.00 in0.0 mm
05:38 AM 71.6°F22.0°C 68.8°F20.4°C 91% 8.9 mph S14.3 kmh S 8.9 mph14.3 kmh 29.80 in1009.1 mb 0.00 in0.0 mm 0.00 in0.0 mm 0.00 in0.0 mm
05:39 AM 71.6°F22.0°C 68.8°F20.4°C 91% 7.8 mph ESE12.6 kmh ESE 8.9 mph14.3 kmh 29.80 in1009.1 mb 0.00 in0.0 mm 0.00 in0.0 mm 0.00 in0.0 mm
05:40 AM 97.2°F36.2°C 94.1°F34.5°C 91% 7.3 mph ESE11.7 kmh ESE 9.9 mph15.9 kmh 29.79 in1008.8 mb 0.00 in0.0 mm 0.00 in0.0 mm 0.00 in0.0 mm
05:41 AM 97.2°F36.2°C 94.1°F34.5°C 91% 3.7 mph SSE6.0 kmh SSE 9.9 mph15.9 kmh 29.79 in1008.8 mb 0.00 in0.0 mm 0.00 in0.0 mm 0.00 in0.0 mm
05:42 AM 97.2°F36.2°C 94.1°F34.5°C 91% 4.2 mph SSE6.8 kmh SSE 9.9 mph15.9 kmh 29.79 in1008.8 mb 0.00 in0.0 mm 0.00 in0.0 mm 0.00 in0.0 mm
05:43 AM 97.2°F36.2°C 94.1°F34.5°C 91% 5.3 mph SSE8.5 kmh SSE 9.9 mph15.9 kmh 29.79 in1008.8 mb 0.00 in0.0 mm 0.00 in0.0 mm 0.00 in0.0 mm
05:44 AM 97.2°F36.2°C 94.1°F34.5°C 91% 5.8 mph SE9.3 kmh SE 9.9 mph15.9 kmh 29.79 in1008.8 mb 0.00 in0.0 mm 0.00 in0.0 mm 0.00 in0.0 mm
05:45 AM 71.6°F22.0°C 68.8°F20.4°C 91% 6.8 mph SSE10.9 kmh SSE 9.9 mph15.9 kmh 29.79 in1008.8 mb 0.00 in0.0 mm 0.00 in0.0 mm 0.00 in0.0 mm
05:46 AM 71.6°F22.0°C 68.8°F20.4°C 91% 4.2 mph SSE6.8 kmh SSE 9.9 mph15.9 kmh 29.79 in1008.8 mb 0.00 in0.0 mm 0.00 in0.0 mm 0.00 in0.0 mm
05:47 AM 74.8°F23.8°C 72.0°F22.2°C 91% 5.8 mph ESE9.3 kmh ESE 9.9 mph15.9 kmh 29.79 in1008.8 mb 0.00 in0.0 mm 0.00 in0.0 mm 0.00 in0.0 mm
05:48 AM 73.0°F22.8°C 70.3°F21.3°C 91% 5.8 mph SSW9.3 kmh SSW 9.9 mph15.9 kmh 29.79 in1008.8 mb 0.00 in0.0 mm 0.00 in0.0 mm 0.00 in0.0 mm
05:49 AM 71.8°F22.1°C 69.0°F20.6°C 91% 6.8 mph SW10.9 kmh SW 9.9 mph15.9 kmh 29.79 in1008.8 mb 0.00 in0.0 mm 0.00 in0.0 mm 0.00 in0.0 mm
05:50 AM 71.6°F22.0°C 68.8°F20.4°C 91% 6.8 mph SSE10.9 kmh SSE 9.9 mph15.9 kmh 29.79 in1008.8 mb 0.00 in0.0 mm 0.00 in0.0 mm 0.00 in0.0 mm
05:51 AM 71.4°F21.9°C 68.6°F20.3°C 91% 4.7 mph SE7.6 kmh SE 9.9 mph15.9 kmh 29.79 in1008.8 mb 0.00 in0.0 mm 0.00 in0.0 mm 0.00 in0.0 mm
05:52 AM 71.4°F21.9°C 68.6°F20.3°C 91% 6.3 mph S10.1 kmh S 9.9 mph15.9 kmh 29.80 in1009.1 mb 0.01 in0.3 mm 0.60 in15.2 mm 0.01 in0.3 mm
05:53 AM 71.4°F21.9°C 68.6°F20.3°C 91% 6.3 mph S10.1 kmh S 9.9 mph15.9 kmh 29.80 in1009.1 mb 0.01 in0.3 mm 0.00 in0.0 mm 0.01 in0.3 mm
05:54 AM 71.4°F21.9°C 68.6°F20.3°C 91% 4.7 mph SSW7.6 kmh SSW 9.9 mph15.9 kmh 29.80 in1009.1 mb 0.01 in0.3 mm 0.00 in0.0 mm 0.01 in0.3 mm
05:55 AM 71.4°F21.9°C 68.6°F20.3°C 91% 4.7 mph SSE7.6 kmh SSE 9.4 mph15.1 kmh 29.80 in1009.1 mb 0.01 in0.3 mm 0.00 in0.0 mm 0.01 in0.3 mm
05:56 AM 71.4°F21.9°C 68.6°F20.3°C 91% 6.8 mph S10.9 kmh S 9.4 mph15.1 kmh 29.80 in1009.1 mb 0.01 in0.3 mm 0.00 in0.0 mm 0.01 in0.3 mm
05:57 AM 71.4°F21.9°C 68.6°F20.3°C 91% 2.2 mph S3.5 kmh S 9.4 mph15.1 kmh 29.80 in1009.1 mb 0.01 in0.3 mm 0.00 in0.0 mm 0.01 in0.3 mm
05:58 AM 71.4°F21.9°C 68.6°F20.3°C 91% 4.7 mph SE7.6 kmh SE 9.4 mph15.1 kmh 29.80 in1009.1 mb 0.01 in0.3 mm 0.00 in0.0 mm 0.01 in0.3 mm
05:59 AM 71.4°F21.9°C 68.6°F20.3°C 91% 4.7 mph S7.6 kmh S 9.4 mph15.1 kmh 29.80 in1009.1 mb 0.01 in0.3 mm 0.00 in0.0 mm 0.01 in0.3 mm
06:00 AM 71.4°F21.9°C 68.6°F20.3°C 91% 7.3 mph ESE11.7 kmh ESE 8.3 mph13.4 kmh 29.80 in1009.1 mb 0.01 in0.3 mm 0.00 in0.0 mm 0.01 in0.3 mm
06:01 AM 71.4°F21.9°C 68.6°F20.3°C 91% 4.7 mph SSW7.6 kmh SSW 8.3 mph13.4 kmh 29.80 in1009.1 mb 0.02 in0.5 mm 0.60 in15.2 mm 0.02 in0.5 mm
06:02 AM 71.4°F21.9°C 68.6°F20.3°C 91% 6.8 mph W10.9 kmh W 8.3 mph13.4 kmh 29.80 in1009.1 mb 0.02 in0.5 mm 0.00 in0.0 mm 0.02 in0.5 mm
06:03 AM 71.4°F21.9°C 68.6°F20.3°C 91% 4.7 mph S7.6 kmh S 8.3 mph13.4 kmh 29.80 in1009.1 mb 0.02 in0.5 mm 0.00 in0.0 mm 0.02 in0.5 mm
06:04 AM 71.4°F21.9°C 68.6°F20.3°C 91% 4.7 mph SSE7.6 kmh SSE 8.3 mph13.4 kmh 29.80 in1009.1 mb 0.02 in0.5 mm 0.00 in0.0 mm 0.02 in0.5 mm
06:05 AM 71.4°F21.9°C 68.6°F20.3°C 91% 2.7 mph S4.3 kmh S 8.3 mph13.4 kmh 29.80 in1009.1 mb 0.03 in0.8 mm 0.60 in15.2 mm 0.03 in0.8 mm
06:06 AM 71.4°F21.9°C 68.6°F20.3°C 91% 4.7 mph SSE7.6 kmh SSE 8.3 mph13.4 kmh 29.80 in1009.1 mb 0.03 in0.8 mm 0.00 in0.0 mm 0.03 in0.8 mm
06:07 AM 71.4°F21.9°C 68.6°F20.3°C 91% 5.8 mph SSE9.3 kmh SSE 8.3 mph13.4 kmh 29.80 in1009.1 mb 0.04 in1.0 mm 0.60 in15.2 mm 0.04 in1.0 mm
06:08 AM 71.4°F21.9°C 68.6°F20.3°C 91% 5.3 mph S8.5 kmh S 8.3 mph13.4 kmh 29.80 in1009.1 mb 0.04 in1.0 mm 0.00 in0.0 mm 0.04 in1.0 mm
06:09 AM 71.2°F21.8°C 68.5°F20.3°C 91% 8.9 mph S14.3 kmh S 8.9 mph14.3 kmh 29.80 in1009.1 mb 0.04 in1.0 mm 0.00 in0.0 mm 0.04 in1.0 mm
06:10 AM 71.2°F21.8°C 68.5°F20.3°C 91% 8.9 mph WSW14.3 kmh WSW 8.9 mph14.3 kmh 29.80 in1009.1 mb 0.04 in1.0 mm 0.00 in0.0 mm 0.04 in1.0 mm
06:11 AM 71.1°F21.7°C 68.3°F20.2°C 91% 19.2 mph W30.9 kmh W 19.1 mph30.7 kmh 29.80 in1009.1 mb 0.06 in1.5 mm 1.20 in30.5 mm 0.06 in1.5 mm
06:12 AM 71.1°F21.7°C 68.3°F20.2°C 91% 15.0 mph W24.1 kmh W 19.1 mph30.7 kmh 29.80 in1009.1 mb 0.06 in1.5 mm 0.00 in0.0 mm 0.06 in1.5 mm
06:13 AM 71.1°F21.7°C 68.3°F20.2°C 91% 17.1 mph W27.5 kmh W 19.1 mph30.7 kmh 29.80 in1009.1 mb 0.11 in2.8 mm 3.00 in76.2 mm 0.11 in2.8 mm
06:14 AM 71.1°F21.7°C 68.3°F20.2°C 91% 17.1 mph W27.5 kmh W 19.1 mph30.7 kmh 29.80 in1009.1 mb 0.20 in5.1 mm 5.40 in137.2 mm 0.20 in5.1 mm
06:15 AM 72.7°F22.6°C 69.9°F21.1°C 91% 16.1 mph W25.9 kmh W 19.1 mph30.7 kmh 29.80 in1009.1 mb 0.20 in5.1 mm 0.00 in0.0 mm 0.20 in5.1 mm
06:16 AM 77.5°F25.3°C 74.7°F23.7°C 91% 13.5 mph W21.7 kmh W 19.1 mph30.7 kmh 29.80 in1009.1 mb 0.31 in7.9 mm 6.60 in167.6 mm 0.31 in7.9 mm
06:17 AM 77.5°F25.3°C 74.7°F23.7°C 91% 14.0 mph W22.5 kmh W 19.1 mph30.7 kmh 29.84 in1010.5 mb 0.35 in8.9 mm 2.40 in61.0 mm 0.35 in8.9 mm
06:18 AM 77.5°F25.3°C 74.7°F23.7°C 91% 14.0 mph W22.5 kmh W 19.1 mph30.7 kmh 29.84 in1010.5 mb 0.39 in9.9 mm 2.40 in61.0 mm 0.39 in9.9 mm
06:19 AM 69.1°F20.6°C 66.3°F19.1°C 91% 13.0 mph W20.9 kmh W 19.1 mph30.7 kmh 29.84 in1010.5 mb 0.41 in10.4 mm 1.20 in30.5 mm 0.41 in10.4 mm
06:20 AM 69.1°F20.6°C 66.3°F19.1°C 91% 9.4 mph W15.1 kmh W 19.1 mph30.7 kmh 29.84 in1010.5 mb 0.45 in11.4 mm 2.40 in61.0 mm 0.45 in11.4 mm
06:21 AM 69.1°F20.6°C 66.3°F19.1°C 91% 12.0 mph W19.3 kmh W 18.6 mph29.9 kmh 29.84 in1010.5 mb 0.50 in12.7 mm 3.00 in76.2 mm 0.50 in12.7 mm
06:22 AM 69.1°F20.6°C 66.3°F19.1°C 91% 10.9 mph W17.5 kmh W 18.6 mph29.9 kmh 29.84 in1010.5 mb 0.53 in13.5 mm 1.80 in45.7 mm 0.53 in13.5 mm
06:23 AM 69.1°F20.6°C 66.3°F19.1°C 91% 7.8 mph W12.6 kmh W 17.1 mph27.5 kmh 29.84 in1010.5 mb 0.56 in14.2 mm 1.80 in45.7 mm 0.56 in14.2 mm
06:24 AM 69.1°F20.6°C 66.3°F19.1°C 91% 8.9 mph W14.3 kmh W 17.1 mph27.5 kmh 29.84 in1010.5 mb 0.57 in14.5 mm 0.60 in15.2 mm 0.57 in14.5 mm
06:25 AM 69.1°F20.6°C 66.3°F19.1°C 91% 7.8 mph W12.6 kmh W 16.1 mph25.9 kmh 29.84 in1010.5 mb 0.59 in15.0 mm 1.20 in30.5 mm 0.59 in15.0 mm
06:26 AM 69.1°F20.6°C 66.3°F19.1°C 91% 7.3 mph W11.7 kmh W 14.0 mph22.5 kmh 29.84 in1010.5 mb 0.61 in15.5 mm 1.20 in30.5 mm 0.61 in15.5 mm
06:27 AM 69.1°F20.6°C 66.3°F19.1°C 91% 6.3 mph W10.1 kmh W 14.0 mph22.5 kmh 29.84 in1010.5 mb 0.61 in15.5 mm 0.00 in0.0 mm 0.61 in15.5 mm
06:28 AM 69.1°F20.6°C 66.3°F19.1°C 91% 6.3 mph W10.1 kmh W 13.0 mph20.9 kmh 29.83 in1010.2 mb 0.61 in15.5 mm 0.00 in0.0 mm 0.61 in15.5 mm
06:29 AM 107.4°F41.9°C 104.2°F40.1°C 91% 4.2 mph W6.8 kmh W 11.9 mph19.2 kmh 29.83 in1010.2 mb 0.62 in15.7 mm 0.60 in15.2 mm 0.62 in15.7 mm
06:30 AM 107.4°F41.9°C 104.2°F40.1°C 91% 4.7 mph WSW7.6 kmh WSW 11.9 mph19.2 kmh 29.83 in1010.2 mb 0.62 in15.7 mm 0.00 in0.0 mm 0.62 in15.7 mm
06:31 AM 106.0°F41.1°C 102.8°F39.3°C 91% 4.2 mph WSW6.8 kmh WSW 11.9 mph19.2 kmh 29.83 in1010.2 mb 0.62 in15.7 mm 0.00 in0.0 mm 0.62 in15.7 mm
06:32 AM 104.9°F40.5°C 101.7°F38.7°C 91% 3.2 mph W5.1 kmh W 10.9 mph17.5 kmh 29.83 in1010.2 mb 0.63 in16.0 mm 0.60 in15.2 mm 0.63 in16.0 mm
06:33 AM 104.7°F40.4°C 101.5°F38.6°C 91% 4.2 mph W6.8 kmh W 8.9 mph14.3 kmh 29.83 in1010.2 mb 0.63 in16.0 mm 0.00 in0.0 mm 0.63 in16.0 mm
06:34 AM 104.7°F40.4°C 101.5°F38.6°C 91% 2.7 mph WSW4.3 kmh WSW 8.3 mph13.4 kmh 29.83 in1010.2 mb 0.63 in16.0 mm 0.00 in0.0 mm 0.63 in16.0 mm
06:35 AM 104.7°F40.4°C 101.5°F38.6°C 91% 2.7 mph W4.3 kmh W 8.3 mph13.4 kmh 29.83 in1010.2 mb 0.64 in16.3 mm 0.60 in15.2 mm 0.64 in16.3 mm
06:36 AM 108.0°F42.2°C 104.7°F40.4°C 91% 4.7 mph WSW7.6 kmh WSW 7.3 mph11.7 kmh 29.83 in1010.2 mb 0.64 in16.3 mm 0.00 in0.0 mm 0.64 in16.3 mm
06:37 AM 108.0°F42.2°C 104.7°F40.4°C 91% 1.7 mph SW2.7 kmh SW 6.3 mph10.1 kmh 29.83 in1010.2 mb 0.64 in16.3 mm 0.00 in0.0 mm 0.64 in16.3 mm
06:38 AM 108.0°F42.2°C 105.1°F40.6°C 92% 2.7 mph SW4.3 kmh SW 6.3 mph10.1 kmh 29.83 in1010.2 mb 0.64 in16.3 mm 0.00 in0.0 mm 0.64 in16.3 mm
06:39 AM 108.0°F42.2°C 105.1°F40.6°C 92% 2.7 mph WSW4.3 kmh WSW 5.3 mph8.5 kmh 29.83 in1010.2 mb 0.64 in16.3 mm 0.00 in0.0 mm 0.64 in16.3 mm
06:40 AM 108.0°F42.2°C 105.1°F40.6°C 92% 2.2 mph SW3.5 kmh SW 5.3 mph8.5 kmh 29.84 in1010.5 mb 0.64 in16.3 mm 0.00 in0.0 mm 0.64 in16.3 mm
06:41 AM 124.9°F51.6°C 121.8°F49.9°C 92% Calm Calm 5.3 mph8.5 kmh 29.84 in1010.5 mb 0.65 in16.5 mm 0.60 in15.2 mm 0.65 in16.5 mm
06:42 AM 124.9°F51.6°C 121.8°F49.9°C 92% 1.7 mph WSW2.7 kmh WSW 4.7 mph7.6 kmh 29.84 in1010.5 mb 0.65 in16.5 mm 0.00 in0.0 mm 0.65 in16.5 mm
06:43 AM 124.9°F51.6°C 121.8°F49.9°C 92% Calm Calm 4.7 mph7.6 kmh 29.84 in1010.5 mb 0.65 in16.5 mm 0.00 in0.0 mm 0.65 in16.5 mm
06:44 AM 124.9°F51.6°C 121.8°F49.9°C 92% 1.1 mph WSW1.8 kmh WSW 4.7 mph7.6 kmh 29.84 in1010.5 mb 0.65 in16.5 mm 0.00 in0.0 mm 0.65 in16.5 mm
06:45 AM 124.9°F51.6°C 121.8°F49.9°C 92% 2.2 mph SW3.5 kmh SW 4.7 mph7.6 kmh 29.84 in1010.5 mb 0.65 in16.5 mm 0.00 in0.0 mm 0.65 in16.5 mm
06:46 AM 124.9°F51.6°C 121.8°F49.9°C 92% 1.1 mph SW1.8 kmh SW 4.7 mph7.6 kmh 29.84 in1010.5 mb 0.66 in16.8 mm 0.60 in15.2 mm 0.66 in16.8 mm
06:47 AM 124.9°F51.6°C 121.8°F49.9°C 92% Calm Calm 4.2 mph6.8 kmh 29.84 in1010.5 mb 0.66 in16.8 mm 0.00 in0.0 mm 0.66 in16.8 mm
06:48 AM 109.9°F43.3°C 107.1°F41.7°C 92% 1.1 mph SW1.8 kmh SW 3.2 mph5.1 kmh 29.84 in1010.5 mb 0.66 in16.8 mm 0.00 in0.0 mm 0.66 in16.8 mm
06:49 AM 109.9°F43.3°C 107.1°F41.7°C 92% 2.2 mph SW3.5 kmh SW 2.7 mph4.3 kmh 29.84 in1010.5 mb 0.66 in16.8 mm 0.00 in0.0 mm 0.66 in16.8 mm
06:50 AM 109.9°F43.3°C 107.1°F41.7°C 92% Calm Calm 2.7 mph4.3 kmh 29.84 in1010.5 mb 0.66 in16.8 mm 0.00 in0.0 mm 0.66 in16.8 mm
06:51 AM 109.9°F43.3°C 107.1°F41.7°C 92% Calm Calm 2.7 mph4.3 kmh 29.84 in1010.5 mb 0.66 in16.8 mm 0.00 in0.0 mm 0.66 in16.8 mm
06:52 AM 109.9°F43.3°C 107.1°F41.7°C 92% Calm Calm 2.7 mph4.3 kmh 29.84 in1010.5 mb 0.65 in16.5 mm 0.00 in0.0 mm 0.66 in16.8 mm
06:53 AM 109.9°F43.3°C 107.1°F41.7°C 92% 2.7 mph SW4.3 kmh SW 2.7 mph4.3 kmh 29.84 in1010.5 mb 0.65 in16.5 mm 0.00 in0.0 mm 0.66 in16.8 mm
06:54 AM 109.9°F43.3°C 107.1°F41.7°C 92% 1.1 mph WSW1.8 kmh WSW 2.7 mph4.3 kmh 29.84 in1010.5 mb 0.65 in16.5 mm 0.00 in0.0 mm 0.66 in16.8 mm
06:55 AM 109.9°F43.3°C 107.1°F41.7°C 92% Calm Calm 2.7 mph4.3 kmh 29.84 in1010.5 mb 0.66 in16.8 mm 0.60 in15.2 mm 0.67 in17.0 mm
06:56 AM 109.9°F43.3°C 107.1°F41.7°C 92% Calm Calm 2.7 mph4.3 kmh 29.84 in1010.5 mb 0.66 in16.8 mm 0.00 in0.0 mm 0.67 in17.0 mm
06:57 AM 109.9°F43.3°C 107.4°F41.9°C 93% Calm Calm 2.7 mph4.3 kmh 29.84 in1010.5 mb 0.66 in16.8 mm 0.00 in0.0 mm 0.67 in17.0 mm
06:58 AM 109.9°F43.3°C 107.4°F41.9°C 93% 1.7 mph WSW2.7 kmh WSW 2.7 mph4.3 kmh 29.84 in1010.5 mb 0.67 in17.0 mm 0.60 in15.2 mm 0.68 in17.3 mm
06:59 AM 109.9°F43.3°C 107.4°F41.9°C 93% Calm Calm 2.7 mph4.3 kmh 29.84 in1010.5 mb 0.67 in17.0 mm 0.00 in0.0 mm 0.68 in17.3 mm
07:00 AM 109.9°F43.3°C 107.4°F41.9°C 93% Calm Calm 2.7 mph4.3 kmh 29.84 in1010.5 mb 0.67 in17.0 mm 0.00 in0.0 mm 0.68 in17.3 mm
07:01 AM 109.9°F43.3°C 107.4°F41.9°C 93% 2.2 mph SSW3.5 kmh SSW 2.7 mph4.3 kmh 29.84 in1010.5 mb 0.66 in16.8 mm 0.00 in0.0 mm 0.68 in17.3 mm
07:02 AM 109.9°F43.3°C 107.4°F41.9°C 93% 8.3 mph SSW13.4 kmh SSW 8.3 mph13.4 kmh 29.84 in1010.5 mb 0.66 in16.8 mm 0.00 in0.0 mm 0.68 in17.3 mm
07:03 AM 109.9°F43.3°C 107.4°F41.9°C 93% 2.2 mph W3.5 kmh W 8.3 mph13.4 kmh 29.84 in1010.5 mb 0.66 in16.8 mm 0.00 in0.0 mm 0.68 in17.3 mm
07:04 AM 109.9°F43.3°C 107.4°F41.9°C 93% 4.2 mph WSW6.8 kmh WSW 8.3 mph13.4 kmh 29.84 in1010.5 mb 0.67 in17.0 mm 0.60 in15.2 mm 0.69 in17.5 mm
07:05 AM 109.9°F43.3°C 107.4°F41.9°C 93% 1.7 mph SSW2.7 kmh SSW 8.3 mph13.4 kmh 29.85 in1010.8 mb 0.66 in16.8 mm 0.00 in0.0 mm 0.69 in17.5 mm
07:06 AM 109.9°F43.3°C 107.4°F41.9°C 93% Calm Calm 8.3 mph13.4 kmh 29.85 in1010.8 mb 0.66 in16.8 mm 0.00 in0.0 mm 0.69 in17.5 mm
07:07 AM 109.9°F43.3°C 107.4°F41.9°C 93% 3.2 mph SW5.1 kmh SW 8.3 mph13.4 kmh 29.85 in1010.8 mb 0.65 in16.5 mm 0.00 in0.0 mm 0.69 in17.5 mm
07:08 AM 109.9°F43.3°C 107.4°F41.9°C 93% Calm Calm 8.3 mph13.4 kmh 29.85 in1010.8 mb 0.65 in16.5 mm 0.00 in0.0 mm 0.69 in17.5 mm
07:09 AM 109.9°F43.3°C 107.4°F41.9°C 93% 3.2 mph SW5.1 kmh SW 8.3 mph13.4 kmh 29.85 in1010.8 mb 0.66 in16.8 mm 0.60 in15.2 mm 0.70 in17.8 mm
07:10 AM 109.9°F43.3°C 107.4°F41.9°C 93% 2.7 mph SSW4.3 kmh SSW 8.3 mph13.4 kmh 29.85 in1010.8 mb 0.66 in16.8 mm 0.00 in0.0 mm 0.70 in17.8 mm
07:11 AM 109.9°F43.3°C 107.4°F41.9°C 93% 2.2 mph SW3.5 kmh SW 8.3 mph13.4 kmh 29.85 in1010.8 mb 0.64 in16.3 mm 0.00 in0.0 mm 0.70 in17.8 mm
07:12 AM 109.9°F43.3°C 107.4°F41.9°C 93% 2.2 mph SW3.5 kmh SW 8.3 mph13.4 kmh 29.85 in1010.8 mb 0.65 in16.5 mm 0.60 in15.2 mm 0.71 in18.0 mm
07:13 AM 109.9°F43.3°C 107.4°F41.9°C 93% 1.7 mph S2.7 kmh S 7.3 mph11.7 kmh 29.85 in1010.8 mb 0.63 in16.0 mm 0.00 in0.0 mm 0.71 in18.0 mm
07:14 AM 109.9°F43.3°C 107.4°F41.9°C 93% 1.1 mph SW1.8 kmh SW 7.3 mph11.7 kmh 29.85 in1010.8 mb 0.61 in15.5 mm 0.00 in0.0 mm 0.72 in18.3 mm
07:15 AM 109.9°F43.3°C 107.4°F41.9°C 93% Calm Calm 7.3 mph11.7 kmh 29.85 in1010.8 mb 0.52 in13.2 mm 0.00 in0.0 mm 0.72 in18.3 mm
07:16 AM 109.9°F43.3°C 107.4°F41.9°C 93% 1.7 mph W2.7 kmh W 7.3 mph11.7 kmh 29.85 in1010.8 mb 0.41 in10.4 mm 0.00 in0.0 mm 0.72 in18.3 mm
07:17 AM 109.9°F43.3°C 107.4°F41.9°C 93% 1.7 mph SW2.7 kmh SW 7.3 mph11.7 kmh 29.85 in1010.8 mb 0.40 in10.2 mm 0.00 in0.0 mm 0.73 in18.5 mm
07:18 AM -40.0°F-40.0°C -41.2°F-40.7°C 93% 4.7 mph SW7.6 kmh SW 7.3 mph11.7 kmh 29.85 in1010.8 mb 0.34 in8.6 mm 0.00 in0.0 mm 0.73 in18.5 mm
07:19 AM -40.0°F-40.0°C -41.2°F-40.7°C 93% 2.2 mph WSW3.5 kmh WSW 6.8 mph10.9 kmh 29.85 in1010.8 mb 0.33 in8.4 mm 0.00 in0.0 mm 0.74 in18.8 mm
07:20 AM -40.0°F-40.0°C -62.9°F-52.7°C 24% 4.7 mph SW7.6 kmh SW 5.8 mph9.3 kmh 29.85 in1010.8 mb 0.29 in7.4 mm 0.00 in0.0 mm 0.74 in18.8 mm
07:21 AM -40.0°F-40.0°C -62.9°F-52.7°C 24% 3.7 mph SW6.0 kmh SW 5.8 mph9.3 kmh 29.85 in1010.8 mb 0.26 in6.6 mm 0.00 in0.0 mm 0.74 in18.8 mm
07:22 AM -40.0°F-40.0°C -62.9°F-52.7°C 24% 3.7 mph SW6.0 kmh SW 5.8 mph9.3 kmh 29.85 in1010.8 mb 0.22 in5.6 mm 0.00 in0.0 mm 0.75 in19.1 mm
07:23 AM -40.0°F-40.0°C -62.9°F-52.7°C 24% 1.1 mph W1.8 kmh W 5.8 mph9.3 kmh 29.85 in1010.8 mb 0.20 in5.1 mm 0.00 in0.0 mm 0.75 in19.1 mm
07:24 AM -40.0°F-40.0°C -62.9°F-52.7°C 24% 1.1 mph NW1.8 kmh NW 5.8 mph9.3 kmh 29.85 in1010.8 mb 0.20 in5.1 mm 0.00 in0.0 mm 0.77 in19.6 mm
07:25 AM -40.0°F-40.0°C -62.9°F-52.7°C 24% Calm Calm 5.8 mph9.3 kmh 29.85 in1010.8 mb 0.18 in4.6 mm 0.00 in0.0 mm 0.77 in19.6 mm
07:26 AM -40.0°F-40.0°C -62.9°F-52.7°C 24% 1.1 mph S1.8 kmh S 5.8 mph9.3 kmh 29.85 in1010.8 mb 0.17 in4.3 mm 0.00 in0.0 mm 0.77 in19.6 mm
07:27 AM -40.0°F-40.0°C -62.9°F-52.7°C 24% 3.7 mph W6.0 kmh W 5.8 mph9.3 kmh 29.85 in1010.8 mb 0.17 in4.3 mm 0.00 in0.0 mm 0.78 in19.8 mm
07:28 AM -40.0°F-40.0°C -62.9°F-52.7°C 24% 6.8 mph WSW10.9 kmh WSW 6.8 mph10.9 kmh 29.86 in1011.2 mb 0.17 in4.3 mm 0.00 in0.0 mm 0.78 in19.8 mm
07:29 AM -40.0°F-40.0°C -62.9°F-52.7°C 24% 3.7 mph WSW6.0 kmh WSW 6.8 mph10.9 kmh 29.86 in1011.2 mb 0.16 in4.1 mm 0.00 in0.0 mm 0.78 in19.8 mm
07:30 AM -40.0°F-40.0°C -62.9°F-52.7°C 24% 4.7 mph SW7.6 kmh SW 6.8 mph10.9 kmh 29.86 in1011.2 mb 0.16 in4.1 mm 0.00 in0.0 mm 0.78 in19.8 mm
07:31 AM -40.0°F-40.0°C -62.9°F-52.7°C 24% 5.8 mph SW9.3 kmh SW 6.8 mph10.9 kmh 29.86 in1011.2 mb 0.16 in4.1 mm 0.00 in0.0 mm 0.78 in19.8 mm
07:32 AM -40.0°F-40.0°C -62.9°F-52.7°C 24% 2.7 mph W4.3 kmh W 6.8 mph10.9 kmh 29.86 in1011.2 mb 0.15 in3.8 mm 0.00 in0.0 mm 0.78 in19.8 mm
07:33 AM -40.0°F-40.0°C -62.9°F-52.7°C 24% Calm Calm 6.8 mph10.9 kmh 29.86 in1011.2 mb 0.15 in3.8 mm 0.00 in0.0 mm 0.78 in19.8 mm
07:34 AM -40.0°F-40.0°C -62.9°F-52.7°C 24% Calm Calm 6.8 mph10.9 kmh 29.86 in1011.2 mb 0.15 in3.8 mm 0.00 in0.0 mm 0.78 in19.8 mm
07:35 AM -40.0°F-40.0°C -62.9°F-52.7°C 24% Calm Calm 6.8 mph10.9 kmh 29.86 in1011.2 mb 0.15 in3.8 mm 0.00 in0.0 mm 0.79 in20.1 mm
07:36 AM -40.0°F-40.0°C -62.9°F-52.7°C 24% Calm Calm 6.8 mph10.9 kmh 29.86 in1011.2 mb 0.15 in3.8 mm 0.00 in0.0 mm 0.79 in20.1 mm
07:37 AM -40.0°F-40.0°C -62.9°F-52.7°C 24% Calm Calm 6.8 mph10.9 kmh 29.86 in1011.2 mb 0.15 in3.8 mm 0.00 in0.0 mm 0.79 in20.1 mm
07:38 AM -40.0°F-40.0°C -62.9°F-52.7°C 24% Calm Calm 5.8 mph9.3 kmh 29.86 in1011.2 mb 0.15 in3.8 mm 0.00 in0.0 mm 0.79 in20.1 mm
07:39 AM -40.0°F-40.0°C -62.9°F-52.7°C 24% 4.7 mph SSW7.6 kmh SSW 5.8 mph9.3 kmh 29.86 in1011.2 mb 0.15 in3.8 mm 0.00 in0.0 mm 0.79 in20.1 mm
07:40 AM -40.0°F-40.0°C -62.9°F-52.7°C 24% 2.2 mph SSW3.5 kmh SSW 6.3 mph10.1 kmh 29.86 in1011.2 mb 0.15 in3.8 mm 0.00 in0.0 mm 0.79 in20.1 mm
07:41 AM -40.0°F-40.0°C -62.9°F-52.7°C 24% 6.3 mph S10.1 kmh S 6.3 mph10.1 kmh 29.86 in1011.2 mb 0.14 in3.6 mm 0.00 in0.0 mm 0.79 in20.1 mm
07:42 AM -40.0°F-40.0°C -62.9°F-52.7°C 24% 6.3 mph SSW10.1 kmh SSW 6.3 mph10.1 kmh 29.86 in1011.2 mb 0.14 in3.6 mm 0.00 in0.0 mm 0.79 in20.1 mm
07:43 AM -40.0°F-40.0°C -62.9°F-52.7°C 24% 2.7 mph S4.3 kmh S 6.3 mph10.1 kmh 29.86 in1011.2 mb 0.14 in3.6 mm 0.00 in0.0 mm 0.79 in20.1 mm
07:44 AM -40.0°F-40.0°C -62.9°F-52.7°C 24% 1.7 mph S2.7 kmh S 6.3 mph10.1 kmh 29.86 in1011.2 mb 0.14 in3.6 mm 0.00 in0.0 mm 0.79 in20.1 mm
07:45 AM -40.0°F-40.0°C -62.9°F-52.7°C 24% 1.1 mph SW1.8 kmh SW 6.3 mph10.1 kmh 29.86 in1011.2 mb 0.14 in3.6 mm 0.00 in0.0 mm 0.79 in20.1 mm
07:46 AM -40.0°F-40.0°C -62.9°F-52.7°C 24% 1.1 mph SW1.8 kmh SW 6.3 mph10.1 kmh 29.86 in1011.2 mb 0.13 in3.3 mm 0.00 in0.0 mm 0.79 in20.1 mm
07:47 AM -40.0°F-40.0°C -62.9°F-52.7°C 24% 1.1 mph W1.8 kmh W 6.3 mph10.1 kmh 29.86 in1011.2 mb 0.13 in3.3 mm 0.00 in0.0 mm 0.79 in20.1 mm
07:48 AM -40.0°F-40.0°C -62.9°F-52.7°C 24% 1.7 mph SW2.7 kmh SW 6.3 mph10.1 kmh 29.86 in1011.2 mb 0.13 in3.3 mm 0.00 in0.0 mm 0.79 in20.1 mm
07:49 AM -40.0°F-40.0°C -62.9°F-52.7°C 24% 1.1 mph WNW1.8 kmh WNW 6.3 mph10.1 kmh 29.86 in1011.2 mb 0.13 in3.3 mm 0.00 in0.0 mm 0.79 in20.1 mm
07:50 AM -40.0°F-40.0°C -62.9°F-52.7°C 24% 1.1 mph NE1.8 kmh NE 6.3 mph10.1 kmh 29.86 in1011.2 mb 0.13 in3.3 mm 0.00 in0.0 mm 0.79 in20.1 mm
07:51 AM -40.0°F-40.0°C -62.9°F-52.7°C 24% 4.7 mph WSW7.6 kmh WSW 6.3 mph10.1 kmh 29.86 in1011.2 mb 0.13 in3.3 mm 0.00 in0.0 mm 0.79 in20.1 mm
07:52 AM -40.0°F-40.0°C -62.9°F-52.7°C 24% 2.2 mph SW3.5 kmh SW 4.7 mph7.6 kmh 29.86 in1011.2 mb 0.13 in3.3 mm 0.00 in0.0 mm 0.79 in20.1 mm
07:53 AM -40.0°F-40.0°C -62.9°F-52.7°C 24% 3.7 mph SW6.0 kmh SW 4.7 mph7.6 kmh 29.87 in1011.5 mb 0.13 in3.3 mm 0.00 in0.0 mm 0.79 in20.1 mm
07:54 AM -40.0°F-40.0°C -62.9°F-52.7°C 24% 6.3 mph SW10.1 kmh SW 6.3 mph10.1 kmh 29.87 in1011.5 mb 0.13 in3.3 mm 0.00 in0.0 mm 0.79 in20.1 mm
07:55 AM -40.0°F-40.0°C -62.9°F-52.7°C 24% 2.7 mph W4.3 kmh W 7.3 mph11.7 kmh 29.87 in1011.5 mb 0.12 in3.0 mm 0.00 in0.0 mm 0.79 in20.1 mm
07:56 AM 134.8°F57.1°C 85.5°F29.7°C 24% 3.7 mph WSW6.0 kmh WSW 8.3 mph13.4 kmh 29.87 in1011.5 mb 0.12 in3.0 mm 0.00 in0.0 mm 0.79 in20.1 mm
07:57 AM 134.8°F57.1°C 85.5°F29.7°C 24% 3.2 mph SSW5.1 kmh SSW 8.3 mph13.4 kmh 29.87 in1011.5 mb 0.12 in3.0 mm 0.00 in0.0 mm 0.79 in20.1 mm
07:58 AM 134.8°F57.1°C 85.5°F29.7°C 24% 2.2 mph SW3.5 kmh SW 8.3 mph13.4 kmh 29.87 in1011.5 mb 0.12 in3.0 mm 0.00 in0.0 mm 0.79 in20.1 mm
07:59 AM 134.8°F57.1°C 85.5°F29.7°C 24% 3.2 mph ENE5.1 kmh ENE 8.3 mph13.4 kmh 29.87 in1011.5 mb 0.11 in2.8 mm 0.00 in0.0 mm 0.79 in20.1 mm
08:00 AM 134.8°F57.1°C 85.5°F29.7°C 24% 1.7 mph WSW2.7 kmh WSW 8.3 mph13.4 kmh 29.87 in1011.5 mb 0.11 in2.8 mm 0.00 in0.0 mm 0.79 in20.1 mm
08:01 AM 134.8°F57.1°C 85.5°F29.7°C 24% 2.7 mph S4.3 kmh S 8.3 mph13.4 kmh 29.87 in1011.5 mb 0.11 in2.8 mm 0.00 in0.0 mm 0.79 in20.1 mm
08:02 AM 134.8°F57.1°C 85.5°F29.7°C 24% 2.2 mph SW3.5 kmh SW 8.3 mph13.4 kmh 29.87 in1011.5 mb 0.11 in2.8 mm 0.00 in0.0 mm 0.79 in20.1 mm
08:03 AM 134.8°F57.1°C 85.5°F29.7°C 24% 2.2 mph SW3.5 kmh SW 8.3 mph13.4 kmh 29.87 in1011.5 mb 0.11 in2.8 mm 0.00 in0.0 mm 0.79 in20.1 mm
08:04 AM 134.8°F57.1°C 85.5°F29.7°C 24% 2.2 mph S3.5 kmh S 8.3 mph13.4 kmh 29.87 in1011.5 mb 0.10 in2.5 mm 0.00 in0.0 mm 0.79 in20.1 mm
08:05 AM 134.8°F57.1°C 85.5°F29.7°C 24% 2.2 mph SW3.5 kmh SW 8.3 mph13.4 kmh 29.86 in1011.2 mb 0.10 in2.5 mm 0.00 in0.0 mm 0.79 in20.1 mm
08:06 AM 134.8°F57.1°C 85.5°F29.7°C 24% 1.7 mph SE2.7 kmh SE 7.3 mph11.7 kmh 29.86 in1011.2 mb 0.10 in2.5 mm 0.00 in0.0 mm 0.79 in20.1 mm
08:07 AM 134.8°F57.1°C 85.5°F29.7°C 24% 2.7 mph SSW4.3 kmh SSW 7.3 mph11.7 kmh 29.86 in1011.2 mb 0.10 in2.5 mm 0.00 in0.0 mm 0.79 in20.1 mm
08:08 AM 134.8°F57.1°C 85.5°F29.7°C 24% 2.2 mph SW3.5 kmh SW 7.3 mph11.7 kmh 29.86 in1011.2 mb 0.10 in2.5 mm 0.00 in0.0 mm 0.79 in20.1 mm
08:09 AM 134.8°F57.1°C 85.5°F29.7°C 24% 3.2 mph SSW5.1 kmh SSW 7.3 mph11.7 kmh 29.86 in1011.2 mb 0.09 in2.3 mm 0.00 in0.0 mm 0.79 in20.1 mm
08:10 AM 134.8°F57.1°C 85.5°F29.7°C 24% 1.1 mph SSW1.8 kmh SSW 7.3 mph11.7 kmh 29.86 in1011.2 mb 0.09 in2.3 mm 0.00 in0.0 mm 0.79 in20.1 mm
08:11 AM 134.8°F57.1°C 85.5°F29.7°C 24% 3.7 mph SW6.0 kmh SW 7.3 mph11.7 kmh 29.86 in1011.2 mb 0.09 in2.3 mm 0.00 in0.0 mm 0.79 in20.1 mm
08:12 AM 134.8°F57.1°C 85.5°F29.7°C 24% 4.2 mph SSW6.8 kmh SSW 7.3 mph11.7 kmh 29.86 in1011.2 mb 0.08 in2.0 mm 0.00 in0.0 mm 0.79 in20.1 mm
08:13 AM 134.8°F57.1°C 85.5°F29.7°C 24% 1.7 mph SW2.7 kmh SW 7.3 mph11.7 kmh 29.86 in1011.2 mb 0.08 in2.0 mm 0.00 in0.0 mm 0.79 in20.1 mm
08:14 AM 134.8°F57.1°C 85.5°F29.7°C 24% 5.8 mph S9.3 kmh S 7.3 mph11.7 kmh 29.86 in1011.2 mb 0.07 in1.8 mm 0.00 in0.0 mm 0.79 in20.1 mm
08:15 AM 134.8°F57.1°C 85.5°F29.7°C 24% 4.2 mph SSW6.8 kmh SSW 5.8 mph9.3 kmh 29.86 in1011.2 mb 0.07 in1.8 mm 0.00 in0.0 mm 0.79 in20.1 mm
08:16 AM 134.8°F57.1°C 85.5°F29.7°C 24% 2.7 mph SW4.3 kmh SW 5.8 mph9.3 kmh 29.86 in1011.2 mb 0.06 in1.5 mm 0.00 in0.0 mm 0.79 in20.1 mm
08:17 AM 134.8°F57.1°C 85.5°F29.7°C 24% 4.2 mph SW6.8 kmh SW 5.8 mph9.3 kmh 29.86 in1011.2 mb 0.06 in1.5 mm 0.00 in0.0 mm 0.79 in20.1 mm
08:18 AM 134.8°F57.1°C 85.5°F29.7°C 24% 3.2 mph W5.1 kmh W 5.8 mph9.3 kmh 29.86 in1011.2 mb 0.06 in1.5 mm 0.00 in0.0 mm 0.79 in20.1 mm
08:19 AM 134.8°F57.1°C 85.5°F29.7°C 24% 2.2 mph WSW3.5 kmh WSW 5.8 mph9.3 kmh 29.86 in1011.2 mb 0.05 in1.3 mm 0.00 in0.0 mm 0.79 in20.1 mm
08:20 AM 134.8°F57.1°C 85.5°F29.7°C 24% 1.7 mph SSW2.7 kmh SSW 5.8 mph9.3 kmh 29.86 in1011.2 mb 0.05 in1.3 mm 0.00 in0.0 mm 0.79 in20.1 mm
08:21 AM 134.8°F57.1°C 85.5°F29.7°C 24% Calm Calm 5.8 mph9.3 kmh 29.86 in1011.2 mb 0.05 in1.3 mm 0.00 in0.0 mm 0.79 in20.1 mm
08:22 AM 134.8°F57.1°C 85.5°F29.7°C 24% 1.1 mph SSW1.8 kmh SSW 5.8 mph9.3 kmh 29.86 in1011.2 mb 0.04 in1.0 mm 0.00 in0.0 mm 0.79 in20.1 mm
08:23 AM 134.8°F57.1°C 85.5°F29.7°C 24% 1.1 mph NW1.8 kmh NW 5.8 mph9.3 kmh 29.86 in1011.2 mb 0.04 in1.0 mm 0.00 in0.0 mm 0.79 in20.1 mm
08:24 AM 134.8°F57.1°C 85.5°F29.7°C 24% 1.1 mph WNW1.8 kmh WNW 4.7 mph7.6 kmh 29.86 in1011.2 mb 0.02 in0.5 mm 0.00 in0.0 mm 0.79 in20.1 mm
08:25 AM 134.8°F57.1°C 85.5°F29.7°C 24% 4.7 mph WSW7.6 kmh WSW 4.7 mph7.6 kmh 29.86 in1011.2 mb 0.02 in0.5 mm 0.00 in0.0 mm 0.79 in20.1 mm
08:26 AM 134.8°F57.1°C 85.5°F29.7°C 24% 1.1 mph SW1.8 kmh SW 4.7 mph7.6 kmh 29.86 in1011.2 mb 0.02 in0.5 mm 0.00 in0.0 mm 0.79 in20.1 mm
08:27 AM 134.8°F57.1°C 85.5°F29.7°C 24% 5.8 mph WSW9.3 kmh WSW 5.8 mph9.3 kmh 29.86 in1011.2 mb 0.02 in0.5 mm 0.00 in0.0 mm 0.79 in20.1 mm
08:28 AM 134.8°F57.1°C 85.5°F29.7°C 24% 1.1 mph SE1.8 kmh SE 5.8 mph9.3 kmh 29.87 in1011.5 mb 0.01 in0.3 mm 0.00 in0.0 mm 0.79 in20.1 mm
08:29 AM 134.8°F57.1°C 85.5°F29.7°C 24% 3.2 mph SW5.1 kmh SW 7.3 mph11.7 kmh 29.87 in1011.5 mb 0.01 in0.3 mm 0.00 in0.0 mm 0.79 in20.1 mm
08:30 AM 134.8°F57.1°C 85.5°F29.7°C 24% 4.2 mph S6.8 kmh S 7.3 mph11.7 kmh 29.87 in1011.5 mb 0.01 in0.3 mm 0.00 in0.0 mm 0.79 in20.1 mm
08:31 AM 134.8°F57.1°C 85.5°F29.7°C 24% 4.7 mph WSW7.6 kmh WSW 7.3 mph11.7 kmh 29.87 in1011.5 mb 0.01 in0.3 mm 0.00 in0.0 mm 0.79 in20.1 mm
08:32 AM 134.8°F57.1°C 85.5°F29.7°C 24% 3.7 mph SSW6.0 kmh SSW 7.3 mph11.7 kmh 29.87 in1011.5 mb 0.01 in0.3 mm 0.00 in0.0 mm 0.79 in20.1 mm
08:33 AM 134.8°F57.1°C 85.5°F29.7°C 24% 4.7 mph SW7.6 kmh SW 7.3 mph11.7 kmh 29.87 in1011.5 mb 0.01 in0.3 mm 0.00 in0.0 mm 0.79 in20.1 mm
08:34 AM 134.8°F57.1°C 85.5°F29.7°C 24% 3.2 mph SW5.1 kmh SW 7.3 mph11.7 kmh 29.87 in1011.5 mb 0.01 in0.3 mm 0.00 in0.0 mm 0.79 in20.1 mm
08:35 AM 134.8°F57.1°C 85.5°F29.7°C 24% 3.7 mph SW6.0 kmh SW 7.3 mph11.7 kmh 29.87 in1011.5 mb 0.00 in0.0 mm 0.00 in0.0 mm 0.79 in20.1 mm
08:36 AM 134.8°F57.1°C 85.5°F29.7°C 24% 3.7 mph W6.0 kmh W 7.3 mph11.7 kmh 29.87 in1011.5 mb 0.00 in0.0 mm 0.00 in0.0 mm 0.79 in20.1 mm
08:37 AM 134.8°F57.1°C 85.5°F29.7°C 24% 4.7 mph W7.6 kmh W 7.3 mph11.7 kmh 29.87 in1011.5 mb 0.00 in0.0 mm 0.00 in0.0 mm 0.79 in20.1 mm
08:38 AM 134.8°F57.1°C 85.5°F29.7°C 24% 2.2 mph SW3.5 kmh SW 7.3 mph11.7 kmh 29.87 in1011.5 mb 0.00 in0.0 mm 0.00 in0.0 mm 0.79 in20.1 mm
08:39 AM 134.8°F57.1°C 85.5°F29.7°C 24% 5.3 mph WSW8.5 kmh WSW 5.3 mph8.5 kmh 29.87 in1011.5 mb 0.00 in0.0 mm 0.00 in0.0 mm 0.79 in20.1 mm
08:40 AM 134.8°F57.1°C 85.5°F29.7°C 24% 5.3 mph SW8.5 kmh SW 5.3 mph8.5 kmh 29.88 in1011.9 mb 0.00 in0.0 mm 0.00 in0.0 mm 0.79 in20.1 mm
08:41 AM 134.8°F57.1°C 85.5°F29.7°C 24% 5.3 mph W8.5 kmh W 5.3 mph8.5 kmh 29.88 in1011.9 mb 0.00 in0.0 mm 0.00 in0.0 mm 0.79 in20.1 mm
08:42 AM 134.8°F57.1°C 85.5°F29.7°C 24% 6.3 mph W10.1 kmh W 6.3 mph10.1 kmh 29.88 in1011.9 mb 0.00 in0.0 mm 0.00 in0.0 mm 0.79 in20.1 mm
08:43 AM 134.8°F57.1°C 85.5°F29.7°C 24% 4.7 mph W7.6 kmh W 6.3 mph10.1 kmh 29.88 in1011.9 mb 0.00 in0.0 mm 0.00 in0.0 mm 0.79 in20.1 mm
08:44 AM 134.8°F57.1°C 85.5°F29.7°C 24% 5.3 mph WSW8.5 kmh WSW 6.3 mph10.1 kmh 29.88 in1011.9 mb 0.00 in0.0 mm 0.00 in0.0 mm 0.79 in20.1 mm
08:45 AM 134.8°F57.1°C 85.5°F29.7°C 24% 5.8 mph WSW9.3 kmh WSW 6.3 mph10.1 kmh 29.88 in1011.9 mb 0.00 in0.0 mm 0.00 in0.0 mm 0.79 in20.1 mm
08:46 AM 134.8°F57.1°C 85.5°F29.7°C 24% 6.3 mph W10.1 kmh W 7.3 mph11.7 kmh 29.88 in1011.9 mb 0.00 in0.0 mm 0.00 in0.0 mm 0.79 in20.1 mm
08:47 AM 134.8°F57.1°C 85.5°F29.7°C 24% 6.8 mph W10.9 kmh W 7.3 mph11.7 kmh 29.88 in1011.9 mb 0.00 in0.0 mm 0.00 in0.0 mm 0.79 in20.1 mm
08:48 AM 134.8°F57.1°C 85.5°F29.7°C 24% 6.3 mph W10.1 kmh W 7.3 mph11.7 kmh 29.88 in1011.9 mb 0.00 in0.0 mm 0.00 in0.0 mm 0.79 in20.1 mm
08:49 AM 134.8°F57.1°C 85.5°F29.7°C 24% 7.3 mph W11.7 kmh W 7.3 mph11.7 kmh 29.88 in1011.9 mb 0.00 in0.0 mm 0.00 in0.0 mm 0.79 in20.1 mm
08:50 AM 134.8°F57.1°C 85.5°F29.7°C 24% 6.8 mph W10.9 kmh W 8.3 mph13.4 kmh 29.88 in1011.9 mb 0.00 in0.0 mm 0.00 in0.0 mm 0.79 in20.1 mm
08:51 AM 134.8°F57.1°C 85.5°F29.7°C 24% 5.8 mph W9.3 kmh W 8.3 mph13.4 kmh 29.88 in1011.9 mb 0.00 in0.0 mm 0.00 in0.0 mm 0.79 in20.1 mm
08:52 AM 134.8°F57.1°C 85.5°F29.7°C 24% 6.8 mph W10.9 kmh W 8.3 mph13.4 kmh 29.87 in1011.5 mb 0.00 in0.0 mm 0.00 in0.0 mm 0.79 in20.1 mm
08:53 AM 134.8°F57.1°C 85.5°F29.7°C 24% 5.8 mph WSW9.3 kmh WSW 8.3 mph13.4 kmh 29.87 in1011.5 mb 0.00 in0.0 mm 0.00 in0.0 mm 0.79 in20.1 mm
08:54 AM 134.8°F57.1°C 85.5°F29.7°C 24% 6.8 mph WSW10.9 kmh WSW 8.3 mph13.4 kmh 29.87 in1011.5 mb 0.00 in0.0 mm 0.00 in0.0 mm 0.79 in20.1 mm
08:55 AM 134.8°F57.1°C 85.5°F29.7°C 24% 7.3 mph W11.7 kmh W 8.3 mph13.4 kmh 29.87 in1011.5 mb 0.00 in0.0 mm 0.00 in0.0 mm 0.79 in20.1 mm
08:56 AM 134.8°F57.1°C 85.5°F29.7°C 24% 8.9 mph W14.3 kmh W 8.9 mph14.3 kmh 29.87 in1011.5 mb 0.00 in0.0 mm 0.00 in0.0 mm 0.79 in20.1 mm
08:57 AM 134.8°F57.1°C 85.5°F29.7°C 24% 4.7 mph WSW7.6 kmh WSW 8.9 mph14.3 kmh 29.87 in1011.5 mb 0.00 in0.0 mm 0.00 in0.0 mm 0.79 in20.1 mm
08:58 AM 134.8°F57.1°C 85.5°F29.7°C 24% 6.8 mph WSW10.9 kmh WSW 8.9 mph14.3 kmh 29.87 in1011.5 mb 0.00 in0.0 mm 0.00 in0.0 mm 0.79 in20.1 mm
08:59 AM 134.8°F57.1°C 85.5°F29.7°C 24% 7.3 mph W11.7 kmh W 8.9 mph14.3 kmh 29.87 in1011.5 mb 0.00 in0.0 mm 0.00 in0.0 mm 0.79 in20.1 mm
09:00 AM 134.8°F57.1°C 85.5°F29.7°C 24% 7.8 mph W12.6 kmh W 8.9 mph14.3 kmh 29.87 in1011.5 mb 0.00 in0.0 mm 0.00 in0.0 mm 0.79 in20.1 mm
09:01 AM 134.8°F57.1°C 85.5°F29.7°C 24% 7.8 mph WSW12.6 kmh WSW 8.9 mph14.3 kmh 29.87 in1011.5 mb 0.00 in0.0 mm 0.00 in0.0 mm 0.79 in20.1 mm
09:02 AM 134.8°F57.1°C 85.5°F29.7°C 24% 9.4 mph WSW15.1 kmh WSW 9.4 mph15.1 kmh 29.87 in1011.5 mb 0.00 in0.0 mm 0.00 in0.0 mm 0.79 in20.1 mm
09:03 AM 134.8°F57.1°C 85.5°F29.7°C 24% 8.9 mph W14.3 kmh W 9.4 mph15.1 kmh 29.87 in1011.5 mb 0.00 in0.0 mm 0.00 in0.0 mm 0.79 in20.1 mm
09:04 AM 134.8°F57.1°C 85.5°F29.7°C 24% 7.8 mph W12.6 kmh W 9.4 mph15.1 kmh 29.87 in1011.5 mb 0.00 in0.0 mm 0.00 in0.0 mm 0.79 in20.1 mm
09:05 AM 134.8°F57.1°C 85.5°F29.7°C 24% 8.3 mph WSW13.4 kmh WSW 9.4 mph15.1 kmh 29.88 in1011.9 mb 0.00 in0.0 mm 0.00 in0.0 mm 0.79 in20.1 mm
09:06 AM 134.8°F57.1°C 85.5°F29.7°C 24% 8.9 mph W14.3 kmh W 10.4 mph16.7 kmh 29.88 in1011.9 mb 0.00 in0.0 mm 0.00 in0.0 mm 0.79 in20.1 mm
09:07 AM 134.8°F57.1°C 85.5°F29.7°C 24% 10.4 mph W16.7 kmh W 10.9 mph17.5 kmh 29.88 in1011.9 mb 0.00 in0.0 mm 0.00 in0.0 mm 0.79 in20.1 mm
09:08 AM 134.8°F57.1°C 85.5°F29.7°C 24% 9.4 mph W15.1 kmh W 10.9 mph17.5 kmh 29.88 in1011.9 mb 0.00 in0.0 mm 0.00 in0.0 mm 0.79 in20.1 mm
09:09 AM 134.8°F57.1°C 85.5°F29.7°C 24% 8.3 mph WSW13.4 kmh WSW 10.9 mph17.5 kmh 29.88 in1011.9 mb 0.00 in0.0 mm 0.00 in0.0 mm 0.79 in20.1 mm
09:10 AM 134.8°F57.1°C 85.5°F29.7°C 24% 12.0 mph WSW19.3 kmh WSW 11.9 mph19.2 kmh 29.88 in1011.9 mb 0.00 in0.0 mm 0.00 in0.0 mm 0.79 in20.1 mm
09:11 AM 134.8°F57.1°C 85.5°F29.7°C 24% 11.4 mph W18.3 kmh W 12.5 mph20.1 kmh 29.88 in1011.9 mb 0.00 in0.0 mm 0.00 in0.0 mm 0.79 in20.1 mm
09:12 AM 134.8°F57.1°C 85.5°F29.7°C 24% 8.9 mph W14.3 kmh W 13.0 mph20.9 kmh 29.88 in1011.9 mb 0.00 in0.0 mm 0.00 in0.0 mm 0.79 in20.1 mm
09:13 AM 134.8°F57.1°C 85.5°F29.7°C 24% 9.4 mph W15.1 kmh W 13.0 mph20.9 kmh 29.88 in1011.9 mb 0.00 in0.0 mm 0.00 in0.0 mm 0.79 in20.1 mm
09:14 AM 134.8°F57.1°C 85.5°F29.7°C 24% 8.3 mph W13.4 kmh W 13.0 mph20.9 kmh 29.88 in1011.9 mb 0.00 in0.0 mm 0.00 in0.0 mm 0.79 in20.1 mm
09:15 AM 134.8°F57.1°C 85.5°F29.7°C 24% 8.9 mph W14.3 kmh W 13.0 mph20.9 kmh 29.88 in1011.9 mb 0.00 in0.0 mm 0.00 in0.0 mm 0.79 in20.1 mm
09:16 AM 134.8°F57.1°C 85.5°F29.7°C 24% 8.9 mph W14.3 kmh W 13.0 mph20.9 kmh 29.88 in1011.9 mb 0.00 in0.0 mm 0.00 in0.0 mm 0.79 in20.1 mm
09:17 AM 134.8°F57.1°C 85.5°F29.7°C 24% 8.3 mph W13.4 kmh W 13.0 mph20.9 kmh 29.88 in1011.9 mb 0.00 in0.0 mm 0.00 in0.0 mm 0.79 in20.1 mm
09:18 AM 134.8°F57.1°C 85.5°F29.7°C 24% 10.4 mph W16.7 kmh W 13.0 mph20.9 kmh 29.88 in1011.9 mb 0.00 in0.0 mm 0.00 in0.0 mm 0.79 in20.1 mm
09:19 AM 134.8°F57.1°C 85.5°F29.7°C 24% 8.3 mph W13.4 kmh W 13.0 mph20.9 kmh 29.88 in1011.9 mb 0.00 in0.0 mm 0.00 in0.0 mm 0.79 in20.1 mm
09:20 AM 134.8°F57.1°C 85.5°F29.7°C 24% 9.9 mph W15.9 kmh W 13.0 mph20.9 kmh 29.88 in1011.9 mb 0.00 in0.0 mm 0.00 in0.0 mm 0.79 in20.1 mm
09:21 AM 134.8°F57.1°C 85.5°F29.7°C 24% 7.3 mph WSW11.7 kmh WSW 13.0 mph20.9 kmh 29.88 in1011.9 mb 0.00 in0.0 mm 0.00 in0.0 mm 0.79 in20.1 mm
09:22 AM 134.8°F57.1°C 85.5°F29.7°C 24% 9.9 mph WSW15.9 kmh WSW 11.4 mph18.3 kmh 29.88 in1011.9 mb 0.00 in0.0 mm 0.00 in0.0 mm 0.79 in20.1 mm
09:23 AM 134.8°F57.1°C 85.5°F29.7°C 24% 9.4 mph W15.1 kmh W 11.4 mph18.3 kmh 29.88 in1011.9 mb 0.00 in0.0 mm 0.00 in0.0 mm 0.79 in20.1 mm
09:24 AM 134.8°F57.1°C 86.7°F30.4°C 25% 9.4 mph WSW15.1 kmh WSW 11.4 mph18.3 kmh 29.88 in1011.9 mb 0.00 in0.0 mm 0.00 in0.0 mm 0.79 in20.1 mm
09:25 AM 134.8°F57.1°C 86.7°F30.4°C 25% 7.8 mph W12.6 kmh W 11.4 mph18.3 kmh 29.88 in1011.9 mb 0.00 in0.0 mm 0.00 in0.0 mm 0.79 in20.1 mm
09:26 AM 134.8°F57.1°C 86.7°F30.4°C 25% 8.9 mph W14.3 kmh W 11.4 mph18.3 kmh 29.88 in1011.9 mb 0.00 in0.0 mm 0.00 in0.0 mm 0.79 in20.1 mm
09:27 AM 134.8°F57.1°C 86.7°F30.4°C 25% 7.8 mph WSW12.6 kmh WSW 11.4 mph18.3 kmh 29.88 in1011.9 mb 0.00 in0.0 mm 0.00 in0.0 mm 0.79 in20.1 mm
09:28 AM 134.8°F57.1°C 86.7°F30.4°C 25% 5.3 mph W8.5 kmh W 11.4 mph18.3 kmh 29.89 in1012.2 mb 0.00 in0.0 mm 0.00 in0.0 mm 0.79 in20.1 mm
09:29 AM 134.8°F57.1°C 71.2°F21.8°C 15% 6.8 mph W10.9 kmh W 11.4 mph18.3 kmh 29.89 in1012.2 mb 0.00 in0.0 mm 0.00 in0.0 mm 0.79 in20.1 mm
09:30 AM 134.8°F57.1°C 71.2°F21.8°C 15% 7.8 mph W12.6 kmh W 11.4 mph18.3 kmh 29.89 in1012.2 mb 0.00 in0.0 mm 0.00 in0.0 mm 0.79 in20.1 mm
09:31 AM 134.8°F57.1°C 71.2°F21.8°C 15% 5.3 mph WSW8.5 kmh WSW 11.4 mph18.3 kmh 29.89 in1012.2 mb 0.00 in0.0 mm 0.00 in0.0 mm 0.79 in20.1 mm
09:32 AM 134.8°F57.1°C 71.2°F21.8°C 15% 5.8 mph WSW9.3 kmh WSW 9.9 mph15.9 kmh 29.89 in1012.2 mb 0.00 in0.0 mm 0.00 in0.0 mm 0.79 in20.1 mm
09:33 AM 134.8°F57.1°C 71.2°F21.8°C 15% 5.8 mph SW9.3 kmh SW 9.4 mph15.1 kmh 29.89 in1012.2 mb 0.00 in0.0 mm 0.00 in0.0 mm 0.79 in20.1 mm
09:34 AM 134.8°F57.1°C 71.2°F21.8°C 15% 6.3 mph SW10.1 kmh SW 8.9 mph14.3 kmh 29.89 in1012.2 mb 0.00 in0.0 mm 0.00 in0.0 mm 0.79 in20.1 mm
09:35 AM 134.8°F57.1°C 71.2°F21.8°C 15% 7.3 mph WSW11.7 kmh WSW 8.9 mph14.3 kmh 29.89 in1012.2 mb 0.00 in0.0 mm 0.00 in0.0 mm 0.79 in20.1 mm
09:36 AM 134.8°F57.1°C 71.2°F21.8°C 15% 4.7 mph SW7.6 kmh SW 8.9 mph14.3 kmh 29.89 in1012.2 mb 0.00 in0.0 mm 0.00 in0.0 mm 0.79 in20.1 mm
09:37 AM 134.8°F57.1°C 71.2°F21.8°C 15% 6.8 mph W10.9 kmh W 8.9 mph14.3 kmh 29.89 in1012.2 mb 0.00 in0.0 mm 0.00 in0.0 mm 0.79 in20.1 mm
09:38 AM 134.8°F57.1°C 71.2°F21.8°C 15% 6.3 mph SW10.1 kmh SW 9.4 mph15.1 kmh 29.89 in1012.2 mb 0.00 in0.0 mm 0.00 in0.0 mm 0.79 in20.1 mm
09:39 AM 134.8°F57.1°C 71.2°F21.8°C 15% 8.3 mph W13.4 kmh W 9.4 mph15.1 kmh 29.89 in1012.2 mb 0.00 in0.0 mm 0.00 in0.0 mm 0.79 in20.1 mm
09:40 AM 134.8°F57.1°C 71.2°F21.8°C 15% 9.4 mph W15.1 kmh W 9.4 mph15.1 kmh 29.89 in1012.2 mb 0.00 in0.0 mm 0.00 in0.0 mm 0.79 in20.1 mm
09:41 AM 134.8°F57.1°C 71.2°F21.8°C 15% 8.3 mph W13.4 kmh W 9.4 mph15.1 kmh 29.89 in1012.2 mb 0.00 in0.0 mm 0.00 in0.0 mm 0.79 in20.1 mm
09:42 AM 134.8°F57.1°C 71.2°F21.8°C 15% 6.8 mph WSW10.9 kmh WSW 9.4 mph15.1 kmh 29.89 in1012.2 mb 0.00 in0.0 mm 0.00 in0.0 mm 0.79 in20.1 mm
09:43 AM 134.8°F57.1°C 71.2°F21.8°C 15% 10.9 mph WSW17.5 kmh WSW 10.9 mph17.5 kmh 29.89 in1012.2 mb 0.00 in0.0 mm 0.00 in0.0 mm 0.79 in20.1 mm
09:44 AM 134.8°F57.1°C 71.2°F21.8°C 15% 7.8 mph SSW12.6 kmh SSW 10.9 mph17.5 kmh 29.89 in1012.2 mb 0.00 in0.0 mm 0.00 in0.0 mm 0.79 in20.1 mm
09:45 AM 134.8°F57.1°C 71.2°F21.8°C 15% 6.8 mph SW10.9 kmh SW 10.9 mph17.5 kmh 29.89 in1012.2 mb 0.00 in0.0 mm 0.00 in0.0 mm 0.79 in20.1 mm
09:46 AM 134.8°F57.1°C 71.2°F21.8°C 15% 7.3 mph WSW11.7 kmh WSW 10.9 mph17.5 kmh 29.89 in1012.2 mb 0.00 in0.0 mm 0.00 in0.0 mm 0.79 in20.1 mm
09:47 AM 134.8°F57.1°C 71.2°F21.8°C 15% 8.3 mph WSW13.4 kmh WSW 10.9 mph17.5 kmh 29.89 in1012.2 mb 0.00 in0.0 mm 0.00 in0.0 mm 0.79 in20.1 mm
09:48 AM 134.8°F57.1°C 71.2°F21.8°C 15% 8.9 mph W14.3 kmh W 10.9 mph17.5 kmh 29.89 in1012.2 mb 0.00 in0.0 mm 0.00 in0.0 mm 0.79 in20.1 mm
09:49 AM 134.8°F57.1°C 130.4°F54.7°C 89% 8.3 mph SW13.4 kmh SW 10.9 mph17.5 kmh 29.89 in1012.2 mb 0.00 in0.0 mm 0.00 in0.0 mm 0.79 in20.1 mm
09:50 AM 134.8°F57.1°C 130.4°F54.7°C 89% 6.8 mph WSW10.9 kmh WSW 10.9 mph17.5 kmh 29.89 in1012.2 mb 0.00 in0.0 mm 0.00 in0.0 mm 0.79 in20.1 mm
09:51 AM 134.8°F57.1°C 130.4°F54.7°C 89% 7.8 mph WSW12.6 kmh WSW 10.9 mph17.5 kmh 29.89 in1012.2 mb 0.00 in0.0 mm 0.00 in0.0 mm 0.79 in20.1 mm
09:52 AM 134.8°F57.1°C 130.4°F54.7°C 89% 8.3 mph SW13.4 kmh SW 10.9 mph17.5 kmh 29.91 in1012.9 mb 0.00 in0.0 mm 0.00 in0.0 mm 0.79 in20.1 mm
09:53 AM 134.8°F57.1°C 130.4°F54.7°C 89% 6.3 mph WSW10.1 kmh WSW 10.9 mph17.5 kmh 29.91 in1012.9 mb 0.00 in0.0 mm 0.00 in0.0 mm 0.79 in20.1 mm
09:54 AM 134.8°F57.1°C 130.4°F54.7°C 89% 7.3 mph W11.7 kmh W 10.9 mph17.5 kmh 29.91 in1012.9 mb 0.00 in0.0 mm 0.00 in0.0 mm 0.79 in20.1 mm
09:55 AM 134.8°F57.1°C 130.4°F54.7°C 89% 7.3 mph WSW11.7 kmh WSW 10.9 mph17.5 kmh 29.91 in1012.9 mb 0.00 in0.0 mm 0.00 in0.0 mm 0.79 in20.1 mm
09:56 AM 134.8°F57.1°C 130.4°F54.7°C 89% 6.8 mph SW10.9 kmh SW 10.9 mph17.5 kmh 29.91 in1012.9 mb 0.00 in0.0 mm 0.00 in0.0 mm 0.79 in20.1 mm
09:57 AM 59.9°F15.5°C 56.6°F13.7°C 89% 7.3 mph SW11.7 kmh SW 10.9 mph17.5 kmh 29.91 in1012.9 mb 0.00 in0.0 mm 0.00 in0.0 mm 0.79 in20.1 mm
09:58 AM 59.9°F15.5°C 56.6°F13.7°C 89% 6.3 mph SW10.1 kmh SW 10.9 mph17.5 kmh 29.91 in1012.9 mb 0.00 in0.0 mm 0.00 in0.0 mm 0.79 in20.1 mm
09:59 AM 59.9°F15.5°C 56.6°F13.7°C 89% 7.3 mph SW11.7 kmh SW 10.9 mph17.5 kmh 29.91 in1012.9 mb 0.00 in0.0 mm 0.00 in0.0 mm 0.79 in20.1 mm
10:00 AM 59.9°F15.5°C 56.6°F13.7°C 89% 4.7 mph WSW7.6 kmh WSW 10.9 mph17.5 kmh 29.91 in1012.9 mb 0.00 in0.0 mm 0.00 in0.0 mm 0.79 in20.1 mm
10:01 AM 59.9°F15.5°C 56.6°F13.7°C 89% 3.7 mph SW6.0 kmh SW 10.9 mph17.5 kmh 29.91 in1012.9 mb 0.00 in0.0 mm 0.00 in0.0 mm 0.79 in20.1 mm
10:02 AM 59.9°F15.5°C 56.6°F13.7°C 89% 6.8 mph W10.9 kmh W 10.4 mph16.7 kmh 29.91 in1012.9 mb 0.00 in0.0 mm 0.00 in0.0 mm 0.79 in20.1 mm
10:03 AM 59.9°F15.5°C 56.6°F13.7°C 89% 5.3 mph WSW8.5 kmh WSW 10.4 mph16.7 kmh 29.91 in1012.9 mb 0.00 in0.0 mm 0.00 in0.0 mm 0.79 in20.1 mm
10:04 AM 59.9°F15.5°C 56.6°F13.7°C 89% 7.8 mph SW12.6 kmh SW 10.4 mph16.7 kmh 29.90 in1012.5 mb 0.00 in0.0 mm 0.00 in0.0 mm 0.79 in20.1 mm
10:05 AM 59.9°F15.5°C 56.6°F13.7°C 89% 5.8 mph WSW9.3 kmh WSW 10.4 mph16.7 kmh 29.90 in1012.5 mb 0.00 in0.0 mm 0.00 in0.0 mm 0.79 in20.1 mm
10:06 AM 59.9°F15.5°C 56.6°F13.7°C 89% 5.8 mph WSW9.3 kmh WSW 10.4 mph16.7 kmh 29.90 in1012.5 mb 0.00 in0.0 mm 0.00 in0.0 mm 0.79 in20.1 mm
10:07 AM 96.1°F35.6°C 92.3°F33.5°C 89% 4.7 mph WSW7.6 kmh WSW 8.3 mph13.4 kmh 29.90 in1012.5 mb 0.00 in0.0 mm 0.00 in0.0 mm 0.79 in20.1 mm
10:08 AM 95.7°F35.4°C 91.6°F33.1°C 88% 7.3 mph SW11.7 kmh SW 8.3 mph13.4 kmh 29.90 in1012.5 mb 0.00 in0.0 mm 0.00 in0.0 mm 0.79 in20.1 mm
10:09 AM 96.3°F35.7°C 92.1°F33.4°C 88% 5.8 mph WNW9.3 kmh WNW 8.3 mph13.4 kmh 29.90 in1012.5 mb 0.00 in0.0 mm 0.00 in0.0 mm 0.79 in20.1 mm
10:10 AM 96.4°F35.8°C 92.3°F33.5°C 88% 4.7 mph WSW7.6 kmh WSW 7.8 mph12.6 kmh 29.90 in1012.5 mb 0.00 in0.0 mm 0.00 in0.0 mm 0.79 in20.1 mm
10:11 AM 96.3°F35.7°C 92.1°F33.4°C 88% 4.7 mph SW7.6 kmh SW 7.8 mph12.6 kmh 29.90 in1012.5 mb 0.00 in0.0 mm 0.00 in0.0 mm 0.79 in20.1 mm
10:12 AM 96.1°F35.6°C 91.6°F33.1°C 87% 6.3 mph SW10.1 kmh SW 7.8 mph12.6 kmh 29.90 in1012.5 mb 0.00 in0.0 mm 0.00 in0.0 mm 0.79 in20.1 mm
10:13 AM 96.1°F35.6°C 91.6°F33.1°C 87% 4.2 mph SE6.8 kmh SE 7.8 mph12.6 kmh 29.90 in1012.5 mb 0.00 in0.0 mm 0.00 in0.0 mm 0.79 in20.1 mm
10:14 AM 96.1°F35.6°C 91.9°F33.3°C 88% 4.2 mph WSW6.8 kmh WSW 7.3 mph11.7 kmh 29.90 in1012.5 mb 0.00 in0.0 mm 0.00 in0.0 mm 0.79 in20.1 mm
10:15 AM 96.1°F35.6°C 91.9°F33.3°C 88% 6.3 mph SW10.1 kmh SW 7.3 mph11.7 kmh 29.90 in1012.5 mb 0.00 in0.0 mm 0.00 in0.0 mm 0.79 in20.1 mm
10:16 AM 96.1°F35.6°C 91.9°F33.3°C 88% 3.2 mph SW5.1 kmh SW 7.3 mph11.7 kmh 29.90 in1012.5 mb 0.00 in0.0 mm 0.00 in0.0 mm 0.79 in20.1 mm
10:17 AM 96.1°F35.6°C 91.9°F33.3°C 88% 5.3 mph SW8.5 kmh SW 7.3 mph11.7 kmh 29.91 in1012.9 mb 0.00 in0.0 mm 0.00 in0.0 mm 0.79 in20.1 mm
10:18 AM 63.9°F17.7°C 60.2°F15.7°C 88% 4.7 mph SW7.6 kmh SW 7.3 mph11.7 kmh 29.91 in1012.9 mb 0.00 in0.0 mm 0.00 in0.0 mm 0.79 in20.1 mm
10:19 AM 63.9°F17.7°C 60.2°F15.7°C 88% 7.8 mph W12.6 kmh W 7.8 mph12.6 kmh 29.91 in1012.9 mb 0.00 in0.0 mm 0.00 in0.0 mm 0.79 in20.1 mm
10:20 AM 63.9°F17.7°C 60.2°F15.7°C 88% 4.7 mph WSW7.6 kmh WSW 7.8 mph12.6 kmh 29.91 in1012.9 mb 0.00 in0.0 mm 0.00 in0.0 mm 0.79 in20.1 mm
10:21 AM 63.9°F17.7°C 60.2°F15.7°C 88% 4.7 mph WSW7.6 kmh WSW 7.8 mph12.6 kmh 29.91 in1012.9 mb 0.00 in0.0 mm 0.00 in0.0 mm 0.79 in20.1 mm
10:22 AM 63.9°F17.7°C 60.2°F15.7°C 88% 6.3 mph SW10.1 kmh SW 7.8 mph12.6 kmh 29.91 in1012.9 mb 0.00 in0.0 mm 0.00 in0.0 mm 0.79 in20.1 mm
10:23 AM 63.9°F17.7°C 60.2°F15.7°C 88% 6.3 mph SW10.1 kmh SW 7.8 mph12.6 kmh 29.91 in1012.9 mb 0.00 in0.0 mm 0.00 in0.0 mm 0.79 in20.1 mm
10:24 AM 63.9°F17.7°C 60.2°F15.7°C 88% 5.8 mph SW9.3 kmh SW 7.8 mph12.6 kmh 29.91 in1012.9 mb 0.00 in0.0 mm 0.00 in0.0 mm 0.79 in20.1 mm
10:25 AM 63.9°F17.7°C 60.2°F15.7°C 88% 7.3 mph W11.7 kmh W 9.4 mph15.1 kmh 29.91 in1012.9 mb 0.00 in0.0 mm 0.00 in0.0 mm 0.79 in20.1 mm
10:26 AM 63.9°F17.7°C 59.9°F15.5°C 87% 7.8 mph WSW12.6 kmh WSW 9.4 mph15.1 kmh 29.91 in1012.9 mb 0.00 in0.0 mm 0.00 in0.0 mm 0.79 in20.1 mm
10:27 AM 63.9°F17.7°C 59.9°F15.5°C 87% 6.8 mph SW10.9 kmh SW 9.4 mph15.1 kmh 29.91 in1012.9 mb 0.00 in0.0 mm 0.00 in0.0 mm 0.79 in20.1 mm
10:28 AM 63.9°F17.7°C 59.9°F15.5°C 87% 7.8 mph SW12.6 kmh SW 9.4 mph15.1 kmh 29.91 in1012.9 mb 0.00 in0.0 mm 0.00 in0.0 mm 0.79 in20.1 mm
10:29 AM 64.0°F17.8°C 60.1°F15.6°C 87% 5.8 mph WSW9.3 kmh WSW 9.4 mph15.1 kmh 29.92 in1013.2 mb 0.00 in0.0 mm 0.00 in0.0 mm 0.79 in20.1 mm
10:30 AM 64.2°F17.9°C 60.3°F15.7°C 87% 9.4 mph W15.1 kmh W 9.4 mph15.1 kmh 29.92 in1013.2 mb 0.00 in0.0 mm 0.00 in0.0 mm 0.79 in20.1 mm
10:31 AM 64.2°F17.9°C 59.9°F15.5°C 86% 7.8 mph WSW12.6 kmh WSW 9.4 mph15.1 kmh 29.92 in1013.2 mb 0.00 in0.0 mm 0.00 in0.0 mm 0.79 in20.1 mm
10:32 AM 64.0°F17.8°C 59.8°F15.4°C 86% 7.3 mph WSW11.7 kmh WSW 9.4 mph15.1 kmh 29.92 in1013.2 mb 0.00 in0.0 mm 0.00 in0.0 mm 0.79 in20.1 mm
10:33 AM 64.0°F17.8°C 59.8°F15.4°C 86% 9.4 mph WSW15.1 kmh WSW 10.4 mph16.7 kmh 29.92 in1013.2 mb 0.00 in0.0 mm 0.00 in0.0 mm 0.79 in20.1 mm
10:34 AM 63.9°F17.7°C 59.3°F15.2°C 85% 6.8 mph WSW10.9 kmh WSW 10.4 mph16.7 kmh 29.92 in1013.2 mb 0.00 in0.0 mm 0.00 in0.0 mm 0.79 in20.1 mm
10:35 AM 64.0°F17.8°C 59.4°F15.2°C 85% 7.3 mph W11.7 kmh W 10.4 mph16.7 kmh 29.92 in1013.2 mb 0.00 in0.0 mm 0.00 in0.0 mm 0.79 in20.1 mm
10:36 AM 64.0°F17.8°C 59.4°F15.2°C 85% 10.4 mph WSW16.7 kmh WSW 11.9 mph19.2 kmh 29.92 in1013.2 mb 0.00 in0.0 mm 0.00 in0.0 mm 0.79 in20.1 mm
10:37 AM 64.0°F17.8°C 59.4°F15.2°C 85% 7.8 mph W12.6 kmh W 11.9 mph19.2 kmh 29.92 in1013.2 mb 0.00 in0.0 mm 0.00 in0.0 mm 0.79 in20.1 mm
10:38 AM 64.2°F17.9°C 59.6°F15.3°C 85% 10.9 mph W17.5 kmh W 11.9 mph19.2 kmh 29.92 in1013.2 mb 0.00 in0.0 mm 0.00 in0.0 mm 0.79 in20.1 mm
10:39 AM 64.2°F17.9°C 59.6°F15.3°C 85% 10.4 mph WSW16.7 kmh WSW 11.9 mph19.2 kmh 29.92 in1013.2 mb 0.00 in0.0 mm 0.00 in0.0 mm 0.79 in20.1 mm
10:40 AM 64.2°F17.9°C 59.6°F15.3°C 85% 8.9 mph W14.3 kmh W 11.9 mph19.2 kmh 29.93 in1013.5 mb 0.00 in0.0 mm 0.00 in0.0 mm 0.79 in20.1 mm
10:41 AM 64.4°F18.0°C 59.8°F15.4°C 85% 10.4 mph WSW16.7 kmh WSW 11.9 mph19.2 kmh 29.93 in1013.5 mb 0.00 in0.0 mm 0.00 in0.0 mm 0.79 in20.1 mm
10:42 AM 64.4°F18.0°C 59.8°F15.4°C 85% 8.9 mph WSW14.3 kmh WSW 11.9 mph19.2 kmh 29.93 in1013.5 mb 0.00 in0.0 mm 0.00 in0.0 mm 0.79 in20.1 mm
10:43 AM 64.2°F17.9°C 59.3°F15.2°C 84% 12.5 mph W20.1 kmh W 13.5 mph21.7 kmh 29.93 in1013.5 mb 0.01 in0.3 mm 0.60 in15.2 mm 0.80 in20.3 mm
10:44 AM 64.2°F17.9°C 58.9°F14.9°C 83% 15.0 mph W24.1 kmh W 15.0 mph24.1 kmh 29.93 in1013.5 mb 0.01 in0.3 mm 0.00 in0.0 mm 0.80 in20.3 mm
10:45 AM 64.2°F17.9°C 58.9°F14.9°C 83% 13.5 mph W21.7 kmh W 17.1 mph27.5 kmh 29.93 in1013.5 mb 0.01 in0.3 mm 0.00 in0.0 mm 0.80 in20.3 mm
10:46 AM 64.2°F17.9°C 58.9°F14.9°C 83% 14.5 mph W23.3 kmh W 17.1 mph27.5 kmh 29.93 in1013.5 mb 0.01 in0.3 mm 0.00 in0.0 mm 0.80 in20.3 mm
10:47 AM 64.2°F17.9°C 58.6°F14.8°C 82% 11.4 mph WSW18.3 kmh WSW 17.1 mph27.5 kmh 29.93 in1013.5 mb 0.01 in0.3 mm 0.00 in0.0 mm 0.80 in20.3 mm
10:48 AM 64.2°F17.9°C 58.6°F14.8°C 82% 13.0 mph WSW20.9 kmh WSW 17.1 mph27.5 kmh 29.93 in1013.5 mb 0.01 in0.3 mm 0.00 in0.0 mm 0.80 in20.3 mm
10:49 AM 64.2°F17.9°C 58.6°F14.8°C 82% 14.5 mph W23.3 kmh W 17.1 mph27.5 kmh 29.93 in1013.5 mb 0.01 in0.3 mm 0.00 in0.0 mm 0.80 in20.3 mm
10:50 AM 64.4°F18.0°C 58.8°F14.9°C 82% 10.4 mph W16.7 kmh W 17.1 mph27.5 kmh 29.93 in1013.5 mb 0.01 in0.3 mm 0.00 in0.0 mm 0.80 in20.3 mm
10:51 AM 64.4°F18.0°C 58.8°F14.9°C 82% 9.9 mph W15.9 kmh W 17.1 mph27.5 kmh 29.93 in1013.5 mb 0.01 in0.3 mm 0.00 in0.0 mm 0.80 in20.3 mm
10:52 AM 64.2°F17.9°C 58.3°F14.6°C 81% 12.0 mph WSW19.3 kmh WSW 17.1 mph27.5 kmh 29.92 in1013.2 mb 0.01 in0.3 mm 0.00 in0.0 mm 0.80 in20.3 mm
10:53 AM 64.2°F17.9°C 58.6°F14.8°C 82% 10.9 mph W17.5 kmh W 17.1 mph27.5 kmh 29.92 in1013.2 mb 0.01 in0.3 mm 0.00 in0.0 mm 0.80 in20.3 mm
10:54 AM 64.2°F17.9°C 58.6°F14.8°C 82% 11.4 mph W18.3 kmh W 17.1 mph27.5 kmh 29.92 in1013.2 mb 0.01 in0.3 mm 0.00 in0.0 mm 0.80 in20.3 mm
10:55 AM 64.2°F17.9°C 58.6°F14.8°C 82% 12.5 mph W20.1 kmh W 15.6 mph25.1 kmh 29.92 in1013.2 mb 0.01 in0.3 mm 0.00 in0.0 mm 0.80 in20.3 mm
10:56 AM 64.2°F17.9°C 58.3°F14.6°C 81% 15.0 mph W24.1 kmh W 15.0 mph24.1 kmh 29.92 in1013.2 mb 0.01 in0.3 mm 0.00 in0.0 mm 0.80 in20.3 mm
10:57 AM 64.2°F17.9°C 58.6°F14.8°C 82% 10.9 mph W17.5 kmh W 15.0 mph24.1 kmh 29.92 in1013.2 mb 0.01 in0.3 mm 0.00 in0.0 mm 0.80 in20.3 mm
10:58 AM 64.4°F18.0°C 59.1°F15.1°C 83% 9.9 mph W15.9 kmh W 15.0 mph24.1 kmh 29.92 in1013.2 mb 0.01 in0.3 mm 0.00 in0.0 mm 0.80 in20.3 mm
10:59 AM 64.2°F17.9°C 58.6°F14.8°C 82% 10.9 mph WSW17.5 kmh WSW 15.0 mph24.1 kmh 29.92 in1013.2 mb 0.01 in0.3 mm 0.00 in0.0 mm 0.80 in20.3 mm
11:00 AM 64.2°F17.9°C 58.6°F14.8°C 82% 8.9 mph WSW14.3 kmh WSW 15.0 mph24.1 kmh 29.92 in1013.2 mb 0.01 in0.3 mm 0.00 in0.0 mm 0.80 in20.3 mm
11:01 AM 64.2°F17.9°C 58.6°F14.8°C 82% 8.9 mph WSW14.3 kmh WSW 15.0 mph24.1 kmh 29.92 in1013.2 mb 0.01 in0.3 mm 0.00 in0.0 mm 0.80 in20.3 mm
11:02 AM 64.2°F17.9°C 58.6°F14.8°C 82% 12.0 mph W19.3 kmh W 15.0 mph24.1 kmh 29.92 in1013.2 mb 0.01 in0.3 mm 0.00 in0.0 mm 0.80 in20.3 mm
11:03 AM 64.2°F17.9°C 58.9°F14.9°C 83% 9.9 mph W15.9 kmh W 15.0 mph24.1 kmh 29.92 in1013.2 mb 0.01 in0.3 mm 0.00 in0.0 mm 0.80 in20.3 mm
11:04 AM 64.2°F17.9°C 58.9°F14.9°C 83% 7.8 mph W12.6 kmh W 15.0 mph24.1 kmh 29.93 in1013.5 mb 0.01 in0.3 mm 0.00 in0.0 mm 0.80 in20.3 mm
11:05 AM 64.2°F17.9°C 58.9°F14.9°C 83% 10.4 mph W16.7 kmh W 15.0 mph24.1 kmh 29.93 in1013.5 mb 0.01 in0.3 mm 0.00 in0.0 mm 0.80 in20.3 mm
11:06 AM 64.0°F17.8°C 58.8°F14.9°C 83% 7.3 mph WSW11.7 kmh WSW 14.5 mph23.3 kmh 29.93 in1013.5 mb 0.01 in0.3 mm 0.00 in0.0 mm 0.80 in20.3 mm
11:07 AM 63.9°F17.7°C 58.6°F14.8°C 83% 9.4 mph SW15.1 kmh SW 14.5 mph23.3 kmh 29.93 in1013.5 mb 0.01 in0.3 mm 0.00 in0.0 mm 0.80 in20.3 mm
11:08 AM 63.9°F17.7°C 58.6°F14.8°C 83% 8.3 mph SW13.4 kmh SW 14.5 mph23.3 kmh 29.93 in1013.5 mb 0.01 in0.3 mm 0.00 in0.0 mm 0.80 in20.3 mm
11:09 AM 63.7°F17.6°C 58.4°F14.7°C 83% 8.3 mph WSW13.4 kmh WSW 14.0 mph22.5 kmh 29.93 in1013.5 mb 0.01 in0.3 mm 0.00 in0.0 mm 0.80 in20.3 mm
11:10 AM 63.9°F17.7°C 58.6°F14.8°C 83% 8.9 mph WSW14.3 kmh WSW 14.0 mph22.5 kmh 29.93 in1013.5 mb 0.01 in0.3 mm 0.00 in0.0 mm 0.80 in20.3 mm
11:11 AM 63.9°F17.7°C 58.6°F14.8°C 83% 8.9 mph WSW14.3 kmh WSW 14.0 mph22.5 kmh 29.93 in1013.5 mb 0.01 in0.3 mm 0.00 in0.0 mm 0.80 in20.3 mm
11:12 AM 63.9°F17.7°C 58.6°F14.8°C 83% 7.8 mph WSW12.6 kmh WSW 11.9 mph19.2 kmh 29.93 in1013.5 mb 0.01 in0.3 mm 0.00 in0.0 mm 0.80 in20.3 mm
11:13 AM 63.9°F17.7°C 58.6°F14.8°C 83% 8.9 mph WSW14.3 kmh WSW 10.9 mph17.5 kmh 29.93 in1013.5 mb 0.01 in0.3 mm 0.00 in0.0 mm 0.80 in20.3 mm
11:14 AM 63.9°F17.7°C 58.6°F14.8°C 83% 6.3 mph WSW10.1 kmh WSW 10.9 mph17.5 kmh 29.93 in1013.5 mb 0.01 in0.3 mm 0.00 in0.0 mm 0.80 in20.3 mm
11:15 AM 63.9°F17.7°C 58.6°F14.8°C 83% 7.3 mph SW11.7 kmh SW 10.9 mph17.5 kmh 29.93 in1013.5 mb 0.01 in0.3 mm 0.00 in0.0 mm 0.80 in20.3 mm
11:16 AM 63.9°F17.7°C 58.6°F14.8°C 83% 6.8 mph W10.9 kmh W 10.9 mph17.5 kmh 29.93 in1013.5 mb 0.01 in0.3 mm 0.00 in0.0 mm 0.80 in20.3 mm
11:17 AM 64.0°F17.8°C 59.1°F15.1°C 84% 8.3 mph W13.4 kmh W 10.4 mph16.7 kmh 29.92 in1013.2 mb 0.01 in0.3 mm 0.00 in0.0 mm 0.80 in20.3 mm
11:18 AM 64.0°F17.8°C 59.1°F15.1°C 84% 6.3 mph SW10.1 kmh SW 9.9 mph15.9 kmh 29.92 in1013.2 mb 0.01 in0.3 mm 0.00 in0.0 mm 0.80 in20.3 mm
11:19 AM 63.9°F17.7°C 58.9°F14.9°C 84% 4.2 mph SSW6.8 kmh SSW 9.9 mph15.9 kmh 29.92 in1013.2 mb 0.01 in0.3 mm 0.00 in0.0 mm 0.80 in20.3 mm
11:20 AM 63.9°F17.7°C 58.9°F14.9°C 84% 5.8 mph WSW9.3 kmh WSW 9.9 mph15.9 kmh 29.92 in1013.2 mb 0.01 in0.3 mm 0.00 in0.0 mm 0.80 in20.3 mm
11:21 AM 63.7°F17.6°C 58.8°F14.9°C 84% 5.3 mph SW8.5 kmh SW 9.4 mph15.1 kmh 29.92 in1013.2 mb 0.01 in0.3 mm 0.00 in0.0 mm 0.80 in20.3 mm
11:22 AM 63.7°F17.6°C 58.8°F14.9°C 84% 6.3 mph NNW10.1 kmh NNW 9.4 mph15.1 kmh 29.92 in1013.2 mb 0.01 in0.3 mm 0.00 in0.0 mm 0.80 in20.3 mm
11:23 AM 63.7°F17.6°C 59.1°F15.1°C 85% 7.3 mph SW11.7 kmh SW 9.4 mph15.1 kmh 29.92 in1013.2 mb 0.01 in0.3 mm 0.00 in0.0 mm 0.80 in20.3 mm
11:24 AM 63.7°F17.6°C 58.8°F14.9°C 84% 6.8 mph SW10.9 kmh SW 9.4 mph15.1 kmh 29.92 in1013.2 mb 0.01 in0.3 mm 0.00 in0.0 mm 0.80 in20.3 mm
11:25 AM 63.9°F17.7°C 58.9°F14.9°C 84% 7.3 mph SW11.7 kmh SW 9.4 mph15.1 kmh 29.92 in1013.2 mb 0.01 in0.3 mm 0.00 in0.0 mm 0.80 in20.3 mm
11:26 AM 63.9°F17.7°C 58.9°F14.9°C 84% 9.4 mph WSW15.1 kmh WSW 9.9 mph15.9 kmh 29.92 in1013.2 mb 0.01 in0.3 mm 0.00 in0.0 mm 0.80 in20.3 mm
11:27 AM 63.9°F17.7°C 58.6°F14.8°C 83% 6.3 mph WSW10.1 kmh WSW 9.9 mph15.9 kmh 29.92 in1013.2 mb 0.01 in0.3 mm 0.00 in0.0 mm 0.80 in20.3 mm
11:28 AM 63.7°F17.6°C 58.4°F14.7°C 83% 4.7 mph SW7.6 kmh SW 9.9 mph15.9 kmh 29.92 in1013.2 mb 0.01 in0.3 mm 0.00 in0.0 mm 0.80 in20.3 mm
11:29 AM 63.7°F17.6°C 58.4°F14.7°C 83% 5.3 mph SW8.5 kmh SW 9.9 mph15.9 kmh 29.92 in1013.2 mb 0.01 in0.3 mm 0.00 in0.0 mm 0.80 in20.3 mm
11:30 AM 63.7°F17.6°C 58.4°F14.7°C 83% 8.3 mph SW13.4 kmh SW 9.9 mph15.9 kmh 29.92 in1013.2 mb 0.01 in0.3 mm 0.00 in0.0 mm 0.80 in20.3 mm
11:31 AM 63.7°F17.6°C 58.4°F14.7°C 83% 7.3 mph WSW11.7 kmh WSW 9.9 mph15.9 kmh 29.92 in1013.2 mb 0.01 in0.3 mm 0.00 in0.0 mm 0.80 in20.3 mm
11:32 AM 63.7°F17.6°C 58.4°F14.7°C 83% 8.9 mph WSW14.3 kmh WSW 9.9 mph15.9 kmh 29.92 in1013.2 mb 0.01 in0.3 mm 0.00 in0.0 mm 0.80 in20.3 mm
11:33 AM 63.7°F17.6°C 58.1°F14.5°C 82% 8.3 mph SW13.4 kmh SW 9.9 mph15.9 kmh 29.92 in1013.2 mb 0.01 in0.3 mm 0.00 in0.0 mm 0.80 in20.3 mm
11:34 AM 63.9°F17.7°C 57.9°F14.4°C 81% 9.9 mph SW15.9 kmh SW 10.4 mph16.7 kmh 29.92 in1013.2 mb 0.01 in0.3 mm 0.00 in0.0 mm 0.80 in20.3 mm
11:35 AM 63.9°F17.7°C 57.9°F14.4°C 81% 8.9 mph SW14.3 kmh SW 10.4 mph16.7 kmh 29.92 in1013.2 mb 0.01 in0.3 mm 0.00 in0.0 mm 0.80 in20.3 mm
11:36 AM 63.9°F17.7°C 57.9°F14.4°C 81% 8.9 mph WSW14.3 kmh WSW 10.4 mph16.7 kmh 29.92 in1013.2 mb 0.01 in0.3 mm 0.00 in0.0 mm 0.80 in20.3 mm
11:37 AM 64.0°F17.8°C 58.4°F14.7°C 82% 6.3 mph WSW10.1 kmh WSW 10.4 mph16.7 kmh 29.92 in1013.2 mb 0.01 in0.3 mm 0.00 in0.0 mm 0.80 in20.3 mm
11:38 AM 64.0°F17.8°C 58.4°F14.7°C 82% 8.3 mph SW13.4 kmh SW 10.4 mph16.7 kmh 29.92 in1013.2 mb 0.01 in0.3 mm 0.00 in0.0 mm 0.80 in20.3 mm
11:39 AM 64.0°F17.8°C 58.4°F14.7°C 82% 8.3 mph SW13.4 kmh SW 10.4 mph16.7 kmh 29.92 in1013.2 mb 0.01 in0.3 mm 0.00 in0.0 mm 0.80 in20.3 mm
11:40 AM 64.0°F17.8°C 58.4°F14.7°C 82% 9.9 mph W15.9 kmh W 10.4 mph16.7 kmh 29.92 in1013.2 mb 0.01 in0.3 mm 0.00 in0.0 mm 0.80 in20.3 mm
11:41 AM 64.0°F17.8°C 58.1°F14.5°C 81% 9.4 mph W15.1 kmh W 10.4 mph16.7 kmh 29.91 in1012.9 mb 0.01 in0.3 mm 0.00 in0.0 mm 0.80 in20.3 mm
11:42 AM 64.0°F17.8°C 58.1°F14.5°C 81% 10.9 mph W17.5 kmh W 10.9 mph17.5 kmh 29.91 in1012.9 mb 0.01 in0.3 mm 0.00 in0.0 mm 0.80 in20.3 mm
11:43 AM 64.0°F17.8°C 58.1°F14.5°C 81% 9.9 mph WSW15.9 kmh WSW 13.0 mph20.9 kmh 29.91 in1012.9 mb 0.01 in0.3 mm 0.00 in0.0 mm 0.80 in20.3 mm
11:44 AM 64.0°F17.8°C 58.1°F14.5°C 81% 10.4 mph W16.7 kmh W 13.0 mph20.9 kmh 29.91 in1012.9 mb 0.00 in0.0 mm 0.00 in0.0 mm 0.80 in20.3 mm
11:45 AM 64.0°F17.8°C 57.7°F14.3°C 80% 13.0 mph W20.9 kmh W 13.0 mph20.9 kmh 29.91 in1012.9 mb 0.00 in0.0 mm 0.00 in0.0 mm 0.80 in20.3 mm
11:46 AM 64.2°F17.9°C 58.3°F14.6°C 81% 9.9 mph W15.9 kmh W 13.0 mph20.9 kmh 29.91 in1012.9 mb 0.00 in0.0 mm 0.00 in0.0 mm 0.80 in20.3 mm
11:47 AM 64.2°F17.9°C 58.3°F14.6°C 81% 9.4 mph WSW15.1 kmh WSW 13.0 mph20.9 kmh 29.91 in1012.9 mb 0.00 in0.0 mm 0.00 in0.0 mm 0.80 in20.3 mm
11:48 AM 64.2°F17.9°C 58.3°F14.6°C 81% 9.9 mph WSW15.9 kmh WSW 13.0 mph20.9 kmh 29.91 in1012.9 mb 0.00 in0.0 mm 0.00 in0.0 mm 0.80 in20.3 mm
11:49 AM 64.0°F17.8°C 57.7°F14.3°C 80% 9.9 mph W15.9 kmh W 13.0 mph20.9 kmh 29.91 in1012.9 mb 0.00 in0.0 mm 0.00 in0.0 mm 0.80 in20.3 mm
11:50 AM 64.0°F17.8°C 57.4°F14.1°C 79% 9.9 mph WSW15.9 kmh WSW 13.0 mph20.9 kmh 29.91 in1012.9 mb 0.00 in0.0 mm 0.00 in0.0 mm 0.80 in20.3 mm
11:51 AM 64.0°F17.8°C 57.4°F14.1°C 79% 10.9 mph WSW17.5 kmh WSW 13.0 mph20.9 kmh 29.91 in1012.9 mb 0.00 in0.0 mm 0.00 in0.0 mm 0.80 in20.3 mm
11:52 AM 64.0°F17.8°C 57.0°F13.9°C 78% 10.9 mph W17.5 kmh W 13.0 mph20.9 kmh 29.90 in1012.5 mb 0.00 in0.0 mm 0.00 in0.0 mm 0.80 in20.3 mm
11:53 AM 64.4°F18.0°C 58.1°F14.5°C 80% 10.4 mph W16.7 kmh W 13.0 mph20.9 kmh 29.90 in1012.5 mb 0.00 in0.0 mm 0.00 in0.0 mm 0.80 in20.3 mm
11:54 AM 64.4°F18.0°C 58.1°F14.5°C 80% 7.8 mph WSW12.6 kmh WSW 13.0 mph20.9 kmh 29.90 in1012.5 mb 0.00 in0.0 mm 0.00 in0.0 mm 0.80 in20.3 mm
11:55 AM 64.2°F17.9°C 57.6°F14.2°C 79% 9.4 mph WSW15.1 kmh WSW 12.5 mph20.1 kmh 29.90 in1012.5 mb 0.00 in0.0 mm 0.00 in0.0 mm 0.80 in20.3 mm
11:56 AM 64.2°F17.9°C 57.2°F14.0°C 78% 10.9 mph WSW17.5 kmh WSW 13.5 mph21.7 kmh 29.90 in1012.5 mb 0.00 in0.0 mm 0.00 in0.0 mm 0.80 in20.3 mm
11:57 AM 64.2°F17.9°C 57.2°F14.0°C 78% 12.5 mph W20.1 kmh W 13.5 mph21.7 kmh 29.90 in1012.5 mb 0.00 in0.0 mm 0.00 in0.0 mm 0.80 in20.3 mm
11:58 AM 64.2°F17.9°C 56.9°F13.8°C 77% 12.5 mph W20.1 kmh W 14.5 mph23.3 kmh 29.90 in1012.5 mb 0.00 in0.0 mm 0.00 in0.0 mm 0.80 in20.3 mm
11:59 AM 64.2°F17.9°C 56.5°F13.6°C 76% 14.0 mph W22.5 kmh W 14.5 mph23.3 kmh 29.90 in1012.5 mb 0.00 in0.0 mm 0.00 in0.0 mm 0.80 in20.3 mm
12:00 PM 64.2°F17.9°C 56.1°F13.4°C 75% 12.0 mph W19.3 kmh W 14.5 mph23.3 kmh 29.90 in1012.5 mb 0.00 in0.0 mm 0.00 in0.0 mm 0.80 in20.3 mm
12:01 PM 64.2°F17.9°C 56.1°F13.4°C 75% 14.0 mph WSW22.5 kmh WSW 14.5 mph23.3 kmh 29.90 in1012.5 mb 0.00 in0.0 mm 0.00 in0.0 mm 0.80 in20.3 mm
12:02 PM 64.2°F17.9°C 56.1°F13.4°C 75% 10.9 mph SW17.5 kmh SW 14.5 mph23.3 kmh 29.90 in1012.5 mb 0.00 in0.0 mm 0.00 in0.0 mm 0.80 in20.3 mm
12:03 PM 64.2°F17.9°C 56.1°F13.4°C 75% 14.0 mph W22.5 kmh W 14.5 mph23.3 kmh 29.90 in1012.5 mb 0.00 in0.0 mm 0.00 in0.0 mm 0.80 in20.3 mm
12:04 PM 64.2°F17.9°C 56.1°F13.4°C 75% 10.9 mph WSW17.5 kmh WSW 14.5 mph23.3 kmh 29.90 in1012.5 mb 0.00 in0.0 mm 0.00 in0.0 mm 0.80 in20.3 mm
12:05 PM 64.0°F17.8°C 56.0°F13.3°C 75% 10.9 mph WSW17.5 kmh WSW 14.5 mph23.3 kmh 29.90 in1012.5 mb 0.00 in0.0 mm 0.00 in0.0 mm 0.80 in20.3 mm
12:06 PM 64.0°F17.8°C 56.0°F13.3°C 75% 12.0 mph W19.3 kmh W 14.5 mph23.3 kmh 29.90 in1012.5 mb 0.00 in0.0 mm 0.00 in0.0 mm 0.80 in20.3 mm
12:07 PM 64.4°F18.0°C 57.0°F13.9°C 77% 9.9 mph WSW15.9 kmh WSW 14.5 mph23.3 kmh 29.90 in1012.5 mb 0.00 in0.0 mm 0.00 in0.0 mm 0.80 in20.3 mm
12:08 PM 64.2°F17.9°C 56.5°F13.6°C 76% 14.0 mph W22.5 kmh W 14.0 mph22.5 kmh 29.90 in1012.5 mb 0.00 in0.0 mm 0.00 in0.0 mm 0.80 in20.3 mm
12:09 PM 64.2°F17.9°C 56.5°F13.6°C 76% 9.9 mph WSW15.9 kmh WSW 14.0 mph22.5 kmh 29.90 in1012.5 mb 0.00 in0.0 mm 0.00 in0.0 mm 0.80 in20.3 mm
12:10 PM 64.0°F17.8°C 56.0°F13.3°C 75% 12.5 mph SW20.1 kmh SW 14.0 mph22.5 kmh 29.90 in1012.5 mb 0.00 in0.0 mm 0.00 in0.0 mm 0.80 in20.3 mm
12:11 PM 64.0°F17.8°C 56.3°F13.5°C 76% 9.9 mph W15.9 kmh W 14.0 mph22.5 kmh 29.90 in1012.5 mb 0.00 in0.0 mm 0.00 in0.0 mm 0.80 in20.3 mm
12:12 PM 64.0°F17.8°C 56.7°F13.7°C 77% 10.4 mph SW16.7 kmh SW 14.0 mph22.5 kmh 29.90 in1012.5 mb 0.00 in0.0 mm 0.00 in0.0 mm 0.80 in20.3 mm
12:13 PM 64.0°F17.8°C 56.7°F13.7°C 77% 9.9 mph W15.9 kmh W 14.0 mph22.5 kmh 29.90 in1012.5 mb 0.00 in0.0 mm 0.00 in0.0 mm 0.80 in20.3 mm
12:14 PM 64.2°F17.9°C 57.2°F14.0°C 78% 15.0 mph W24.1 kmh W 15.0 mph24.1 kmh 29.90 in1012.5 mb 0.00 in0.0 mm 0.00 in0.0 mm 0.80 in20.3 mm
12:15 PM 64.2°F17.9°C 57.2°F14.0°C 78% 13.5 mph WSW21.7 kmh WSW 15.0 mph24.1 kmh 29.90 in1012.5 mb 0.00 in0.0 mm 0.00 in0.0 mm 0.80 in20.3 mm
12:16 PM 64.2°F17.9°C 57.2°F14.0°C 78% 11.4 mph W18.3 kmh W 15.0 mph24.1 kmh 29.89 in1012.2 mb 0.00 in0.0 mm 0.00 in0.0 mm 0.80 in20.3 mm
12:17 PM 64.2°F17.9°C 56.9°F13.8°C 77% 11.4 mph W18.3 kmh W 15.6 mph25.1 kmh 29.89 in1012.2 mb 0.00 in0.0 mm 0.00 in0.0 mm 0.80 in20.3 mm
12:18 PM 64.2°F17.9°C 56.9°F13.8°C 77% 12.0 mph W19.3 kmh W 15.6 mph25.1 kmh 29.89 in1012.2 mb 0.00 in0.0 mm 0.00 in0.0 mm 0.80 in20.3 mm
12:19 PM 64.2°F17.9°C 57.2°F14.0°C 78% 9.4 mph W15.1 kmh W 15.6 mph25.1 kmh 29.89 in1012.2 mb 0.00 in0.0 mm 0.00 in0.0 mm 0.80 in20.3 mm
12:20 PM 64.2°F17.9°C 57.2°F14.0°C 78% 13.0 mph W20.9 kmh W 15.6 mph25.1 kmh 29.89 in1012.2 mb 0.00 in0.0 mm 0.00 in0.0 mm 0.80 in20.3 mm
12:21 PM 64.2°F17.9°C 57.2°F14.0°C 78% 13.5 mph W21.7 kmh W 16.6 mph26.7 kmh 29.89 in1012.2 mb 0.00 in0.0 mm 0.00 in0.0 mm 0.80 in20.3 mm
12:22 PM 64.2°F17.9°C 57.2°F14.0°C 78% 11.4 mph W18.3 kmh W 16.6 mph26.7 kmh 29.89 in1012.2 mb 0.00 in0.0 mm 0.00 in0.0 mm 0.80 in20.3 mm
12:23 PM 64.4°F18.0°C 57.4°F14.1°C 78% 12.0 mph W19.3 kmh W 16.6 mph26.7 kmh 29.89 in1012.2 mb 0.00 in0.0 mm 0.00 in0.0 mm 0.80 in20.3 mm
12:24 PM 64.4°F18.0°C 57.4°F14.1°C 78% 13.5 mph W21.7 kmh W 16.6 mph26.7 kmh 29.89 in1012.2 mb 0.00 in0.0 mm 0.00 in0.0 mm 0.80 in20.3 mm
12:25 PM 64.4°F18.0°C 57.0°F13.9°C 77% 12.0 mph W19.3 kmh W 16.6 mph26.7 kmh 29.89 in1012.2 mb 0.00 in0.0 mm 0.00 in0.0 mm 0.80 in20.3 mm
12:26 PM 64.8°F18.2°C 58.1°F14.5°C 79% 11.4 mph WSW18.3 kmh WSW 16.6 mph26.7 kmh 29.89 in1012.2 mb 0.00 in0.0 mm 0.00 in0.0 mm 0.80 in20.3 mm
12:27 PM 64.6°F18.1°C 57.6°F14.2°C 78% 15.6 mph W25.1 kmh W 16.6 mph26.7 kmh 29.89 in1012.2 mb 0.00 in0.0 mm 0.00 in0.0 mm 0.80 in20.3 mm
12:28 PM 64.4°F18.0°C 57.0°F13.9°C 77% 15.0 mph W24.1 kmh W 16.6 mph26.7 kmh 29.89 in1012.2 mb 0.00 in0.0 mm 0.00 in0.0 mm 0.80 in20.3 mm
12:29 PM 64.4°F18.0°C 57.4°F14.1°C 78% 11.4 mph SW18.3 kmh SW 16.6 mph26.7 kmh 29.89 in1012.2 mb 0.00 in0.0 mm 0.00 in0.0 mm 0.80 in20.3 mm
12:30 PM 64.6°F18.1°C 57.6°F14.2°C 78% 13.0 mph WSW20.9 kmh WSW 16.6 mph26.7 kmh 29.89 in1012.2 mb 0.00 in0.0 mm 0.00 in0.0 mm 0.80 in20.3 mm
12:31 PM 64.4°F18.0°C 57.0°F13.9°C 77% 14.5 mph WSW23.3 kmh WSW 16.1 mph25.9 kmh 29.89 in1012.2 mb 0.00 in0.0 mm 0.00 in0.0 mm 0.80 in20.3 mm
12:32 PM 64.4°F18.0°C 57.0°F13.9°C 77% 16.6 mph W26.7 kmh W 16.6 mph26.7 kmh 29.89 in1012.2 mb 0.00 in0.0 mm 0.00 in0.0 mm 0.80 in20.3 mm
12:33 PM 64.4°F18.0°C 56.7°F13.7°C 76% 17.6 mph W28.3 kmh W 17.6 mph28.3 kmh 29.89 in1012.2 mb 0.00 in0.0 mm 0.00 in0.0 mm 0.80 in20.3 mm
12:34 PM 64.4°F18.0°C 57.0°F13.9°C 77% 15.0 mph WSW24.1 kmh WSW 17.6 mph28.3 kmh 29.89 in1012.2 mb 0.00 in0.0 mm 0.00 in0.0 mm 0.80 in20.3 mm
12:35 PM 64.2°F17.9°C 56.5°F13.6°C 76% 15.6 mph W25.1 kmh W 18.6 mph29.9 kmh 29.89 in1012.2 mb 0.00 in0.0 mm 0.00 in0.0 mm 0.80 in20.3 mm
12:36 PM 64.2°F17.9°C 56.5°F13.6°C 76% 13.0 mph W20.9 kmh W 18.6 mph29.9 kmh 29.89 in1012.2 mb 0.00 in0.0 mm 0.00 in0.0 mm 0.80 in20.3 mm
12:37 PM 64.2°F17.9°C 56.5°F13.6°C 76% 16.1 mph W25.9 kmh W 18.6 mph29.9 kmh 29.89 in1012.2 mb 0.00 in0.0 mm 0.00 in0.0 mm 0.80 in20.3 mm
12:38 PM 64.4°F18.0°C 57.0°F13.9°C 77% 16.6 mph W26.7 kmh W 18.6 mph29.9 kmh 29.89 in1012.2 mb 0.00 in0.0 mm 0.00 in0.0 mm 0.80 in20.3 mm
12:39 PM 64.4°F18.0°C 57.0°F13.9°C 77% 12.0 mph W19.3 kmh W 18.6 mph29.9 kmh 29.89 in1012.2 mb 0.00 in0.0 mm 0.00 in0.0 mm 0.80 in20.3 mm
12:40 PM 64.4°F18.0°C 57.0°F13.9°C 77% 14.5 mph W23.3 kmh W 18.6 mph29.9 kmh 29.89 in1012.2 mb 0.00 in0.0 mm 0.00 in0.0 mm 0.80 in20.3 mm
12:41 PM 64.2°F17.9°C 56.5°F13.6°C 76% 13.5 mph W21.7 kmh W 18.6 mph29.9 kmh 29.89 in1012.2 mb 0.00 in0.0 mm 0.00 in0.0 mm 0.80 in20.3 mm
12:42 PM 64.2°F17.9°C 56.9°F13.8°C 77% 16.6 mph WSW26.7 kmh WSW 18.6 mph29.9 kmh 29.89 in1012.2 mb 0.00 in0.0 mm 0.00 in0.0 mm 0.80 in20.3 mm
12:43 PM 64.2°F17.9°C 56.9°F13.8°C 77% 15.0 mph W24.1 kmh W 18.6 mph29.9 kmh 29.89 in1012.2 mb 0.00 in0.0 mm 0.00 in0.0 mm 0.80 in20.3 mm
12:44 PM 64.2°F17.9°C 57.2°F14.0°C 78% 14.0 mph W22.5 kmh W 18.6 mph29.9 kmh 29.89 in1012.2 mb 0.00 in0.0 mm 0.00 in0.0 mm 0.80 in20.3 mm
12:45 PM 64.2°F17.9°C 57.2°F14.0°C 78% 16.1 mph W25.9 kmh W 18.1 mph29.1 kmh 29.89 in1012.2 mb 0.00 in0.0 mm 0.00 in0.0 mm 0.80 in20.3 mm
12:46 PM 64.2°F17.9°C 57.2°F14.0°C 78% 12.0 mph W19.3 kmh W 17.1 mph27.5 kmh 29.89 in1012.2 mb 0.00 in0.0 mm 0.00 in0.0 mm 0.80 in20.3 mm
12:47 PM 64.2°F17.9°C 56.9°F13.8°C 77% 12.0 mph W19.3 kmh W 17.1 mph27.5 kmh 29.89 in1012.2 mb 0.00 in0.0 mm 0.00 in0.0 mm 0.80 in20.3 mm
12:48 PM 64.2°F17.9°C 57.2°F14.0°C 78% 12.5 mph WSW20.1 kmh WSW 16.6 mph26.7 kmh 29.89 in1012.2 mb 0.00 in0.0 mm 0.00 in0.0 mm 0.80 in20.3 mm
12:49 PM 64.2°F17.9°C 57.6°F14.2°C 79% 11.4 mph W18.3 kmh W 16.6 mph26.7 kmh 29.89 in1012.2 mb 0.00 in0.0 mm 0.00 in0.0 mm 0.80 in20.3 mm
12:50 PM 64.2°F17.9°C 57.2°F14.0°C 78% 14.5 mph W23.3 kmh W 16.6 mph26.7 kmh 29.89 in1012.2 mb 0.00 in0.0 mm 0.00 in0.0 mm 0.80 in20.3 mm
12:51 PM 64.2°F17.9°C 57.2°F14.0°C 78% 14.0 mph W22.5 kmh W 16.6 mph26.7 kmh 29.89 in1012.2 mb 0.00 in0.0 mm 0.00 in0.0 mm 0.80 in20.3 mm
12:52 PM 64.2°F17.9°C 57.6°F14.2°C 79% 12.5 mph W20.1 kmh W 16.6 mph26.7 kmh 29.88 in1011.9 mb 0.00 in0.0 mm 0.00 in0.0 mm 0.80 in20.3 mm
12:53 PM 64.2°F17.9°C 57.9°F14.4°C 80% 12.5 mph W20.1 kmh W 16.1 mph25.9 kmh 29.88 in1011.9 mb 0.00 in0.0 mm 0.00 in0.0 mm 0.80 in20.3 mm
12:54 PM 64.2°F17.9°C 57.9°F14.4°C 80% 13.5 mph W21.7 kmh W 16.1 mph25.9 kmh 29.88 in1011.9 mb 0.00 in0.0 mm 0.00 in0.0 mm 0.80 in20.3 mm
12:55 PM 64.2°F17.9°C 57.6°F14.2°C 79% 11.4 mph SW18.3 kmh SW 16.1 mph25.9 kmh 29.88 in1011.9 mb 0.00 in0.0 mm 0.00 in0.0 mm 0.80 in20.3 mm
12:56 PM 64.2°F17.9°C 57.2°F14.0°C 78% 10.4 mph WSW16.7 kmh WSW 16.1 mph25.9 kmh 29.88 in1011.9 mb 0.00 in0.0 mm 0.00 in0.0 mm 0.80 in20.3 mm
12:57 PM 64.2°F17.9°C 56.9°F13.8°C 77% 12.5 mph SW20.1 kmh SW 16.1 mph25.9 kmh 29.88 in1011.9 mb 0.00 in0.0 mm 0.00 in0.0 mm 0.80 in20.3 mm
12:58 PM 64.4°F18.0°C 57.4°F14.1°C 78% 11.4 mph W18.3 kmh W 16.1 mph25.9 kmh 29.88 in1011.9 mb 0.00 in0.0 mm 0.00 in0.0 mm 0.80 in20.3 mm
12:59 PM 64.2°F17.9°C 56.9°F13.8°C 77% 14.0 mph W22.5 kmh W 16.1 mph25.9 kmh 29.88 in1011.9 mb 0.00 in0.0 mm 0.00 in0.0 mm 0.80 in20.3 mm
01:00 PM 64.2°F17.9°C 56.9°F13.8°C 77% 16.6 mph WSW26.7 kmh WSW 16.6 mph26.7 kmh 29.88 in1011.9 mb 0.00 in0.0 mm 0.00 in0.0 mm 0.80 in20.3 mm
01:01 PM 64.4°F18.0°C 57.4°F14.1°C 78% 12.5 mph W20.1 kmh W 16.6 mph26.7 kmh 29.88 in1011.9 mb 0.00 in0.0 mm 0.00 in0.0 mm 0.80 in20.3 mm
01:02 PM 64.2°F17.9°C 56.9°F13.8°C 77% 17.1 mph W27.5 kmh W 17.1 mph27.5 kmh 29.88 in1011.9 mb 0.00 in0.0 mm 0.00 in0.0 mm 0.80 in20.3 mm
01:03 PM 64.0°F17.8°C 56.0°F13.3°C 75% 14.5 mph WSW23.3 kmh WSW 19.1 mph30.7 kmh 29.88 in1011.9 mb 0.00 in0.0 mm 0.00 in0.0 mm 0.80 in20.3 mm
01:04 PM 64.2°F17.9°C 56.5°F13.6°C 76% 18.6 mph W29.9 kmh W 19.1 mph30.7 kmh 29.88 in1011.9 mb 0.00 in0.0 mm 0.00 in0.0 mm 0.80 in20.3 mm
01:05 PM 64.2°F17.9°C 56.5°F13.6°C 76% 16.1 mph W25.9 kmh W 19.1 mph30.7 kmh 29.87 in1011.5 mb 0.00 in0.0 mm 0.00 in0.0 mm 0.80 in20.3 mm
01:06 PM 64.2°F17.9°C 56.1°F13.4°C 75% 17.1 mph W27.5 kmh W 19.1 mph30.7 kmh 29.87 in1011.5 mb 0.00 in0.0 mm 0.00 in0.0 mm 0.80 in20.3 mm
01:07 PM 64.2°F17.9°C 56.1°F13.4°C 75% 16.6 mph W26.7 kmh W 19.1 mph30.7 kmh 29.87 in1011.5 mb 0.00 in0.0 mm 0.00 in0.0 mm 0.80 in20.3 mm
01:08 PM 64.2°F17.9°C 55.8°F13.2°C 74% 20.7 mph W33.3 kmh W 20.7 mph33.3 kmh 29.87 in1011.5 mb 0.00 in0.0 mm 0.00 in0.0 mm 0.80 in20.3 mm
01:09 PM 64.0°F17.8°C 55.2°F12.9°C 73% 16.6 mph W26.7 kmh W 20.7 mph33.3 kmh 29.87 in1011.5 mb 0.00 in0.0 mm 0.00 in0.0 mm 0.80 in20.3 mm
01:10 PM 64.2°F17.9°C 55.8°F13.2°C 74% 15.6 mph W25.1 kmh W 20.7 mph33.3 kmh 29.87 in1011.5 mb 0.00 in0.0 mm 0.00 in0.0 mm 0.80 in20.3 mm
01:11 PM 64.2°F17.9°C 56.1°F13.4°C 75% 14.5 mph W23.3 kmh W 20.7 mph33.3 kmh 29.87 in1011.5 mb 0.00 in0.0 mm 0.00 in0.0 mm 0.80 in20.3 mm
01:12 PM 64.2°F17.9°C 56.1°F13.4°C 75% 16.1 mph W25.9 kmh W 20.7 mph33.3 kmh 29.87 in1011.5 mb 0.00 in0.0 mm 0.00 in0.0 mm 0.80 in20.3 mm
01:13 PM 64.2°F17.9°C 55.8°F13.2°C 74% 17.6 mph W28.3 kmh W 20.7 mph33.3 kmh 29.87 in1011.5 mb 0.00 in0.0 mm 0.00 in0.0 mm 0.80 in20.3 mm
01:14 PM 64.2°F17.9°C 56.1°F13.4°C 75% 15.0 mph W24.1 kmh W 20.7 mph33.3 kmh 29.87 in1011.5 mb 0.00 in0.0 mm 0.00 in0.0 mm 0.80 in20.3 mm
01:15 PM 64.0°F17.8°C 56.0°F13.3°C 75% 22.2 mph W35.7 kmh W 22.2 mph35.7 kmh 29.87 in1011.5 mb 0.00 in0.0 mm 0.00 in0.0 mm 0.80 in20.3 mm
01:16 PM 64.0°F17.8°C 55.6°F13.1°C 74% 16.6 mph W26.7 kmh W 22.2 mph35.7 kmh 29.87 in1011.5 mb 0.00 in0.0 mm 0.00 in0.0 mm 0.80 in20.3 mm
01:17 PM 64.0°F17.8°C 56.0°F13.3°C 75% 19.7 mph W31.7 kmh W 22.2 mph35.7 kmh 29.87 in1011.5 mb 0.00 in0.0 mm 0.00 in0.0 mm 0.80 in20.3 mm
01:18 PM 63.9°F17.7°C 55.4°F13.0°C 74% 18.6 mph W29.9 kmh W 22.2 mph35.7 kmh 29.87 in1011.5 mb 0.00 in0.0 mm 0.00 in0.0 mm 0.80 in20.3 mm
01:19 PM 63.7°F17.6°C 55.2°F12.9°C 74% 17.1 mph W27.5 kmh W 22.2 mph35.7 kmh 29.87 in1011.5 mb 0.00 in0.0 mm 0.00 in0.0 mm 0.80 in20.3 mm
01:20 PM 63.7°F17.6°C 55.6°F13.1°C 75% 19.7 mph W31.7 kmh W 22.2 mph35.7 kmh 29.87 in1011.5 mb 0.00 in0.0 mm 0.00 in0.0 mm 0.80 in20.3 mm
01:21 PM 63.7°F17.6°C 55.2°F12.9°C 74% 19.7 mph W31.7 kmh W 22.8 mph36.7 kmh 29.87 in1011.5 mb 0.00 in0.0 mm 0.00 in0.0 mm 0.80 in20.3 mm
01:22 PM 63.7°F17.6°C 55.2°F12.9°C 74% 16.6 mph W26.7 kmh W 22.8 mph36.7 kmh 29.87 in1011.5 mb 0.00 in0.0 mm 0.00 in0.0 mm 0.80 in20.3 mm
01:23 PM 63.7°F17.6°C 55.2°F12.9°C 74% 16.1 mph WSW25.9 kmh WSW 22.8 mph36.7 kmh 29.87 in1011.5 mb 0.00 in0.0 mm 0.00 in0.0 mm 0.80 in20.3 mm
01:24 PM 63.5°F17.5°C 55.1°F12.8°C 74% 16.6 mph WSW26.7 kmh WSW 22.8 mph36.7 kmh 29.87 in1011.5 mb 0.00 in0.0 mm 0.00 in0.0 mm 0.80 in20.3 mm
01:25 PM 63.5°F17.5°C 55.4°F13.0°C 75% 20.2 mph W32.5 kmh W 23.8 mph38.3 kmh 29.87 in1011.5 mb 0.00 in0.0 mm 0.00 in0.0 mm 0.80 in20.3 mm
01:26 PM 63.3°F17.4°C 54.9°F12.7°C 74% 15.6 mph W25.1 kmh W 23.8 mph38.3 kmh 29.87 in1011.5 mb 0.00 in0.0 mm 0.00 in0.0 mm 0.80 in20.3 mm
01:27 PM 63.3°F17.4°C 55.3°F12.9°C 75% 20.2 mph W32.5 kmh W 23.8 mph38.3 kmh 29.87 in1011.5 mb 0.00 in0.0 mm 0.00 in0.0 mm 0.80 in20.3 mm
01:28 PM 63.1°F17.3°C 54.7°F12.6°C 74% 20.2 mph W32.5 kmh W 23.8 mph38.3 kmh 29.87 in1011.5 mb 0.00 in0.0 mm 0.00 in0.0 mm 0.80 in20.3 mm
01:29 PM 63.1°F17.3°C 54.7°F12.6°C 74% 19.7 mph W31.7 kmh W 23.8 mph38.3 kmh 29.87 in1011.5 mb 0.00 in0.0 mm 0.00 in0.0 mm 0.80 in20.3 mm
01:30 PM 63.1°F17.3°C 54.7°F12.6°C 74% 17.1 mph W27.5 kmh W 23.8 mph38.3 kmh 29.87 in1011.5 mb 0.01 in0.3 mm 0.60 in15.2 mm 0.81 in20.6 mm
01:31 PM 63.1°F17.3°C 54.7°F12.6°C 74% 18.1 mph W29.1 kmh W 23.8 mph38.3 kmh 29.87 in1011.5 mb 0.01 in0.3 mm 0.00 in0.0 mm 0.81 in20.6 mm
01:32 PM 63.3°F17.4°C 55.6°F13.1°C 76% 15.6 mph W25.1 kmh W 23.8 mph38.3 kmh 29.87 in1011.5 mb 0.01 in0.3 mm 0.00 in0.0 mm 0.81 in20.6 mm
01:33 PM 63.3°F17.4°C 55.6°F13.1°C 76% 18.6 mph W29.9 kmh W 23.8 mph38.3 kmh 29.87 in1011.5 mb 0.01 in0.3 mm 0.00 in0.0 mm 0.81 in20.6 mm
01:34 PM 63.3°F17.4°C 54.5°F12.5°C 73% 16.6 mph W26.7 kmh W 23.8 mph38.3 kmh 29.87 in1011.5 mb 0.01 in0.3 mm 0.00 in0.0 mm 0.81 in20.6 mm
01:35 PM 63.1°F17.3°C 53.6°F12.0°C 71% 18.6 mph W29.9 kmh W 22.2 mph35.7 kmh 29.87 in1011.5 mb 0.01 in0.3 mm 0.00 in0.0 mm 0.81 in20.6 mm
01:36 PM 63.1°F17.3°C 52.8°F11.6°C 69% 19.2 mph W30.9 kmh W 22.2 mph35.7 kmh 29.87 in1011.5 mb 0.01 in0.3 mm 0.00 in0.0 mm 0.81 in20.6 mm
01:37 PM 63.1°F17.3°C 52.4°F11.3°C 68% 16.6 mph W26.7 kmh W 22.2 mph35.7 kmh 29.87 in1011.5 mb 0.01 in0.3 mm 0.00 in0.0 mm 0.81 in20.6 mm
01:38 PM 63.1°F17.3°C 52.4°F11.3°C 68% 18.1 mph W29.1 kmh W 22.8 mph36.7 kmh 29.87 in1011.5 mb 0.01 in0.3 mm 0.00 in0.0 mm 0.81 in20.6 mm
01:39 PM 63.1°F17.3°C 52.8°F11.6°C 69% 19.7 mph W31.7 kmh W 22.8 mph36.7 kmh 29.87 in1011.5 mb 0.01 in0.3 mm 0.00 in0.0 mm 0.81 in20.6 mm
01:40 PM 63.1°F17.3°C 52.4°F11.3°C 68% 16.6 mph W26.7 kmh W 22.8 mph36.7 kmh 29.87 in1011.5 mb 0.01 in0.3 mm 0.00 in0.0 mm 0.81 in20.6 mm
01:41 PM 63.1°F17.3°C 52.4°F11.3°C 68% 18.1 mph W29.1 kmh W 22.8 mph36.7 kmh 29.87 in1011.5 mb 0.01 in0.3 mm 0.00 in0.0 mm 0.81 in20.6 mm
01:42 PM 63.1°F17.3°C 52.4°F11.3°C 68% 18.1 mph W29.1 kmh W 22.8 mph36.7 kmh 29.87 in1011.5 mb 0.01 in0.3 mm 0.00 in0.0 mm 0.81 in20.6 mm
01:43 PM 63.1°F17.3°C 52.4°F11.3°C 68% 20.2 mph W32.5 kmh W 22.8 mph36.7 kmh 29.87 in1011.5 mb 0.01 in0.3 mm 0.00 in0.0 mm 0.81 in20.6 mm
01:44 PM 63.1°F17.3°C 52.4°F11.3°C 68% 19.7 mph W31.7 kmh W 22.8 mph36.7 kmh 29.87 in1011.5 mb 0.01 in0.3 mm 0.00 in0.0 mm 0.81 in20.6 mm
01:45 PM 63.1°F17.3°C 52.4°F11.3°C 68% 19.2 mph W30.9 kmh W 22.8 mph36.7 kmh 29.87 in1011.5 mb 0.01 in0.3 mm 0.00 in0.0 mm 0.81 in20.6 mm
01:46 PM 63.1°F17.3°C 52.8°F11.6°C 69% 17.6 mph W28.3 kmh W 22.8 mph36.7 kmh 29.87 in1011.5 mb 0.01 in0.3 mm 0.00 in0.0 mm 0.81 in20.6 mm
01:47 PM 63.1°F17.3°C 52.8°F11.6°C 69% 16.1 mph W25.9 kmh W 22.8 mph36.7 kmh 29.87 in1011.5 mb 0.01 in0.3 mm 0.00 in0.0 mm 0.81 in20.6 mm
01:48 PM 63.1°F17.3°C 51.2°F10.7°C 65% 15.6 mph W25.1 kmh W 21.2 mph34.1 kmh 29.87 in1011.5 mb 0.01 in0.3 mm 0.00 in0.0 mm 0.81 in20.6 mm
01:49 PM 63.1°F17.3°C 51.2°F10.7°C 65% 17.1 mph W27.5 kmh W 21.2 mph34.1 kmh 29.87 in1011.5 mb 0.01 in0.3 mm 0.00 in0.0 mm 0.81 in20.6 mm
01:50 PM 63.1°F17.3°C 50.8°F10.4°C 64% 18.1 mph W29.1 kmh W 21.2 mph34.1 kmh 29.87 in1011.5 mb 0.01 in0.3 mm 0.00 in0.0 mm 0.81 in20.6 mm
01:51 PM 63.1°F17.3°C 50.3°F10.2°C 63% 20.7 mph W33.3 kmh W 21.7 mph34.9 kmh 29.87 in1011.5 mb 0.01 in0.3 mm 0.00 in0.0 mm 0.81 in20.6 mm
01:52 PM 63.1°F17.3°C 50.3°F10.2°C 63% 17.1 mph W27.5 kmh W 21.7 mph34.9 kmh 29.87 in1011.5 mb 0.01 in0.3 mm 0.00 in0.0 mm 0.81 in20.6 mm
01:53 PM 63.1°F17.3°C 49.9°F9.9°C 62% 18.6 mph W29.9 kmh W 21.7 mph34.9 kmh 29.87 in1011.5 mb 0.01 in0.3 mm 0.00 in0.0 mm 0.81 in20.6 mm
01:54 PM 63.1°F17.3°C 49.9°F9.9°C 62% 20.2 mph W32.5 kmh W 21.7 mph34.9 kmh 29.87 in1011.5 mb 0.01 in0.3 mm 0.00 in0.0 mm 0.81 in20.6 mm
01:55 PM 63.3°F17.4°C 50.9°F10.5°C 64% 19.7 mph W31.7 kmh W 21.7 mph34.9 kmh 29.87 in1011.5 mb 0.01 in0.3 mm 0.00 in0.0 mm 0.81 in20.6 mm
01:56 PM 63.3°F17.4°C 50.9°F10.5°C 64% 20.2 mph W32.5 kmh W 21.7 mph34.9 kmh 29.87 in1011.5 mb 0.01 in0.3 mm 0.00 in0.0 mm 0.81 in20.6 mm
01:57 PM 63.3°F17.4°C 50.5°F10.3°C 63% 15.6 mph W25.1 kmh W 21.7 mph34.9 kmh 29.87 in1011.5 mb 0.01 in0.3 mm 0.00 in0.0 mm 0.81 in20.6 mm
01:58 PM 63.3°F17.4°C 50.5°F10.3°C 63% 15.0 mph W24.1 kmh W 21.7 mph34.9 kmh 29.87 in1011.5 mb 0.01 in0.3 mm 0.00 in0.0 mm 0.81 in20.6 mm
01:59 PM 63.3°F17.4°C 50.9°F10.5°C 64% 14.0 mph W22.5 kmh W 21.7 mph34.9 kmh 29.87 in1011.5 mb 0.01 in0.3 mm 0.00 in0.0 mm 0.81 in20.6 mm
02:00 PM 63.3°F17.4°C 50.9°F10.5°C 64% 18.6 mph W29.9 kmh W 21.7 mph34.9 kmh 29.87 in1011.5 mb 0.01 in0.3 mm 0.00 in0.0 mm 0.81 in20.6 mm
02:01 PM 63.3°F17.4°C 51.3°F10.7°C 65% 18.1 mph W29.1 kmh W 20.7 mph33.3 kmh 29.87 in1011.5 mb 0.01 in0.3 mm 0.00 in0.0 mm 0.81 in20.6 mm
02:02 PM 63.3°F17.4°C 52.2°F11.2°C 67% 15.6 mph W25.1 kmh W 20.2 mph32.5 kmh 29.87 in1011.5 mb 0.01 in0.3 mm 0.00 in0.0 mm 0.81 in20.6 mm
02:03 PM 63.3°F17.4°C 52.6°F11.4°C 68% 14.0 mph WSW22.5 kmh WSW 20.2 mph32.5 kmh 29.87 in1011.5 mb 0.01 in0.3 mm 0.00 in0.0 mm 0.81 in20.6 mm
02:04 PM 63.3°F17.4°C 52.6°F11.4°C 68% 14.0 mph W22.5 kmh W 20.2 mph32.5 kmh 29.87 in1011.5 mb 0.01 in0.3 mm 0.00 in0.0 mm 0.81 in20.6 mm
02:05 PM 63.3°F17.4°C 53.0°F11.7°C 69% 13.5 mph W21.7 kmh W 20.2 mph32.5 kmh 29.87 in1011.5 mb 0.01 in0.3 mm 0.00 in0.0 mm 0.81 in20.6 mm
02:06 PM 63.3°F17.4°C 52.6°F11.4°C 68% 16.6 mph W26.7 kmh W 18.6 mph29.9 kmh 29.87 in1011.5 mb 0.01 in0.3 mm 0.00 in0.0 mm 0.81 in20.6 mm
02:07 PM 63.3°F17.4°C 52.2°F11.2°C 67% 16.6 mph W26.7 kmh W 18.6 mph29.9 kmh 29.87 in1011.5 mb 0.01 in0.3 mm 0.00 in0.0 mm 0.81 in20.6 mm
02:08 PM 63.3°F17.4°C 52.6°F11.4°C 68% 15.6 mph W25.1 kmh W 18.6 mph29.9 kmh 29.87 in1011.5 mb 0.01 in0.3 mm 0.00 in0.0 mm 0.81 in20.6 mm
02:09 PM 63.3°F17.4°C 53.0°F11.7°C 69% 10.4 mph W16.7 kmh W 18.6 mph29.9 kmh 29.87 in1011.5 mb 0.01 in0.3 mm 0.00 in0.0 mm 0.81 in20.6 mm
02:10 PM 63.3°F17.4°C 53.0°F11.7°C 69% 13.0 mph W20.9 kmh W 18.1 mph29.1 kmh 29.87 in1011.5 mb 0.01 in0.3 mm 0.00 in0.0 mm 0.81 in20.6 mm
02:11 PM 63.5°F17.5°C 53.5°F11.9°C 70% 13.0 mph W20.9 kmh W 18.1 mph29.1 kmh 29.87 in1011.5 mb 0.01 in0.3 mm 0.00 in0.0 mm 0.81 in20.6 mm
02:12 PM 63.5°F17.5°C 53.1°F11.7°C 69% 14.0 mph WSW22.5 kmh WSW 16.6 mph26.7 kmh 29.87 in1011.5 mb 0.01 in0.3 mm 0.00 in0.0 mm 0.81 in20.6 mm
02:13 PM 63.5°F17.5°C 51.9°F11.1°C 66% 14.5 mph WSW23.3 kmh WSW 16.6 mph26.7 kmh 29.87 in1011.5 mb 0.01 in0.3 mm 0.00 in0.0 mm 0.81 in20.6 mm
02:14 PM 63.7°F17.6°C 52.5°F11.4°C 67% 15.0 mph W24.1 kmh W 16.6 mph26.7 kmh 29.87 in1011.5 mb 0.01 in0.3 mm 0.00 in0.0 mm 0.81 in20.6 mm
02:15 PM 63.9°F17.7°C 52.3°F11.3°C 66% 14.5 mph SW23.3 kmh SW 16.6 mph26.7 kmh 29.87 in1011.5 mb 0.01 in0.3 mm 0.00 in0.0 mm 0.81 in20.6 mm
02:16 PM 63.9°F17.7°C 51.9°F11.1°C 65% 15.6 mph W25.1 kmh W 17.6 mph28.3 kmh 29.87 in1011.5 mb 0.02 in0.5 mm 0.60 in15.2 mm 0.82 in20.8 mm
02:17 PM 63.9°F17.7°C 52.3°F11.3°C 66% 12.0 mph WSW19.3 kmh WSW 17.6 mph28.3 kmh 29.87 in1011.5 mb 0.02 in0.5 mm 0.00 in0.0 mm 0.82 in20.8 mm
02:18 PM 63.9°F17.7°C 52.3°F11.3°C 66% 14.0 mph W22.5 kmh W 17.6 mph28.3 kmh 29.87 in1011.5 mb 0.02 in0.5 mm 0.00 in0.0 mm 0.82 in20.8 mm
02:19 PM 63.9°F17.7°C 52.7°F11.5°C 67% 12.5 mph W20.1 kmh W 17.6 mph28.3 kmh 29.87 in1011.5 mb 0.02 in0.5 mm 0.00 in0.0 mm 0.82 in20.8 mm
02:20 PM 63.9°F17.7°C 51.9°F11.1°C 65% 16.1 mph W25.9 kmh W 17.6 mph28.3 kmh 29.87 in1011.5 mb 0.02 in0.5 mm 0.00 in0.0 mm 0.82 in20.8 mm
02:21 PM 63.9°F17.7°C 52.3°F11.3°C 66% 15.6 mph W25.1 kmh W 17.6 mph28.3 kmh 29.87 in1011.5 mb 0.02 in0.5 mm 0.00 in0.0 mm 0.82 in20.8 mm
02:22 PM 63.9°F17.7°C 51.4°F10.8°C 64% 18.1 mph W29.1 kmh W 18.1 mph29.1 kmh 29.87 in1011.5 mb 0.02 in0.5 mm 0.00 in0.0 mm 0.82 in20.8 mm
02:23 PM 63.9°F17.7°C 51.0°F10.6°C 63% 16.6 mph W26.7 kmh W 18.6 mph29.9 kmh 29.87 in1011.5 mb 0.02 in0.5 mm 0.00 in0.0 mm 0.82 in20.8 mm
02:24 PM 63.9°F17.7°C 50.6°F10.3°C 62% 17.6 mph WSW28.3 kmh WSW 18.6 mph29.9 kmh 29.87 in1011.5 mb 0.02 in0.5 mm 0.00 in0.0 mm 0.82 in20.8 mm
02:25 PM 64.0°F17.8°C 50.8°F10.4°C 62% 16.6 mph WSW26.7 kmh WSW 18.6 mph29.9 kmh 29.87 in1011.5 mb 0.02 in0.5 mm 0.00 in0.0 mm 0.82 in20.8 mm
02:26 PM 64.0°F17.8°C 50.8°F10.4°C 62% 18.6 mph W29.9 kmh W 18.6 mph29.9 kmh 29.87 in1011.5 mb 0.02 in0.5 mm 0.00 in0.0 mm 0.82 in20.8 mm
02:27 PM 63.9°F17.7°C 51.4°F10.8°C 64% 17.1 mph WSW27.5 kmh WSW 18.6 mph29.9 kmh 29.87 in1011.5 mb 0.02 in0.5 mm 0.00 in0.0 mm 0.82 in20.8 mm
02:28 PM 63.9°F17.7°C 51.0°F10.6°C 63% 18.1 mph W29.1 kmh W 18.6 mph29.9 kmh 29.87 in1011.5 mb 0.02 in0.5 mm 0.00 in0.0 mm 0.82 in20.8 mm
02:29 PM 63.9°F17.7°C 51.9°F11.1°C 65% 14.5 mph W23.3 kmh W 18.6 mph29.9 kmh 29.87 in1011.5 mb 0.02 in0.5 mm 0.00 in0.0 mm 0.82 in20.8 mm
02:30 PM 63.9°F17.7°C 51.4°F10.8°C 64% 14.0 mph W22.5 kmh W 18.6 mph29.9 kmh 29.87 in1011.5 mb 0.01 in0.3 mm 0.00 in0.0 mm 0.82 in20.8 mm
02:31 PM 63.9°F17.7°C 51.4°F10.8°C 64% 16.1 mph W25.9 kmh W 18.6 mph29.9 kmh 29.87 in1011.5 mb 0.01 in0.3 mm 0.00 in0.0 mm 0.82 in20.8 mm
02:32 PM 63.9°F17.7°C 51.0°F10.6°C 63% 17.1 mph W27.5 kmh W 20.2 mph32.5 kmh 29.87 in1011.5 mb 0.01 in0.3 mm 0.00 in0.0 mm 0.82 in20.8 mm
02:33 PM 63.9°F17.7°C 51.4°F10.8°C 64% 12.0 mph W19.3 kmh W 20.2 mph32.5 kmh 29.87 in1011.5 mb 0.01 in0.3 mm 0.00 in0.0 mm 0.82 in20.8 mm
02:34 PM 63.9°F17.7°C 51.4°F10.8°C 64% 14.5 mph WSW23.3 kmh WSW 20.2 mph32.5 kmh 29.87 in1011.5 mb 0.01 in0.3 mm 0.00 in0.0 mm 0.82 in20.8 mm
02:35 PM 63.9°F17.7°C 51.0°F10.6°C 63% 16.1 mph WSW25.9 kmh WSW 20.2 mph32.5 kmh 29.87 in1011.5 mb 0.01 in0.3 mm 0.00 in0.0 mm 0.82 in20.8 mm
02:36 PM 63.9°F17.7°C 51.0°F10.6°C 63% 18.6 mph W29.9 kmh W 20.2 mph32.5 kmh 29.87 in1011.5 mb 0.01 in0.3 mm 0.00 in0.0 mm 0.82 in20.8 mm
02:37 PM 63.9°F17.7°C 51.4°F10.8°C 64% 12.5 mph W20.1 kmh W 20.2 mph32.5 kmh 29.87 in1011.5 mb 0.01 in0.3 mm 0.00 in0.0 mm 0.82 in20.8 mm
02:38 PM 63.9°F17.7°C 50.6°F10.3°C 62% 19.2 mph W30.9 kmh W 20.2 mph32.5 kmh 29.87 in1011.5 mb 0.01 in0.3 mm 0.00 in0.0 mm 0.82 in20.8 mm
02:39 PM 63.7°F17.6°C 49.5°F9.7°C 60% 16.6 mph SW26.7 kmh SW 20.2 mph32.5 kmh 29.87 in1011.5 mb 0.01 in0.3 mm 0.00 in0.0 mm 0.82 in20.8 mm
02:40 PM 63.7°F17.6°C 50.0°F10.0°C 61% 14.0 mph WSW22.5 kmh WSW 20.2 mph32.5 kmh 29.87 in1011.5 mb 0.01 in0.3 mm 0.00 in0.0 mm 0.82 in20.8 mm
02:41 PM 63.7°F17.6°C 50.0°F10.0°C 61% 15.0 mph W24.1 kmh W 20.2 mph32.5 kmh 29.87 in1011.5 mb 0.01 in0.3 mm 0.00 in0.0 mm 0.82 in20.8 mm
02:42 PM 63.7°F17.6°C 50.0°F10.0°C 61% 14.5 mph WSW23.3 kmh WSW 19.7 mph31.7 kmh 29.87 in1011.5 mb 0.01 in0.3 mm 0.00 in0.0 mm 0.82 in20.8 mm
02:43 PM 63.5°F17.5°C 49.4°F9.7°C 60% 14.5 mph W23.3 kmh W 19.7 mph31.7 kmh 29.87 in1011.5 mb 0.01 in0.3 mm 0.00 in0.0 mm 0.82 in20.8 mm
02:44 PM 63.5°F17.5°C 49.8°F9.9°C 61% 12.5 mph W20.1 kmh W 19.7 mph31.7 kmh 29.87 in1011.5 mb 0.01 in0.3 mm 0.00 in0.0 mm 0.82 in20.8 mm
02:45 PM 63.5°F17.5°C 50.7°F10.4°C 63% 12.5 mph WSW20.1 kmh WSW 19.7 mph31.7 kmh 29.87 in1011.5 mb 0.01 in0.3 mm 0.00 in0.0 mm 0.82 in20.8 mm
02:46 PM 63.7°F17.6°C 51.3°F10.7°C 64% 11.4 mph WSW18.3 kmh WSW 19.7 mph31.7 kmh 29.87 in1011.5 mb 0.01 in0.3 mm 0.00 in0.0 mm 0.82 in20.8 mm
02:47 PM 63.7°F17.6°C 50.8°F10.4°C 63% 14.5 mph WSW23.3 kmh WSW 19.7 mph31.7 kmh 29.87 in1011.5 mb 0.01 in0.3 mm 0.00 in0.0 mm 0.82 in20.8 mm
02:48 PM 63.7°F17.6°C 50.8°F10.4°C 63% 13.5 mph WSW21.7 kmh WSW 18.1 mph29.1 kmh 29.87 in1011.5 mb 0.01 in0.3 mm 0.00 in0.0 mm 0.82 in20.8 mm
02:49 PM 63.7°F17.6°C 50.8°F10.4°C 63% 19.7 mph W31.7 kmh W 19.7 mph31.7 kmh 29.87 in1011.5 mb 0.01 in0.3 mm 0.00 in0.0 mm 0.82 in20.8 mm
02:50 PM 63.7°F17.6°C 50.8°F10.4°C 63% 15.0 mph W24.1 kmh W 19.7 mph31.7 kmh 29.87 in1011.5 mb 0.01 in0.3 mm 0.00 in0.0 mm 0.82 in20.8 mm
02:51 PM 63.7°F17.6°C 50.0°F10.0°C 61% 18.6 mph W29.9 kmh W 19.7 mph31.7 kmh 29.87 in1011.5 mb 0.01 in0.3 mm 0.00 in0.0 mm 0.82 in20.8 mm
02:52 PM 63.7°F17.6°C 50.4°F10.2°C 62% 17.1 mph W27.5 kmh W 19.7 mph31.7 kmh 29.87 in1011.5 mb 0.01 in0.3 mm 0.00 in0.0 mm 0.82 in20.8 mm
02:53 PM 63.5°F17.5°C 49.8°F9.9°C 61% 15.6 mph WSW25.1 kmh WSW 19.7 mph31.7 kmh 29.87 in1011.5 mb 0.01 in0.3 mm 0.00 in0.0 mm 0.82 in20.8 mm
02:54 PM 63.7°F17.6°C 50.8°F10.4°C 63% 16.1 mph W25.9 kmh W 19.7 mph31.7 kmh 29.87 in1011.5 mb 0.01 in0.3 mm 0.00 in0.0 mm 0.82 in20.8 mm
02:55 PM 63.7°F17.6°C 51.3°F10.7°C 64% 19.7 mph WSW31.7 kmh WSW 19.7 mph31.7 kmh 29.87 in1011.5 mb 0.01 in0.3 mm 0.00 in0.0 mm 0.82 in20.8 mm
02:56 PM 63.7°F17.6°C 51.7°F10.9°C 65% 13.5 mph WSW21.7 kmh WSW 19.7 mph31.7 kmh 29.87 in1011.5 mb 0.01 in0.3 mm 0.00 in0.0 mm 0.82 in20.8 mm
02:57 PM 63.7°F17.6°C 51.3°F10.7°C 64% 20.2 mph W32.5 kmh W 20.2 mph32.5 kmh 29.87 in1011.5 mb 0.01 in0.3 mm 0.00 in0.0 mm 0.82 in20.8 mm
02:58 PM 63.5°F17.5°C 50.2°F10.1°C 62% 14.0 mph SW22.5 kmh SW 20.2 mph32.5 kmh 29.87 in1011.5 mb 0.01 in0.3 mm 0.00 in0.0 mm 0.82 in20.8 mm
02:59 PM 63.5°F17.5°C 50.2°F10.1°C 62% 12.5 mph WSW20.1 kmh WSW 20.2 mph32.5 kmh 29.87 in1011.5 mb 0.01 in0.3 mm 0.00 in0.0 mm 0.82 in20.8 mm
03:00 PM 63.5°F17.5°C 49.4°F9.7°C 60% 18.1 mph W29.1 kmh W 20.2 mph32.5 kmh 29.87 in1011.5 mb 0.01 in0.3 mm 0.00 in0.0 mm 0.82 in20.8 mm
03:01 PM 63.7°F17.6°C 51.3°F10.7°C 64% 15.6 mph W25.1 kmh W 20.2 mph32.5 kmh 29.87 in1011.5 mb 0.01 in0.3 mm 0.00 in0.0 mm 0.82 in20.8 mm
03:02 PM 63.5°F17.5°C 49.8°F9.9°C 61% 13.0 mph WSW20.9 kmh WSW 20.2 mph32.5 kmh 29.87 in1011.5 mb 0.01 in0.3 mm 0.00 in0.0 mm 0.82 in20.8 mm
03:03 PM 63.5°F17.5°C 50.7°F10.4°C 63% 16.6 mph W26.7 kmh W 20.2 mph32.5 kmh 29.87 in1011.5 mb 0.01 in0.3 mm 0.00 in0.0 mm 0.82 in20.8 mm
03:04 PM 63.5°F17.5°C 50.2°F10.1°C 62% 13.0 mph W20.9 kmh W 20.2 mph32.5 kmh 29.87 in1011.5 mb 0.01 in0.3 mm 0.00 in0.0 mm 0.82 in20.8 mm
03:05 PM 63.5°F17.5°C 51.1°F10.6°C 64% 15.0 mph W24.1 kmh W 20.2 mph32.5 kmh 29.87 in1011.5 mb 0.01 in0.3 mm 0.00 in0.0 mm 0.82 in20.8 mm
03:06 PM 63.3°F17.4°C 50.5°F10.3°C 63% 16.1 mph SW25.9 kmh SW 20.2 mph32.5 kmh 29.87 in1011.5 mb 0.01 in0.3 mm 0.00 in0.0 mm 0.82 in20.8 mm
03:07 PM 63.3°F17.4°C 50.5°F10.3°C 63% 12.5 mph SW20.1 kmh SW 18.1 mph29.1 kmh 29.87 in1011.5 mb 0.01 in0.3 mm 0.00 in0.0 mm 0.82 in20.8 mm
03:08 PM 63.3°F17.4°C 50.9°F10.5°C 64% 13.5 mph W21.7 kmh W 18.1 mph29.1 kmh 29.87 in1011.5 mb 0.01 in0.3 mm 0.00 in0.0 mm 0.82 in20.8 mm
03:09 PM 63.3°F17.4°C 50.5°F10.3°C 63% 13.0 mph W20.9 kmh W 18.1 mph29.1 kmh 29.87 in1011.5 mb 0.01 in0.3 mm 0.00 in0.0 mm 0.82 in20.8 mm
03:10 PM 63.3°F17.4°C 49.6°F9.8°C 61% 13.0 mph WSW20.9 kmh WSW 17.6 mph28.3 kmh 29.87 in1011.5 mb 0.01 in0.3 mm 0.00 in0.0 mm 0.82 in20.8 mm
03:11 PM 63.3°F17.4°C 50.1°F10.1°C 62% 11.4 mph SW18.3 kmh SW 17.6 mph28.3 kmh 29.87 in1011.5 mb 0.01 in0.3 mm 0.00 in0.0 mm 0.82 in20.8 mm
03:12 PM 63.3°F17.4°C 50.1°F10.1°C 62% 13.5 mph WSW21.7 kmh WSW 17.6 mph28.3 kmh 29.87 in1011.5 mb 0.01 in0.3 mm 0.00 in0.0 mm 0.82 in20.8 mm
03:13 PM 63.3°F17.4°C 50.5°F10.3°C 63% 11.4 mph WSW18.3 kmh WSW 17.6 mph28.3 kmh 29.87 in1011.5 mb 0.01 in0.3 mm 0.00 in0.0 mm 0.82 in20.8 mm
03:14 PM 63.3°F17.4°C 50.9°F10.5°C 64% 13.0 mph WSW20.9 kmh WSW 17.6 mph28.3 kmh 29.87 in1011.5 mb 0.01 in0.3 mm 0.00 in0.0 mm 0.82 in20.8 mm
03:15 PM 63.3°F17.4°C 50.5°F10.3°C 63% 13.0 mph W20.9 kmh W 18.6 mph29.9 kmh 29.87 in1011.5 mb 0.01 in0.3 mm 0.00 in0.0 mm 0.82 in20.8 mm
03:16 PM 63.3°F17.4°C 50.5°F10.3°C 63% 15.6 mph WSW25.1 kmh WSW 18.6 mph29.9 kmh 29.87 in1011.5 mb 0.01 in0.3 mm 0.00 in0.0 mm 0.82 in20.8 mm
03:17 PM 63.3°F17.4°C 50.5°F10.3°C 63% 13.5 mph W21.7 kmh W 18.6 mph29.9 kmh 29.87 in1011.5 mb 0.00 in0.0 mm 0.00 in0.0 mm 0.82 in20.8 mm
03:18 PM 63.5°F17.5°C 51.5°F10.8°C 65% 13.0 mph W20.9 kmh W 18.6 mph29.9 kmh 29.87 in1011.5 mb 0.00 in0.0 mm 0.00 in0.0 mm 0.82 in20.8 mm
03:19 PM 63.5°F17.5°C 51.5°F10.8°C 65% 16.6 mph W26.7 kmh W 18.6 mph29.9 kmh 29.87 in1011.5 mb 0.00 in0.0 mm 0.00 in0.0 mm 0.82 in20.8 mm
03:20 PM 63.3°F17.4°C 50.5°F10.3°C 63% 12.5 mph W20.1 kmh W 18.6 mph29.9 kmh 29.87 in1011.5 mb 0.00 in0.0 mm 0.00 in0.0 mm 0.82 in20.8 mm
03:21 PM 63.3°F17.4°C 50.9°F10.5°C 64% 15.0 mph WSW24.1 kmh WSW 18.6 mph29.9 kmh 29.87 in1011.5 mb 0.00 in0.0 mm 0.00 in0.0 mm 0.82 in20.8 mm
03:22 PM 63.3°F17.4°C 51.3°F10.7°C 65% 14.0 mph W22.5 kmh W 18.6 mph29.9 kmh 29.87 in1011.5 mb 0.00 in0.0 mm 0.00 in0.0 mm 0.82 in20.8 mm
03:23 PM 63.3°F17.4°C 51.3°F10.7°C 65% 16.6 mph WSW26.7 kmh WSW 18.6 mph29.9 kmh 29.87 in1011.5 mb 0.00 in0.0 mm 0.00 in0.0 mm 0.82 in20.8 mm
03:24 PM 63.3°F17.4°C 51.3°F10.7°C 65% 13.5 mph WSW21.7 kmh WSW 18.6 mph29.9 kmh 29.87 in1011.5 mb 0.00 in0.0 mm 0.00 in0.0 mm 0.82 in20.8 mm
03:25 PM 63.1°F17.3°C 50.8°F10.4°C 64% 9.9 mph WSW15.9 kmh WSW 18.1 mph29.1 kmh 29.87 in1011.5 mb 0.00 in0.0 mm 0.00 in0.0 mm 0.82 in20.8 mm
03:26 PM 63.1°F17.3°C 51.2°F10.7°C 65% 14.5 mph W23.3 kmh W 18.1 mph29.1 kmh 29.87 in1011.5 mb 0.00 in0.0 mm 0.00 in0.0 mm 0.82 in20.8 mm
03:27 PM 63.1°F17.3°C 51.6°F10.9°C 66% 14.0 mph WSW22.5 kmh WSW 18.1 mph29.1 kmh 29.87 in1011.5 mb 0.00 in0.0 mm 0.00 in0.0 mm 0.82 in20.8 mm
03:28 PM 63.1°F17.3°C 51.6°F10.9°C 66% 16.6 mph W26.7 kmh W 18.1 mph29.1 kmh 29.86 in1011.2 mb 0.00 in0.0 mm 0.00 in0.0 mm 0.82 in20.8 mm
03:29 PM 63.1°F17.3°C 51.6°F10.9°C 66% 12.0 mph W19.3 kmh W 18.1 mph29.1 kmh 29.86 in1011.2 mb 0.00 in0.0 mm 0.00 in0.0 mm 0.82 in20.8 mm
03:30 PM 63.1°F17.3°C 51.2°F10.7°C 65% 8.9 mph WSW14.3 kmh WSW 16.6 mph26.7 kmh 29.86 in1011.2 mb 0.00 in0.0 mm 0.00 in0.0 mm 0.82 in20.8 mm
03:31 PM 63.1°F17.3°C 51.2°F10.7°C 65% 12.0 mph WSW19.3 kmh WSW 16.6 mph26.7 kmh 29.86 in1011.2 mb 0.00 in0.0 mm 0.00 in0.0 mm 0.82 in20.8 mm
03:32 PM 63.1°F17.3°C 50.8°F10.4°C 64% 15.6 mph WSW25.1 kmh WSW 16.6 mph26.7 kmh 29.86 in1011.2 mb 0.00 in0.0 mm 0.00 in0.0 mm 0.82 in20.8 mm
03:33 PM 63.0°F17.2°C 50.6°F10.3°C 64% 12.5 mph WSW20.1 kmh WSW 16.6 mph26.7 kmh 29.86 in1011.2 mb 0.00 in0.0 mm 0.00 in0.0 mm 0.82 in20.8 mm
03:34 PM 63.0°F17.2°C 50.6°F10.3°C 64% 12.0 mph W19.3 kmh W 16.6 mph26.7 kmh 29.86 in1011.2 mb 0.00 in0.0 mm 0.00 in0.0 mm 0.82 in20.8 mm
03:35 PM 63.0°F17.2°C 50.6°F10.3°C 64% 15.6 mph W25.1 kmh W 16.6 mph26.7 kmh 29.86 in1011.2 mb 0.00 in0.0 mm 0.00 in0.0 mm 0.82 in20.8 mm
03:36 PM 62.8°F17.1°C 50.8°F10.4°C 65% 12.5 mph SSE20.1 kmh SSE 16.6 mph26.7 kmh 29.86 in1011.2 mb 0.00 in0.0 mm 0.00 in0.0 mm 0.82 in20.8 mm
03:37 PM 62.8°F17.1°C 50.8°F10.4°C 65% 11.4 mph WSW18.3 kmh WSW 16.6 mph26.7 kmh 29.86 in1011.2 mb 0.00 in0.0 mm 0.00 in0.0 mm 0.82 in20.8 mm
03:38 PM 62.8°F17.1°C 50.4°F10.2°C 64% 15.0 mph W24.1 kmh W 15.6 mph25.1 kmh 29.86 in1011.2 mb 0.00 in0.0 mm 0.00 in0.0 mm 0.82 in20.8 mm
03:39 PM 62.8°F17.1°C 50.4°F10.2°C 64% 15.6 mph WNW25.1 kmh WNW 15.6 mph25.1 kmh 29.86 in1011.2 mb 0.00 in0.0 mm 0.00 in0.0 mm 0.82 in20.8 mm
03:40 PM 63.0°F17.2°C 50.6°F10.3°C 64% 13.0 mph SW20.9 kmh SW 15.6 mph25.1 kmh 29.86 in1011.2 mb 0.00 in0.0 mm 0.00 in0.0 mm 0.82 in20.8 mm
03:41 PM 63.0°F17.2°C 50.6°F10.3°C 64% 11.4 mph W18.3 kmh W 15.6 mph25.1 kmh 29.86 in1011.2 mb 0.00 in0.0 mm 0.00 in0.0 mm 0.82 in20.8 mm
03:42 PM 63.0°F17.2°C 50.6°F10.3°C 64% 17.1 mph W27.5 kmh W 17.1 mph27.5 kmh 29.86 in1011.2 mb 0.00 in0.0 mm 0.00 in0.0 mm 0.82 in20.8 mm
03:43 PM 63.0°F17.2°C 50.6°F10.3°C 64% 15.0 mph W24.1 kmh W 17.1 mph27.5 kmh 29.86 in1011.2 mb 0.00 in0.0 mm 0.00 in0.0 mm 0.82 in20.8 mm
03:44 PM 63.0°F17.2°C 50.2°F10.1°C 63% 17.6 mph W28.3 kmh W 17.6 mph28.3 kmh 29.86 in1011.2 mb 0.00 in0.0 mm 0.00 in0.0 mm 0.82 in20.8 mm
03:45 PM 63.0°F17.2°C 49.3°F9.6°C 61% 13.0 mph WSW20.9 kmh WSW 17.6 mph28.3 kmh 29.86 in1011.2 mb 0.00 in0.0 mm 0.00 in0.0 mm 0.82 in20.8 mm
03:46 PM 63.0°F17.2°C 49.7°F9.8°C 62% 13.0 mph WSW20.9 kmh WSW 17.6 mph28.3 kmh 29.86 in1011.2 mb 0.00 in0.0 mm 0.00 in0.0 mm 0.82 in20.8 mm
03:47 PM 63.0°F17.2°C 50.6°F10.3°C 64% 9.9 mph SW15.9 kmh SW 17.6 mph28.3 kmh 29.86 in1011.2 mb 0.00 in0.0 mm 0.00 in0.0 mm 0.82 in20.8 mm
03:48 PM 63.0°F17.2°C 51.0°F10.6°C 65% 11.4 mph SW18.3 kmh SW 17.6 mph28.3 kmh 29.86 in1011.2 mb 0.00 in0.0 mm 0.00 in0.0 mm 0.82 in20.8 mm
03:49 PM 63.0°F17.2°C 51.4°F10.8°C 66% 9.9 mph W15.9 kmh W 17.6 mph28.3 kmh 29.86 in1011.2 mb 0.00 in0.0 mm 0.00 in0.0 mm 0.82 in20.8 mm
03:50 PM 63.0°F17.2°C 51.4°F10.8°C 66% 11.4 mph W18.3 kmh W 17.6 mph28.3 kmh 29.86 in1011.2 mb 0.00 in0.0 mm 0.00 in0.0 mm 0.82 in20.8 mm
03:51 PM 63.0°F17.2°C 51.4°F10.8°C 66% 12.0 mph WSW19.3 kmh WSW 17.6 mph28.3 kmh 29.86 in1011.2 mb 0.00 in0.0 mm 0.00 in0.0 mm 0.82 in20.8 mm
03:52 PM 62.8°F17.1°C 50.4°F10.2°C 64% 10.9 mph WSW17.5 kmh WSW 17.6 mph28.3 kmh 29.86 in1011.2 mb 0.00 in0.0 mm 0.00 in0.0 mm 0.82 in20.8 mm
03:53 PM 62.8°F17.1°C 50.8°F10.4°C 65% 10.9 mph WSW17.5 kmh WSW 17.6 mph28.3 kmh 29.86 in1011.2 mb 0.00 in0.0 mm 0.00 in0.0 mm 0.82 in20.8 mm
03:54 PM 62.8°F17.1°C 50.8°F10.4°C 65% 12.5 mph W20.1 kmh W 17.6 mph28.3 kmh 29.86 in1011.2 mb 0.00 in0.0 mm 0.00 in0.0 mm 0.82 in20.8 mm
03:55 PM 62.8°F17.1°C 50.4°F10.2°C 64% 12.0 mph WSW19.3 kmh WSW 16.6 mph26.7 kmh 29.86 in1011.2 mb 0.00 in0.0 mm 0.00 in0.0 mm 0.82 in20.8 mm
03:56 PM 62.8°F17.1°C 50.8°F10.4°C 65% 16.6 mph W26.7 kmh W 16.6 mph26.7 kmh 29.86 in1011.2 mb 0.00 in0.0 mm 0.00 in0.0 mm 0.82 in20.8 mm
03:57 PM 63.0°F17.2°C 51.8°F11.0°C 67% 13.0 mph WSW20.9 kmh WSW 16.6 mph26.7 kmh 29.86 in1011.2 mb 0.00 in0.0 mm 0.00 in0.0 mm 0.82 in20.8 mm
03:58 PM 63.0°F17.2°C 51.8°F11.0°C 67% 12.0 mph SSW19.3 kmh SSW 16.6 mph26.7 kmh 29.86 in1011.2 mb 0.00 in0.0 mm 0.00 in0.0 mm 0.82 in20.8 mm
03:59 PM 63.0°F17.2°C 51.0°F10.6°C 65% 12.0 mph SW19.3 kmh SW 16.6 mph26.7 kmh 29.86 in1011.2 mb 0.00 in0.0 mm 0.00 in0.0 mm 0.82 in20.8 mm
04:00 PM 63.0°F17.2°C 51.0°F10.6°C 65% 13.5 mph WSW21.7 kmh WSW 16.6 mph26.7 kmh 29.86 in1011.2 mb 0.00 in0.0 mm 0.00 in0.0 mm 0.82 in20.8 mm
04:01 PM 63.0°F17.2°C 51.0°F10.6°C 65% 16.1 mph W25.9 kmh W 18.6 mph29.9 kmh 29.86 in1011.2 mb 0.00 in0.0 mm 0.00 in0.0 mm 0.82 in20.8 mm
04:02 PM 62.8°F17.1°C 50.8°F10.4°C 65% 12.0 mph WSW19.3 kmh WSW 18.6 mph29.9 kmh 29.86 in1011.2 mb 0.00 in0.0 mm 0.00 in0.0 mm 0.82 in20.8 mm
04:03 PM 62.8°F17.1°C 50.8°F10.4°C 65% 15.6 mph WSW25.1 kmh WSW 18.6 mph29.9 kmh 29.86 in1011.2 mb 0.00 in0.0 mm 0.00 in0.0 mm 0.82 in20.8 mm
04:04 PM 62.8°F17.1°C 50.4°F10.2°C 64% 15.6 mph WSW25.1 kmh WSW 18.6 mph29.9 kmh 29.86 in1011.2 mb 0.00 in0.0 mm 0.00 in0.0 mm 0.82 in20.8 mm
04:05 PM 63.0°F17.2°C 51.4°F10.8°C 66% 8.9 mph SW14.3 kmh SW 18.6 mph29.9 kmh 29.86 in1011.2 mb 0.00 in0.0 mm 0.00 in0.0 mm 0.82 in20.8 mm
04:06 PM 63.0°F17.2°C 51.0°F10.6°C 65% 9.4 mph WSW15.1 kmh WSW 18.6 mph29.9 kmh 29.86 in1011.2 mb 0.00 in0.0 mm 0.00 in0.0 mm 0.82 in20.8 mm
04:07 PM 63.0°F17.2°C 50.2°F10.1°C 63% 10.9 mph WSW17.5 kmh WSW 18.6 mph29.9 kmh 29.86 in1011.2 mb 0.00 in0.0 mm 0.00 in0.0 mm 0.82 in20.8 mm
04:08 PM 63.1°F17.3°C 51.2°F10.7°C 65% 8.9 mph SW14.3 kmh SW 18.6 mph29.9 kmh 29.86 in1011.2 mb 0.00 in0.0 mm 0.00 in0.0 mm 0.82 in20.8 mm
04:09 PM 63.1°F17.3°C 51.6°F10.9°C 66% 10.4 mph W16.7 kmh W 18.6 mph29.9 kmh 29.86 in1011.2 mb 0.00 in0.0 mm 0.00 in0.0 mm 0.82 in20.8 mm
04:10 PM 63.1°F17.3°C 51.6°F10.9°C 66% 16.1 mph WSW25.9 kmh WSW 18.6 mph29.9 kmh 29.86 in1011.2 mb 0.00 in0.0 mm 0.00 in0.0 mm 0.82 in20.8 mm
04:11 PM 63.0°F17.2°C 51.0°F10.6°C 65% 10.9 mph WSW17.5 kmh WSW 16.1 mph25.9 kmh 29.86 in1011.2 mb 0.00 in0.0 mm 0.00 in0.0 mm 0.82 in20.8 mm
04:12 PM 63.0°F17.2°C 51.4°F10.8°C 66% 10.4 mph WSW16.7 kmh WSW 16.1 mph25.9 kmh 29.86 in1011.2 mb 0.00 in0.0 mm 0.00 in0.0 mm 0.82 in20.8 mm
04:13 PM 63.0°F17.2°C 51.4°F10.8°C 66% 11.4 mph WSW18.3 kmh WSW 16.1 mph25.9 kmh 29.86 in1011.2 mb 0.00 in0.0 mm 0.00 in0.0 mm 0.82 in20.8 mm
04:14 PM 63.0°F17.2°C 51.4°F10.8°C 66% 11.4 mph WSW18.3 kmh WSW 16.1 mph25.9 kmh 29.86 in1011.2 mb 0.00 in0.0 mm 0.00 in0.0 mm 0.82 in20.8 mm
04:15 PM 63.0°F17.2°C 51.8°F11.0°C 67% 12.0 mph SW19.3 kmh SW 16.1 mph25.9 kmh 29.86 in1011.2 mb 0.00 in0.0 mm 0.00 in0.0 mm 0.82 in20.8 mm
04:16 PM 63.0°F17.2°C 51.8°F11.0°C 67% 15.0 mph W24.1 kmh W 16.1 mph25.9 kmh 29.86 in1011.2 mb 0.00 in0.0 mm 0.00 in0.0 mm 0.82 in20.8 mm
04:17 PM 62.8°F17.1°C 52.1°F11.2°C 68% 16.1 mph WSW25.9 kmh WSW 16.1 mph25.9 kmh 29.86 in1011.2 mb 0.00 in0.0 mm 0.00 in0.0 mm 0.82 in20.8 mm
04:18 PM 62.6°F17.0°C 51.1°F10.6°C 66% 9.4 mph SW15.1 kmh SW 16.1 mph25.9 kmh 29.86 in1011.2 mb 0.00 in0.0 mm 0.00 in0.0 mm 0.82 in20.8 mm
04:19 PM 62.8°F17.1°C 51.7°F10.9°C 67% 10.9 mph WSW17.5 kmh WSW 16.1 mph25.9 kmh 29.86 in1011.2 mb 0.00 in0.0 mm 0.00 in0.0 mm 0.82 in20.8 mm
04:20 PM 62.8°F17.1°C 51.2°F10.7°C 66% 9.4 mph SW15.1 kmh SW 16.1 mph25.9 kmh 29.86 in1011.2 mb 0.00 in0.0 mm 0.00 in0.0 mm 0.82 in20.8 mm
04:21 PM 62.8°F17.1°C 51.2°F10.7°C 66% 9.4 mph WSW15.1 kmh WSW 16.1 mph25.9 kmh 29.86 in1011.2 mb 0.00 in0.0 mm 0.00 in0.0 mm 0.82 in20.8 mm
04:22 PM 62.8°F17.1°C 51.2°F10.7°C 66% 6.8 mph SW10.9 kmh SW 16.1 mph25.9 kmh 29.86 in1011.2 mb 0.00 in0.0 mm 0.00 in0.0 mm 0.82 in20.8 mm
04:23 PM 62.8°F17.1°C 51.7°F10.9°C 67% 9.4 mph WSW15.1 kmh WSW 16.1 mph25.9 kmh 29.86 in1011.2 mb 0.00 in0.0 mm 0.00 in0.0 mm 0.82 in20.8 mm
04:24 PM 62.6°F17.0°C 51.1°F10.6°C 66% 11.4 mph WSW18.3 kmh WSW 16.1 mph25.9 kmh 29.86 in1011.2 mb 0.00 in0.0 mm 0.00 in0.0 mm 0.82 in20.8 mm
04:25 PM 62.6°F17.0°C 51.5°F10.8°C 67% 12.0 mph SW19.3 kmh SW 16.1 mph25.9 kmh 29.86 in1011.2 mb 0.00 in0.0 mm 0.00 in0.0 mm 0.82 in20.8 mm
04:26 PM 62.6°F17.0°C 51.5°F10.8°C 67% 6.8 mph SSE10.9 kmh SSE 16.1 mph25.9 kmh 29.86 in1011.2 mb 0.00 in0.0 mm 0.00 in0.0 mm 0.82 in20.8 mm
04:27 PM 62.6°F17.0°C 51.9°F11.1°C 68% 7.8 mph SSW12.6 kmh SSW 16.1 mph25.9 kmh 29.86 in1011.2 mb 0.00 in0.0 mm 0.00 in0.0 mm 0.82 in20.8 mm
04:28 PM 62.6°F17.0°C 51.9°F11.1°C 68% 9.9 mph SW15.9 kmh SW 14.0 mph22.5 kmh 29.86 in1011.2 mb 0.00 in0.0 mm 0.00 in0.0 mm 0.82 in20.8 mm
04:29 PM 62.8°F17.1°C 52.1°F11.2°C 68% 10.9 mph SW17.5 kmh SW 14.0 mph22.5 kmh 29.86 in1011.2 mb 0.00 in0.0 mm 0.00 in0.0 mm 0.82 in20.8 mm
04:30 PM 62.8°F17.1°C 52.1°F11.2°C 68% 8.3 mph WSW13.4 kmh WSW 13.0 mph20.9 kmh 29.86 in1011.2 mb 0.00 in0.0 mm 0.00 in0.0 mm 0.82 in20.8 mm
04:31 PM 62.6°F17.0°C 51.5°F10.8°C 67% 12.0 mph WSW19.3 kmh WSW 13.0 mph20.9 kmh 29.86 in1011.2 mb 0.00 in0.0 mm 0.00 in0.0 mm 0.82 in20.8 mm
04:32 PM 62.6°F17.0°C 52.3°F11.3°C 69% 6.8 mph SSW10.9 kmh SSW 13.0 mph20.9 kmh 29.86 in1011.2 mb 0.00 in0.0 mm 0.00 in0.0 mm 0.82 in20.8 mm
04:33 PM 62.6°F17.0°C 52.3°F11.3°C 69% 9.4 mph SW15.1 kmh SW 13.0 mph20.9 kmh 29.86 in1011.2 mb 0.00 in0.0 mm 0.00 in0.0 mm 0.82 in20.8 mm
04:34 PM 62.6°F17.0°C 51.9°F11.1°C 68% 8.9 mph SW14.3 kmh SW 13.0 mph20.9 kmh 29.86 in1011.2 mb 0.00 in0.0 mm 0.00 in0.0 mm 0.82 in20.8 mm
04:35 PM 62.6°F17.0°C 51.9°F11.1°C 68% 8.9 mph WSW14.3 kmh WSW 11.9 mph19.2 kmh 29.86 in1011.2 mb 0.00 in0.0 mm 0.00 in0.0 mm 0.82 in20.8 mm
04:36 PM 62.6°F17.0°C 51.5°F10.8°C 67% 12.0 mph SW19.3 kmh SW 11.9 mph19.2 kmh 29.86 in1011.2 mb 0.00 in0.0 mm 0.00 in0.0 mm 0.82 in20.8 mm
04:37 PM 62.6°F17.0°C 51.9°F11.1°C 68% 11.4 mph WSW18.3 kmh WSW 13.0 mph20.9 kmh 29.86 in1011.2 mb 0.00 in0.0 mm 0.00 in0.0 mm 0.82 in20.8 mm
04:38 PM 62.6°F17.0°C 51.5°F10.8°C 67% 13.0 mph SW20.9 kmh SW 13.0 mph20.9 kmh 29.86 in1011.2 mb 0.00 in0.0 mm 0.00 in0.0 mm 0.82 in20.8 mm
04:39 PM 62.6°F17.0°C 51.5°F10.8°C 67% 12.0 mph SW19.3 kmh SW 13.0 mph20.9 kmh 29.86 in1011.2 mb 0.00 in0.0 mm 0.00 in0.0 mm 0.82 in20.8 mm
04:40 PM 62.6°F17.0°C 52.3°F11.3°C 69% 14.5 mph WSW23.3 kmh WSW 15.6 mph25.1 kmh 29.86 in1011.2 mb 0.00 in0.0 mm 0.00 in0.0 mm 0.82 in20.8 mm
04:41 PM 62.6°F17.0°C 52.3°F11.3°C 69% 13.5 mph WSW21.7 kmh WSW 15.6 mph25.1 kmh 29.86 in1011.2 mb 0.00 in0.0 mm 0.00 in0.0 mm 0.82 in20.8 mm
04:42 PM 62.4°F16.9°C 51.7°F10.9°C 68% 14.0 mph WSW22.5 kmh WSW 15.6 mph25.1 kmh 29.86 in1011.2 mb 0.00 in0.0 mm 0.00 in0.0 mm 0.82 in20.8 mm
04:43 PM 62.4°F16.9°C 51.3°F10.7°C 67% 13.5 mph WSW21.7 kmh WSW 15.6 mph25.1 kmh 29.86 in1011.2 mb 0.00 in0.0 mm 0.00 in0.0 mm 0.82 in20.8 mm
04:44 PM 62.4°F16.9°C 51.3°F10.7°C 67% 13.5 mph WSW21.7 kmh WSW 15.6 mph25.1 kmh 29.86 in1011.2 mb 0.00 in0.0 mm 0.00 in0.0 mm 0.82 in20.8 mm
04:45 PM 62.4°F16.9°C 51.7°F10.9°C 68% 17.6 mph WSW28.3 kmh WSW 17.6 mph28.3 kmh 29.86 in1011.2 mb 0.00 in0.0 mm 0.00 in0.0 mm 0.82 in20.8 mm
04:46 PM 62.4°F16.9°C 51.7°F10.9°C 68% 17.6 mph WSW28.3 kmh WSW 17.6 mph28.3 kmh 29.86 in1011.2 mb 0.00 in0.0 mm 0.00 in0.0 mm 0.82 in20.8 mm
04:47 PM 62.4°F16.9°C 51.7°F10.9°C 68% 14.5 mph WSW23.3 kmh WSW 18.1 mph29.1 kmh 29.86 in1011.2 mb 0.00 in0.0 mm 0.00 in0.0 mm 0.82 in20.8 mm
04:48 PM 62.4°F16.9°C 52.1°F11.2°C 69% 13.5 mph WSW21.7 kmh WSW 18.1 mph29.1 kmh 29.86 in1011.2 mb 0.00 in0.0 mm 0.00 in0.0 mm 0.82 in20.8 mm
04:49 PM 62.2°F16.8°C 51.9°F11.1°C 69% 15.0 mph WSW24.1 kmh WSW 18.1 mph29.1 kmh 29.86 in1011.2 mb 0.00 in0.0 mm 0.00 in0.0 mm 0.82 in20.8 mm
04:50 PM 62.1°F16.7°C 51.0°F10.6°C 67% 14.0 mph WSW22.5 kmh WSW 18.1 mph29.1 kmh 29.86 in1011.2 mb 0.00 in0.0 mm 0.00 in0.0 mm 0.82 in20.8 mm
04:51 PM 62.1°F16.7°C 51.0°F10.6°C 67% 12.5 mph SW20.1 kmh SW 18.1 mph29.1 kmh 29.86 in1011.2 mb 0.00 in0.0 mm 0.00 in0.0 mm 0.82 in20.8 mm
04:52 PM 62.2°F16.8°C 51.9°F11.1°C 69% 14.0 mph W22.5 kmh W 18.1 mph29.1 kmh 29.87 in1011.5 mb 0.00 in0.0 mm 0.00 in0.0 mm 0.82 in20.8 mm
04:53 PM 62.2°F16.8°C 51.9°F11.1°C 69% 15.0 mph W24.1 kmh W 18.1 mph29.1 kmh 29.87 in1011.5 mb 0.00 in0.0 mm 0.00 in0.0 mm 0.82 in20.8 mm
04:54 PM 62.2°F16.8°C 52.3°F11.3°C 70% 9.9 mph SW15.9 kmh SW 18.1 mph29.1 kmh 29.87 in1011.5 mb 0.00 in0.0 mm 0.00 in0.0 mm 0.82 in20.8 mm
04:55 PM 62.2°F16.8°C 51.9°F11.1°C 69% 13.5 mph W21.7 kmh W 18.1 mph29.1 kmh 29.87 in1011.5 mb 0.00 in0.0 mm 0.00 in0.0 mm 0.82 in20.8 mm
04:56 PM 62.2°F16.8°C 51.9°F11.1°C 69% 13.0 mph WSW20.9 kmh WSW 18.1 mph29.1 kmh 29.87 in1011.5 mb 0.00 in0.0 mm 0.00 in0.0 mm 0.82 in20.8 mm
04:57 PM 62.2°F16.8°C 52.3°F11.3°C 70% 15.0 mph WSW24.1 kmh WSW 17.6 mph28.3 kmh 29.87 in1011.5 mb 0.00 in0.0 mm 0.00 in0.0 mm 0.82 in20.8 mm
04:58 PM 62.1°F16.7°C 51.8°F11.0°C 69% 16.6 mph W26.7 kmh W 17.6 mph28.3 kmh 29.87 in1011.5 mb 0.00 in0.0 mm 0.00 in0.0 mm 0.82 in20.8 mm
04:59 PM 62.1°F16.7°C 51.8°F11.0°C 69% 16.6 mph W26.7 kmh W 17.6 mph28.3 kmh 29.87 in1011.5 mb 0.00 in0.0 mm 0.00 in0.0 mm 0.82 in20.8 mm
05:00 PM 62.1°F16.7°C 51.8°F11.0°C 69% 13.5 mph W21.7 kmh W 17.6 mph28.3 kmh 29.87 in1011.5 mb 0.00 in0.0 mm 0.00 in0.0 mm 0.82 in20.8 mm
05:01 PM 62.2°F16.8°C 52.7°F11.5°C 71% 10.9 mph WSW17.5 kmh WSW 17.6 mph28.3 kmh 29.87 in1011.5 mb 0.00 in0.0 mm 0.00 in0.0 mm 0.82 in20.8 mm
05:02 PM 62.2°F16.8°C 52.7°F11.5°C 71% 12.5 mph SW20.1 kmh SW 17.1 mph27.5 kmh 29.87 in1011.5 mb 0.00 in0.0 mm 0.00 in0.0 mm 0.82 in20.8 mm
05:03 PM 62.1°F16.7°C 52.5°F11.4°C 71% 11.4 mph WSW18.3 kmh WSW 17.1 mph27.5 kmh 29.87 in1011.5 mb 0.00 in0.0 mm 0.00 in0.0 mm 0.82 in20.8 mm
05:04 PM 62.1°F16.7°C 52.5°F11.4°C 71% 15.0 mph WSW24.1 kmh WSW 17.1 mph27.5 kmh 29.87 in1011.5 mb 0.00 in0.0 mm 0.00 in0.0 mm 0.82 in20.8 mm
05:05 PM 62.1°F16.7°C 52.2°F11.2°C 70% 12.5 mph SW20.1 kmh SW 17.1 mph27.5 kmh 29.88 in1011.9 mb 0.00 in0.0 mm 0.00 in0.0 mm 0.82 in20.8 mm
05:06 PM 61.9°F16.6°C 51.6°F10.9°C 69% 15.0 mph WSW24.1 kmh WSW 17.1 mph27.5 kmh 29.88 in1011.9 mb 0.00 in0.0 mm 0.00 in0.0 mm 0.82 in20.8 mm
05:07 PM 61.9°F16.6°C 51.6°F10.9°C 69% 18.6 mph W29.9 kmh W 18.6 mph29.9 kmh 29.88 in1011.9 mb 0.00 in0.0 mm 0.00 in0.0 mm 0.82 in20.8 mm
05:08 PM 61.9°F16.6°C 52.0°F11.1°C 70% 16.1 mph W25.9 kmh W 18.6 mph29.9 kmh 29.88 in1011.9 mb 0.00 in0.0 mm 0.00 in0.0 mm 0.82 in20.8 mm
05:09 PM 61.7°F16.5°C 51.8°F11.0°C 70% 17.6 mph W28.3 kmh W 20.7 mph33.3 kmh 29.88 in1011.9 mb 0.00 in0.0 mm 0.00 in0.0 mm 0.82 in20.8 mm
05:10 PM 61.7°F16.5°C 52.2°F11.2°C 71% 17.6 mph WSW28.3 kmh WSW 20.7 mph33.3 kmh 29.88 in1011.9 mb 0.00 in0.0 mm 0.00 in0.0 mm 0.82 in20.8 mm
05:11 PM 61.7°F16.5°C 51.8°F11.0°C 70% 16.1 mph W25.9 kmh W 20.7 mph33.3 kmh 29.88 in1011.9 mb 0.00 in0.0 mm 0.00 in0.0 mm 0.82 in20.8 mm
05:12 PM 61.5°F16.4°C 50.9°F10.5°C 68% 13.5 mph W21.7 kmh W 20.7 mph33.3 kmh 29.88 in1011.9 mb 0.00 in0.0 mm 0.00 in0.0 mm 0.82 in20.8 mm
05:13 PM 61.5°F16.4°C 51.3°F10.7°C 69% 13.5 mph W21.7 kmh W 20.7 mph33.3 kmh 29.88 in1011.9 mb 0.00 in0.0 mm 0.00 in0.0 mm 0.82 in20.8 mm
05:14 PM 61.5°F16.4°C 50.9°F10.5°C 68% 14.0 mph WSW22.5 kmh WSW 20.7 mph33.3 kmh 29.88 in1011.9 mb 0.00 in0.0 mm 0.00 in0.0 mm 0.82 in20.8 mm
05:15 PM 61.7°F16.5°C 51.4°F10.8°C 69% 12.0 mph WSW19.3 kmh WSW 20.7 mph33.3 kmh 29.88 in1011.9 mb 0.00 in0.0 mm 0.00 in0.0 mm 0.82 in20.8 mm
05:16 PM 61.3°F16.3°C 49.9°F9.9°C 66% 13.0 mph WSW20.9 kmh WSW 20.7 mph33.3 kmh 29.88 in1011.9 mb 0.00 in0.0 mm 0.00 in0.0 mm 0.82 in20.8 mm
05:17 PM 61.3°F16.3°C 49.9°F9.9°C 66% 17.6 mph W28.3 kmh W 20.7 mph33.3 kmh 29.88 in1011.9 mb 0.00 in0.0 mm 0.00 in0.0 mm 0.82 in20.8 mm
05:18 PM 61.3°F16.3°C 49.9°F9.9°C 66% 15.0 mph WSW24.1 kmh WSW 20.7 mph33.3 kmh 29.88 in1011.9 mb 0.00 in0.0 mm 0.00 in0.0 mm 0.82 in20.8 mm
05:19 PM 61.3°F16.3°C 49.9°F9.9°C 66% 19.2 mph W30.9 kmh W 19.1 mph30.7 kmh 29.88 in1011.9 mb 0.00 in0.0 mm 0.00 in0.0 mm 0.82 in20.8 mm
05:20 PM 61.2°F16.2°C 50.1°F10.1°C 67% 14.0 mph W22.5 kmh W 20.7 mph33.3 kmh 29.88 in1011.9 mb 0.00 in0.0 mm 0.00 in0.0 mm 0.82 in20.8 mm
05:21 PM 61.2°F16.2°C 50.5°F10.3°C 68% 17.6 mph W28.3 kmh W 20.7 mph33.3 kmh 29.88 in1011.9 mb 0.00 in0.0 mm 0.00 in0.0 mm 0.82 in20.8 mm
05:22 PM 61.2°F16.2°C 50.5°F10.3°C 68% 21.7 mph W34.9 kmh W 21.7 mph34.9 kmh 29.88 in1011.9 mb 0.00 in0.0 mm 0.00 in0.0 mm 0.82 in20.8 mm
05:23 PM 61.2°F16.2°C 50.5°F10.3°C 68% 16.6 mph W26.7 kmh W 21.7 mph34.9 kmh 29.88 in1011.9 mb 0.00 in0.0 mm 0.00 in0.0 mm 0.82 in20.8 mm
05:24 PM 61.2°F16.2°C 50.1°F10.1°C 67% 16.6 mph WSW26.7 kmh WSW 21.7 mph34.9 kmh 29.88 in1011.9 mb 0.00 in0.0 mm 0.00 in0.0 mm 0.82 in20.8 mm
05:25 PM 61.2°F16.2°C 50.5°F10.3°C 68% 19.2 mph W30.9 kmh W 21.7 mph34.9 kmh 29.88 in1011.9 mb 0.00 in0.0 mm 0.00 in0.0 mm 0.82 in20.8 mm
05:26 PM 61.2°F16.2°C 50.5°F10.3°C 68% 17.6 mph SW28.3 kmh SW 21.7 mph34.9 kmh 29.88 in1011.9 mb 0.00 in0.0 mm 0.00 in0.0 mm 0.82 in20.8 mm
05:27 PM 61.3°F16.3°C 51.5°F10.8°C 70% 16.1 mph WSW25.9 kmh WSW 21.7 mph34.9 kmh 29.88 in1011.9 mb 0.00 in0.0 mm 0.00 in0.0 mm 0.82 in20.8 mm
05:28 PM 61.2°F16.2°C 50.9°F10.5°C 69% 13.0 mph WSW20.9 kmh WSW 21.7 mph34.9 kmh 29.88 in1011.9 mb 0.00 in0.0 mm 0.00 in0.0 mm 0.82 in20.8 mm
05:29 PM 61.2°F16.2°C 50.5°F10.3°C 68% 14.0 mph WSW22.5 kmh WSW 21.7 mph34.9 kmh 29.88 in1011.9 mb 0.00 in0.0 mm 0.00 in0.0 mm 0.82 in20.8 mm
05:30 PM 61.2°F16.2°C 50.5°F10.3°C 68% 14.0 mph SW22.5 kmh SW 21.7 mph34.9 kmh 29.88 in1011.9 mb 0.00 in0.0 mm 0.00 in0.0 mm 0.82 in20.8 mm
05:31 PM 61.2°F16.2°C 50.5°F10.3°C 68% 14.5 mph WSW23.3 kmh WSW 21.7 mph34.9 kmh 29.88 in1011.9 mb 0.00 in0.0 mm 0.00 in0.0 mm 0.82 in20.8 mm
05:32 PM 61.3°F16.3°C 51.1°F10.6°C 69% 15.0 mph SW24.1 kmh SW 21.7 mph34.9 kmh 29.88 in1011.9 mb 0.00 in0.0 mm 0.00 in0.0 mm 0.82 in20.8 mm
05:33 PM 61.3°F16.3°C 51.1°F10.6°C 69% 13.5 mph W21.7 kmh W 21.7 mph34.9 kmh 29.88 in1011.9 mb 0.00 in0.0 mm 0.00 in0.0 mm 0.82 in20.8 mm
05:34 PM 61.2°F16.2°C 50.5°F10.3°C 68% 13.0 mph WSW20.9 kmh WSW 21.7 mph34.9 kmh 29.88 in1011.9 mb 0.00 in0.0 mm 0.00 in0.0 mm 0.82 in20.8 mm
05:35 PM 61.3°F16.3°C 51.5°F10.8°C 70% 13.5 mph WSW21.7 kmh WSW 21.7 mph34.9 kmh 29.88 in1011.9 mb 0.00 in0.0 mm 0.00 in0.0 mm 0.82 in20.8 mm
05:36 PM 61.3°F16.3°C 51.1°F10.6°C 69% 13.0 mph SW20.9 kmh SW 16.6 mph26.7 kmh 29.88 in1011.9 mb 0.00 in0.0 mm 0.00 in0.0 mm 0.82 in20.8 mm
05:37 PM 61.3°F16.3°C 51.9°F11.1°C 71% 10.9 mph W17.5 kmh W 16.6 mph26.7 kmh 29.88 in1011.9 mb 0.00 in0.0 mm 0.00 in0.0 mm 0.82 in20.8 mm
05:38 PM 61.3°F16.3°C 51.9°F11.1°C 71% 13.5 mph W21.7 kmh W 16.6 mph26.7 kmh 29.88 in1011.9 mb 0.00 in0.0 mm 0.00 in0.0 mm 0.82 in20.8 mm
05:39 PM 61.2°F16.2°C 51.7°F10.9°C 71% 16.1 mph WSW25.9 kmh WSW 16.6 mph26.7 kmh 29.88 in1011.9 mb 0.00 in0.0 mm 0.00 in0.0 mm 0.82 in20.8 mm
05:40 PM 61.2°F16.2°C 51.7°F10.9°C 71% 20.2 mph W32.5 kmh W 20.2 mph32.5 kmh 29.88 in1011.9 mb 0.00 in0.0 mm 0.00 in0.0 mm 0.82 in20.8 mm
05:41 PM 61.0°F16.1°C 51.5°F10.8°C 71% 14.0 mph WSW22.5 kmh WSW 20.2 mph32.5 kmh 29.88 in1011.9 mb 0.00 in0.0 mm 0.00 in0.0 mm 0.82 in20.8 mm
05:42 PM 61.0°F16.1°C 51.5°F10.8°C 71% 13.5 mph WSW21.7 kmh WSW 20.2 mph32.5 kmh 29.88 in1011.9 mb 0.00 in0.0 mm 0.00 in0.0 mm 0.82 in20.8 mm
05:43 PM 61.0°F16.1°C 51.5°F10.8°C 71% 11.4 mph W18.3 kmh W 20.2 mph32.5 kmh 29.88 in1011.9 mb 0.00 in0.0 mm 0.00 in0.0 mm 0.82 in20.8 mm
05:44 PM 61.0°F16.1°C 51.9°F11.1°C 72% 14.0 mph SW22.5 kmh SW 20.2 mph32.5 kmh 29.88 in1011.9 mb 0.00 in0.0 mm 0.00 in0.0 mm 0.82 in20.8 mm
05:45 PM 61.0°F16.1°C 51.5°F10.8°C 71% 19.7 mph W31.7 kmh W 20.2 mph32.5 kmh 29.88 in1011.9 mb 0.00 in0.0 mm 0.00 in0.0 mm 0.82 in20.8 mm
05:46 PM 61.0°F16.1°C 51.1°F10.6°C 70% 15.6 mph W25.1 kmh W 20.2 mph32.5 kmh 29.88 in1011.9 mb 0.00 in0.0 mm 0.00 in0.0 mm 0.82 in20.8 mm
05:47 PM 60.8°F16.0°C 51.0°F10.6°C 70% 16.1 mph SW25.9 kmh SW 20.2 mph32.5 kmh 29.88 in1011.9 mb 0.00 in0.0 mm 0.00 in0.0 mm 0.82 in20.8 mm
05:48 PM 60.8°F16.0°C 51.0°F10.6°C 70% 15.0 mph WSW24.1 kmh WSW 20.2 mph32.5 kmh 29.88 in1011.9 mb 0.00 in0.0 mm 0.00 in0.0 mm 0.82 in20.8 mm
05:49 PM 60.8°F16.0°C 51.0°F10.6°C 70% 21.2 mph WSW34.1 kmh WSW 21.2 mph34.1 kmh 29.88 in1011.9 mb 0.00 in0.0 mm 0.00 in0.0 mm 0.82 in20.8 mm
05:50 PM 60.8°F16.0°C 51.3°F10.7°C 71% 15.6 mph WSW25.1 kmh WSW 21.2 mph34.1 kmh 29.88 in1011.9 mb 0.00 in0.0 mm 0.00 in0.0 mm 0.82 in20.8 mm
05:51 PM 60.6°F15.9°C 50.8°F10.4°C 70% 18.1 mph WSW29.1 kmh WSW 21.2 mph34.1 kmh 29.88 in1011.9 mb 0.00 in0.0 mm 0.00 in0.0 mm 0.82 in20.8 mm
05:52 PM 60.6°F15.9°C 50.4°F10.2°C 69% 17.1 mph W27.5 kmh W 21.2 mph34.1 kmh 29.88 in1011.9 mb 0.00 in0.0 mm 0.00 in0.0 mm 0.82 in20.8 mm
05:53 PM 60.6°F15.9°C 50.4°F10.2°C 69% 17.6 mph W28.3 kmh W 21.2 mph34.1 kmh 29.88 in1011.9 mb 0.00 in0.0 mm 0.00 in0.0 mm 0.82 in20.8 mm
05:54 PM 60.8°F16.0°C 51.0°F10.6°C 70% 14.5 mph WSW23.3 kmh WSW 21.2 mph34.1 kmh 29.88 in1011.9 mb 0.00 in0.0 mm 0.00 in0.0 mm 0.82 in20.8 mm
05:55 PM 60.8°F16.0°C 51.0°F10.6°C 70% 13.0 mph WSW20.9 kmh WSW 21.2 mph34.1 kmh 29.88 in1011.9 mb 0.00 in0.0 mm 0.00 in0.0 mm 0.82 in20.8 mm
05:56 PM 60.8°F16.0°C 51.3°F10.7°C 71% 12.5 mph WSW20.1 kmh WSW 21.2 mph34.1 kmh 29.88 in1011.9 mb 0.00 in0.0 mm 0.00 in0.0 mm 0.82 in20.8 mm
05:57 PM 60.8°F16.0°C 51.7°F10.9°C 72% 12.5 mph WSW20.1 kmh WSW 21.2 mph34.1 kmh 29.88 in1011.9 mb 0.00 in0.0 mm 0.00 in0.0 mm 0.82 in20.8 mm
05:58 PM 60.8°F16.0°C 51.7°F10.9°C 72% 16.1 mph W25.9 kmh W 21.2 mph34.1 kmh 29.88 in1011.9 mb 0.00 in0.0 mm 0.00 in0.0 mm 0.82 in20.8 mm
05:59 PM 60.8°F16.0°C 51.3°F10.7°C 71% 15.6 mph WSW25.1 kmh WSW 20.7 mph33.3 kmh 29.88 in1011.9 mb 0.00 in0.0 mm 0.00 in0.0 mm 0.82 in20.8 mm
06:00 PM 60.8°F16.0°C 51.3°F10.7°C 71% 16.1 mph W25.9 kmh W 20.7 mph33.3 kmh 29.88 in1011.9 mb 0.00 in0.0 mm 0.00 in0.0 mm 0.82 in20.8 mm
06:01 PM 60.8°F16.0°C 51.3°F10.7°C 71% 14.0 mph WSW22.5 kmh WSW 20.7 mph33.3 kmh 29.88 in1011.9 mb 0.00 in0.0 mm 0.00 in0.0 mm 0.82 in20.8 mm
06:02 PM 60.6°F15.9°C 50.8°F10.4°C 70% 16.1 mph WSW25.9 kmh WSW 19.1 mph30.7 kmh 29.88 in1011.9 mb 0.00 in0.0 mm 0.00 in0.0 mm 0.82 in20.8 mm
06:03 PM 60.6°F15.9°C 50.8°F10.4°C 70% 13.5 mph W21.7 kmh W 19.1 mph30.7 kmh 29.88 in1011.9 mb 0.00 in0.0 mm 0.00 in0.0 mm 0.82 in20.8 mm
06:04 PM 60.6°F15.9°C 51.2°F10.7°C 71% 14.5 mph W23.3 kmh W 19.1 mph30.7 kmh 29.88 in1011.9 mb 0.00 in0.0 mm 0.00 in0.0 mm 0.82 in20.8 mm
06:05 PM 60.6°F15.9°C 50.8°F10.4°C 70% 18.1 mph W29.1 kmh W 19.1 mph30.7 kmh 29.88 in1011.9 mb 0.00 in0.0 mm 0.00 in0.0 mm 0.82 in20.8 mm
06:06 PM 60.6°F15.9°C 50.8°F10.4°C 70% 17.1 mph W27.5 kmh W 19.1 mph30.7 kmh 29.88 in1011.9 mb 0.00 in0.0 mm 0.00 in0.0 mm 0.82 in20.8 mm
06:07 PM 60.8°F16.0°C 51.3°F10.7°C 71% 12.5 mph WSW20.1 kmh WSW 19.1 mph30.7 kmh 29.88 in1011.9 mb 0.00 in0.0 mm 0.00 in0.0 mm 0.82 in20.8 mm
06:08 PM 60.6°F15.9°C 50.8°F10.4°C 70% 15.0 mph W24.1 kmh W 19.1 mph30.7 kmh 29.88 in1011.9 mb 0.00 in0.0 mm 0.00 in0.0 mm 0.82 in20.8 mm
06:09 PM 60.6°F15.9°C 50.4°F10.2°C 69% 19.7 mph WSW31.7 kmh WSW 20.7 mph33.3 kmh 29.88 in1011.9 mb 0.00 in0.0 mm 0.00 in0.0 mm 0.82 in20.8 mm
06:10 PM 60.6°F15.9°C 50.0°F10.0°C 68% 13.5 mph W21.7 kmh W 20.7 mph33.3 kmh 29.88 in1011.9 mb 0.00 in0.0 mm 0.00 in0.0 mm 0.82 in20.8 mm
06:11 PM 60.8°F16.0°C 50.6°F10.3°C 69% 16.1 mph WSW25.9 kmh WSW 20.7 mph33.3 kmh 29.88 in1011.9 mb 0.00 in0.0 mm 0.00 in0.0 mm 0.82 in20.8 mm
06:12 PM 60.8°F16.0°C 51.0°F10.6°C 70% 13.5 mph SW21.7 kmh SW 20.7 mph33.3 kmh 29.88 in1011.9 mb 0.00 in0.0 mm 0.00 in0.0 mm 0.82 in20.8 mm
06:13 PM 60.8°F16.0°C 51.0°F10.6°C 70% 16.6 mph SW26.7 kmh SW 20.7 mph33.3 kmh 29.88 in1011.9 mb 0.00 in0.0 mm 0.00 in0.0 mm 0.82 in20.8 mm
06:14 PM 60.6°F15.9°C 50.8°F10.4°C 70% 14.0 mph SW22.5 kmh SW 20.7 mph33.3 kmh 29.88 in1011.9 mb 0.00 in0.0 mm 0.00 in0.0 mm 0.82 in20.8 mm
06:15 PM 60.6°F15.9°C 50.8°F10.4°C 70% 17.6 mph WSW28.3 kmh WSW 20.7 mph33.3 kmh 29.88 in1011.9 mb 0.00 in0.0 mm 0.00 in0.0 mm 0.82 in20.8 mm
06:16 PM 60.8°F16.0°C 51.3°F10.7°C 71% 14.5 mph W23.3 kmh W 20.7 mph33.3 kmh 29.88 in1011.9 mb 0.00 in0.0 mm 0.00 in0.0 mm 0.82 in20.8 mm
06:17 PM 60.8°F16.0°C 51.3°F10.7°C 71% 13.5 mph W21.7 kmh W 20.7 mph33.3 kmh 29.89 in1012.2 mb 0.00 in0.0 mm 0.00 in0.0 mm 0.82 in20.8 mm
06:18 PM 60.8°F16.0°C 51.0°F10.6°C 70% 15.6 mph W25.1 kmh W 20.7 mph33.3 kmh 29.89 in1012.2 mb 0.00 in0.0 mm 0.00 in0.0 mm 0.82 in20.8 mm
06:19 PM 60.8°F16.0°C 51.7°F10.9°C 72% 12.5 mph WSW20.1 kmh WSW 19.7 mph31.7 kmh 29.89 in1012.2 mb 0.00 in0.0 mm 0.00 in0.0 mm 0.82 in20.8 mm
06:20 PM 60.6°F15.9°C 51.2°F10.7°C 71% 19.7 mph W31.7 kmh W 19.7 mph31.7 kmh 29.89 in1012.2 mb 0.00 in0.0 mm 0.00 in0.0 mm 0.82 in20.8 mm
06:21 PM 60.6°F15.9°C 50.8°F10.4°C 70% 14.0 mph WSW22.5 kmh WSW 20.7 mph33.3 kmh 29.89 in1012.2 mb 0.00 in0.0 mm 0.00 in0.0 mm 0.82 in20.8 mm
06:22 PM 60.6°F15.9°C 50.8°F10.4°C 70% 17.1 mph SW27.5 kmh SW 20.7 mph33.3 kmh 29.89 in1012.2 mb 0.00 in0.0 mm 0.00 in0.0 mm 0.82 in20.8 mm
06:23 PM 60.6°F15.9°C 51.5°F10.8°C 72% 16.6 mph W26.7 kmh W 20.7 mph33.3 kmh 29.89 in1012.2 mb 0.00 in0.0 mm 0.00 in0.0 mm 0.82 in20.8 mm
06:24 PM 60.6°F15.9°C 51.2°F10.7°C 71% 14.5 mph W23.3 kmh W 20.7 mph33.3 kmh 29.89 in1012.2 mb 0.00 in0.0 mm 0.00 in0.0 mm 0.82 in20.8 mm
06:25 PM 60.6°F15.9°C 51.5°F10.8°C 72% 15.0 mph WSW24.1 kmh WSW 20.7 mph33.3 kmh 29.89 in1012.2 mb 0.00 in0.0 mm 0.00 in0.0 mm 0.82 in20.8 mm
06:26 PM 60.6°F15.9°C 51.5°F10.8°C 72% 19.2 mph W30.9 kmh W 20.7 mph33.3 kmh 29.89 in1012.2 mb 0.00 in0.0 mm 0.00 in0.0 mm 0.82 in20.8 mm
06:27 PM 60.6°F15.9°C 51.5°F10.8°C 72% 15.6 mph W25.1 kmh W 20.7 mph33.3 kmh 29.89 in1012.2 mb 0.00 in0.0 mm 0.00 in0.0 mm 0.82 in20.8 mm
06:28 PM 60.6°F15.9°C 51.5°F10.8°C 72% 14.0 mph WSW22.5 kmh WSW 20.7 mph33.3 kmh 29.89 in1012.2 mb 0.00 in0.0 mm 0.00 in0.0 mm 0.82 in20.8 mm
06:29 PM 60.6°F15.9°C 51.5°F10.8°C 72% 13.5 mph WSW21.7 kmh WSW 20.7 mph33.3 kmh 29.89 in1012.2 mb 0.00 in0.0 mm 0.00 in0.0 mm 0.82 in20.8 mm
06:30 PM 60.6°F15.9°C 51.2°F10.7°C 71% 13.5 mph WSW21.7 kmh WSW 20.7 mph33.3 kmh 29.89 in1012.2 mb 0.00 in0.0 mm 0.00 in0.0 mm 0.82 in20.8 mm
06:31 PM 60.6°F15.9°C 50.8°F10.4°C 70% 12.5 mph WSW20.1 kmh WSW 19.1 mph30.7 kmh 29.89 in1012.2 mb 0.00 in0.0 mm 0.00 in0.0 mm 0.82 in20.8 mm
06:32 PM 60.6°F15.9°C 50.8°F10.4°C 70% 15.6 mph W25.1 kmh W 19.1 mph30.7 kmh 29.89 in1012.2 mb 0.00 in0.0 mm 0.00 in0.0 mm 0.82 in20.8 mm
06:33 PM 60.8°F16.0°C 51.3°F10.7°C 71% 16.1 mph W25.9 kmh W 19.1 mph30.7 kmh 29.89 in1012.2 mb 0.00 in0.0 mm 0.00 in0.0 mm 0.82 in20.8 mm
06:34 PM 60.8°F16.0°C 51.0°F10.6°C 70% 16.1 mph W25.9 kmh W 19.1 mph30.7 kmh 29.89 in1012.2 mb 0.00 in0.0 mm 0.00 in0.0 mm 0.82 in20.8 mm
06:35 PM 60.8°F16.0°C 51.0°F10.6°C 70% 16.6 mph WSW26.7 kmh WSW 19.1 mph30.7 kmh 29.89 in1012.2 mb 0.00 in0.0 mm 0.00 in0.0 mm 0.82 in20.8 mm
06:36 PM 60.8°F16.0°C 51.0°F10.6°C 70% 15.0 mph W24.1 kmh W 17.6 mph28.3 kmh 29.89 in1012.2 mb 0.00 in0.0 mm 0.00 in0.0 mm 0.82 in20.8 mm
06:37 PM 60.8°F16.0°C 51.3°F10.7°C 71% 16.1 mph WSW25.9 kmh WSW 17.6 mph28.3 kmh 29.89 in1012.2 mb 0.00 in0.0 mm 0.00 in0.0 mm 0.82 in20.8 mm
06:38 PM 60.8°F16.0°C 51.7°F10.9°C 72% 14.5 mph W23.3 kmh W 18.1 mph29.1 kmh 29.89 in1012.2 mb 0.00 in0.0 mm 0.00 in0.0 mm 0.82 in20.8 mm
06:39 PM 61.0°F16.1°C 52.3°F11.3°C 73% 13.0 mph WSW20.9 kmh WSW 18.1 mph29.1 kmh 29.89 in1012.2 mb 0.00 in0.0 mm 0.00 in0.0 mm 0.82 in20.8 mm
06:40 PM 61.0°F16.1°C 51.9°F11.1°C 72% 18.6 mph W29.9 kmh W 18.6 mph29.9 kmh 29.89 in1012.2 mb 0.00 in0.0 mm 0.00 in0.0 mm 0.82 in20.8 mm
06:41 PM 61.0°F16.1°C 51.9°F11.1°C 72% 17.1 mph WSW27.5 kmh WSW 18.6 mph29.9 kmh 29.89 in1012.2 mb 0.00 in0.0 mm 0.00 in0.0 mm 0.82 in20.8 mm
06:42 PM 61.0°F16.1°C 51.9°F11.1°C 72% 14.5 mph W23.3 kmh W 18.6 mph29.9 kmh 29.89 in1012.2 mb 0.00 in0.0 mm 0.00 in0.0 mm 0.82 in20.8 mm
06:43 PM 60.8°F16.0°C 51.7°F10.9°C 72% 14.5 mph W23.3 kmh W 18.6 mph29.9 kmh 29.89 in1012.2 mb 0.00 in0.0 mm 0.00 in0.0 mm 0.82 in20.8 mm
06:44 PM 60.8°F16.0°C 51.7°F10.9°C 72% 18.1 mph W29.1 kmh W 18.6 mph29.9 kmh 29.89 in1012.2 mb 0.00 in0.0 mm 0.00 in0.0 mm 0.82 in20.8 mm
06:45 PM 60.8°F16.0°C 51.7°F10.9°C 72% 13.0 mph WSW20.9 kmh WSW 18.6 mph29.9 kmh 29.89 in1012.2 mb 0.00 in0.0 mm 0.00 in0.0 mm 0.82 in20.8 mm
06:46 PM 60.8°F16.0°C 51.3°F10.7°C 71% 15.0 mph SW24.1 kmh SW 18.6 mph29.9 kmh 29.89 in1012.2 mb 0.00 in0.0 mm 0.00 in0.0 mm 0.82 in20.8 mm
06:47 PM 61.0°F16.1°C 51.9°F11.1°C 72% 14.0 mph W22.5 kmh W 18.6 mph29.9 kmh 29.89 in1012.2 mb 0.00 in0.0 mm 0.00 in0.0 mm 0.82 in20.8 mm
06:48 PM 61.0°F16.1°C 51.9°F11.1°C 72% 15.6 mph W25.1 kmh W 18.6 mph29.9 kmh 29.89 in1012.2 mb 0.00 in0.0 mm 0.00 in0.0 mm 0.82 in20.8 mm
06:49 PM 61.0°F16.1°C 51.9°F11.1°C 72% 12.5 mph WSW20.1 kmh WSW 18.6 mph29.9 kmh 29.89 in1012.2 mb 0.00 in0.0 mm 0.00 in0.0 mm 0.82 in20.8 mm
06:50 PM 61.0°F16.1°C 51.5°F10.8°C 71% 14.5 mph WSW23.3 kmh WSW 18.6 mph29.9 kmh 29.89 in1012.2 mb 0.00 in0.0 mm 0.00 in0.0 mm 0.82 in20.8 mm
06:51 PM 60.8°F16.0°C 51.0°F10.6°C 70% 12.5 mph WSW20.1 kmh WSW 18.1 mph29.1 kmh 29.89 in1012.2 mb 0.00 in0.0 mm 0.00 in0.0 mm 0.82 in20.8 mm
06:52 PM 60.8°F16.0°C 51.0°F10.6°C 70% 12.5 mph WSW20.1 kmh WSW 18.1 mph29.1 kmh 29.90 in1012.5 mb 0.00 in0.0 mm 0.00 in0.0 mm 0.82 in20.8 mm
06:53 PM 60.8°F16.0°C 51.0°F10.6°C 70% 13.5 mph WSW21.7 kmh WSW 18.1 mph29.1 kmh 29.90 in1012.5 mb 0.00 in0.0 mm 0.00 in0.0 mm 0.82 in20.8 mm
06:54 PM 60.8°F16.0°C 51.3°F10.7°C 71% 15.0 mph WSW24.1 kmh WSW 18.1 mph29.1 kmh 29.90 in1012.5 mb 0.00 in0.0 mm 0.00 in0.0 mm 0.82 in20.8 mm
06:55 PM 60.6°F15.9°C 51.2°F10.7°C 71% 13.5 mph WSW21.7 kmh WSW 17.6 mph28.3 kmh 29.90 in1012.5 mb 0.00 in0.0 mm 0.00 in0.0 mm 0.82 in20.8 mm
06:56 PM 60.6°F15.9°C 51.2°F10.7°C 71% 15.6 mph WSW25.1 kmh WSW 18.6 mph29.9 kmh 29.90 in1012.5 mb 0.00 in0.0 mm 0.00 in0.0 mm 0.82 in20.8 mm
06:57 PM 60.4°F15.8°C 51.0°F10.6°C 71% 13.5 mph WSW21.7 kmh WSW 21.7 mph34.9 kmh 29.90 in1012.5 mb 0.00 in0.0 mm 0.00 in0.0 mm 0.82 in20.8 mm
06:58 PM 60.6°F15.9°C 51.2°F10.7°C 71% 18.1 mph W29.1 kmh W 21.7 mph34.9 kmh 29.90 in1012.5 mb 0.00 in0.0 mm 0.00 in0.0 mm 0.82 in20.8 mm
06:59 PM 60.6°F15.9°C 51.2°F10.7°C 71% 16.1 mph WSW25.9 kmh WSW 21.7 mph34.9 kmh 29.90 in1012.5 mb 0.00 in0.0 mm 0.00 in0.0 mm 0.82 in20.8 mm
07:00 PM 60.6°F15.9°C 50.8°F10.4°C 70% 18.1 mph W29.1 kmh W 21.7 mph34.9 kmh 29.90 in1012.5 mb 0.00 in0.0 mm 0.00 in0.0 mm 0.82 in20.8 mm
07:01 PM 60.6°F15.9°C 50.8°F10.4°C 70% 17.1 mph W27.5 kmh W 21.7 mph34.9 kmh 29.90 in1012.5 mb 0.00 in0.0 mm 0.00 in0.0 mm 0.82 in20.8 mm
07:02 PM 60.6°F15.9°C 50.8°F10.4°C 70% 13.5 mph WSW21.7 kmh WSW 21.7 mph34.9 kmh 29.90 in1012.5 mb 0.00 in0.0 mm 0.00 in0.0 mm 0.82 in20.8 mm
07:03 PM 60.6°F15.9°C 50.8°F10.4°C 70% 13.5 mph SW21.7 kmh SW 21.7 mph34.9 kmh 29.90 in1012.5 mb 0.00 in0.0 mm 0.00 in0.0 mm 0.82 in20.8 mm
07:04 PM 60.6°F15.9°C 50.8°F10.4°C 70% 13.0 mph W20.9 kmh W 21.7 mph34.9 kmh 29.91 in1012.9 mb 0.00 in0.0 mm 0.00 in0.0 mm 0.82 in20.8 mm
07:05 PM 60.8°F16.0°C 51.3°F10.7°C 71% 13.5 mph WSW21.7 kmh WSW 21.7 mph34.9 kmh 29.91 in1012.9 mb 0.00 in0.0 mm 0.00 in0.0 mm 0.82 in20.8 mm
07:06 PM 60.8°F16.0°C 51.0°F10.6°C 70% 14.5 mph WSW23.3 kmh WSW 21.7 mph34.9 kmh 29.91 in1012.9 mb 0.00 in0.0 mm 0.00 in0.0 mm 0.82 in20.8 mm
07:07 PM 60.8°F16.0°C 51.3°F10.7°C 71% 18.1 mph WSW29.1 kmh WSW 18.1 mph29.1 kmh 29.91 in1012.9 mb 0.00 in0.0 mm 0.00 in0.0 mm 0.82 in20.8 mm
07:08 PM 60.6°F15.9°C 50.8°F10.4°C 70% 16.1 mph WSW25.9 kmh WSW 18.1 mph29.1 kmh 29.91 in1012.9 mb 0.00 in0.0 mm 0.00 in0.0 mm 0.82 in20.8 mm
07:09 PM 60.6°F15.9°C 50.8°F10.4°C 70% 13.0 mph W20.9 kmh W 18.1 mph29.1 kmh 29.91 in1012.9 mb 0.00 in0.0 mm 0.00 in0.0 mm 0.82 in20.8 mm
07:10 PM 60.6°F15.9°C 50.8°F10.4°C 70% 12.0 mph W19.3 kmh W 19.1 mph30.7 kmh 29.91 in1012.9 mb 0.00 in0.0 mm 0.00 in0.0 mm 0.82 in20.8 mm
07:11 PM 60.6°F15.9°C 51.5°F10.8°C 72% 12.5 mph WSW20.1 kmh WSW 19.1 mph30.7 kmh 29.91 in1012.9 mb 0.00 in0.0 mm 0.00 in0.0 mm 0.82 in20.8 mm
07:12 PM 60.8°F16.0°C 51.7°F10.9°C 72% 13.0 mph W20.9 kmh W 19.1 mph30.7 kmh 29.91 in1012.9 mb 0.00 in0.0 mm 0.00 in0.0 mm 0.82 in20.8 mm
07:13 PM 60.8°F16.0°C 51.7°F10.9°C 72% 11.4 mph W18.3 kmh W 19.1 mph30.7 kmh 29.91 in1012.9 mb 0.00 in0.0 mm 0.00 in0.0 mm 0.82 in20.8 mm
07:14 PM 60.8°F16.0°C 51.7°F10.9°C 72% 16.1 mph WSW25.9 kmh WSW 19.1 mph30.7 kmh 29.91 in1012.9 mb 0.00 in0.0 mm 0.00 in0.0 mm 0.82 in20.8 mm
07:15 PM 60.8°F16.0°C 51.7°F10.9°C 72% 13.0 mph WSW20.9 kmh WSW 19.1 mph30.7 kmh 29.91 in1012.9 mb 0.00 in0.0 mm 0.00 in0.0 mm 0.82 in20.8 mm
07:16 PM 60.6°F15.9°C 51.2°F10.7°C 71% 17.6 mph WSW28.3 kmh WSW 19.1 mph30.7 kmh 29.91 in1012.9 mb 0.00 in0.0 mm 0.00 in0.0 mm 0.82 in20.8 mm
07:17 PM 60.6°F15.9°C 50.4°F10.2°C 69% 18.6 mph W29.9 kmh W 19.1 mph30.7 kmh 29.91 in1012.9 mb 0.00 in0.0 mm 0.00 in0.0 mm 0.82 in20.8 mm
07:18 PM 60.6°F15.9°C 50.4°F10.2°C 69% 16.1 mph WSW25.9 kmh WSW 20.7 mph33.3 kmh 29.91 in1012.9 mb 0.00 in0.0 mm 0.00 in0.0 mm 0.82 in20.8 mm
07:19 PM 60.6°F15.9°C 50.8°F10.4°C 70% 14.0 mph SW22.5 kmh SW 20.7 mph33.3 kmh 29.91 in1012.9 mb 0.00 in0.0 mm 0.00 in0.0 mm 0.82 in20.8 mm
07:20 PM 60.6°F15.9°C 50.8°F10.4°C 70% 13.0 mph WSW20.9 kmh WSW 20.7 mph33.3 kmh 29.91 in1012.9 mb 0.00 in0.0 mm 0.00 in0.0 mm 0.82 in20.8 mm
07:21 PM 60.8°F16.0°C 51.3°F10.7°C 71% 15.0 mph WSW24.1 kmh WSW 20.7 mph33.3 kmh 29.91 in1012.9 mb 0.00 in0.0 mm 0.00 in0.0 mm 0.82 in20.8 mm
07:22 PM 60.6°F15.9°C 50.4°F10.2°C 69% 17.1 mph W27.5 kmh W 20.7 mph33.3 kmh 29.91 in1012.9 mb 0.00 in0.0 mm 0.00 in0.0 mm 0.82 in20.8 mm
07:23 PM 60.6°F15.9°C 50.4°F10.2°C 69% 17.6 mph W28.3 kmh W 20.7 mph33.3 kmh 29.91 in1012.9 mb 0.00 in0.0 mm 0.00 in0.0 mm 0.82 in20.8 mm
07:24 PM 60.6°F15.9°C 50.8°F10.4°C 70% 13.0 mph W20.9 kmh W 20.7 mph33.3 kmh 29.91 in1012.9 mb 0.00 in0.0 mm 0.00 in0.0 mm 0.82 in20.8 mm
07:25 PM 60.6°F15.9°C 50.8°F10.4°C 70% 13.0 mph W20.9 kmh W 20.7 mph33.3 kmh 29.91 in1012.9 mb 0.00 in0.0 mm 0.00 in0.0 mm 0.82 in20.8 mm
07:26 PM 60.6°F15.9°C 50.8°F10.4°C 70% 13.0 mph WSW20.9 kmh WSW 20.7 mph33.3 kmh 29.91 in1012.9 mb 0.00 in0.0 mm 0.00 in0.0 mm 0.82 in20.8 mm
07:27 PM 60.6°F15.9°C 50.8°F10.4°C 70% 16.1 mph W25.9 kmh W 20.7 mph33.3 kmh 29.91 in1012.9 mb 0.00 in0.0 mm 0.00 in0.0 mm 0.82 in20.8 mm
07:28 PM 60.6°F15.9°C 50.8°F10.4°C 70% 18.6 mph WSW29.9 kmh WSW 20.7 mph33.3 kmh 29.91 in1012.9 mb 0.00 in0.0 mm 0.00 in0.0 mm 0.82 in20.8 mm
07:29 PM 60.8°F16.0°C 51.3°F10.7°C 71% 14.5 mph W23.3 kmh W 20.7 mph33.3 kmh 29.91 in1012.9 mb 0.00 in0.0 mm 0.00 in0.0 mm 0.82 in20.8 mm
07:30 PM 60.8°F16.0°C 51.0°F10.6°C 70% 15.6 mph W25.1 kmh W 20.7 mph33.3 kmh 29.91 in1012.9 mb 0.00 in0.0 mm 0.00 in0.0 mm 0.82 in20.8 mm
07:31 PM 60.8°F16.0°C 51.0°F